<?xml version="1.0" encoding="UTF-8" standalone="no" ?>
<gpx xmlns="http://www.topografix.com/GPX/1/1" xmlns:xsi="http://www.w3.org/2001/XMLSchema-instance" xsi:schemaLocation="http://www.topografix.com/GPX/1/1 http://www.topografix.com/GPX/1/1/gpx.xsd" version="1.1" creator="VisuGPX - https://www.visugpx.com">
  <metadata>
    <name>Cénome/Tauriac de Camarès</name>
    <desc><![CDATA[AU pays de Roquefort]]></desc>
  </metadata>
  <trk>
    <name><![CDATA[Cenome]]></name>
    <trkseg>
      <trkpt lat="43.80912" lon="3.02625">
        <ele>521.59</ele>
        <time>2016-05-28T07:16:32Z</time>
      </trkpt>
      <trkpt lat="43.80914" lon="3.02626">
        <ele>521.4</ele>
        <time>2016-05-28T07:16:34Z</time>
      </trkpt>
      <trkpt lat="43.80916" lon="3.02638">
        <ele>521.19</ele>
        <time>2016-05-28T07:16:57Z</time>
      </trkpt>
      <trkpt lat="43.80919" lon="3.02623">
        <ele>521.49</ele>
        <time>2016-05-28T07:17:26Z</time>
      </trkpt>
      <trkpt lat="43.80918" lon="3.02616">
        <ele>520.93</ele>
        <time>2016-05-28T07:17:45Z</time>
      </trkpt>
      <trkpt lat="43.8093" lon="3.02604">
        <ele>520.1</ele>
        <time>2016-05-28T07:18:05Z</time>
      </trkpt>
      <trkpt lat="43.80932" lon="3.02601">
        <ele>519.81</ele>
        <time>2016-05-28T07:18:18Z</time>
      </trkpt>
      <trkpt lat="43.80931" lon="3.02599">
        <ele>519.77</ele>
        <time>2016-05-28T07:18:20Z</time>
      </trkpt>
      <trkpt lat="43.80928" lon="3.02583">
        <ele>518.7</ele>
        <time>2016-05-28T07:18:30Z</time>
      </trkpt>
      <trkpt lat="43.80931" lon="3.02571">
        <ele>517.35</ele>
        <time>2016-05-28T07:18:38Z</time>
      </trkpt>
      <trkpt lat="43.80929" lon="3.02556">
        <ele>516.18</ele>
        <time>2016-05-28T07:18:49Z</time>
      </trkpt>
      <trkpt lat="43.80919" lon="3.02557">
        <ele>513.89</ele>
        <time>2016-05-28T07:19:05Z</time>
      </trkpt>
      <trkpt lat="43.80913" lon="3.02557">
        <ele>513.25</ele>
        <time>2016-05-28T07:19:10Z</time>
      </trkpt>
      <trkpt lat="43.80898" lon="3.02547">
        <ele>509.95</ele>
        <time>2016-05-28T07:19:25Z</time>
      </trkpt>
      <trkpt lat="43.809" lon="3.02534">
        <ele>508.25</ele>
        <time>2016-05-28T07:19:36Z</time>
      </trkpt>
      <trkpt lat="43.80906" lon="3.02526">
        <ele>507.3</ele>
        <time>2016-05-28T07:19:42Z</time>
      </trkpt>
      <trkpt lat="43.80913" lon="3.02516">
        <ele>505.83</ele>
        <time>2016-05-28T07:19:49Z</time>
      </trkpt>
      <trkpt lat="43.80916" lon="3.02503">
        <ele>504.81</ele>
        <time>2016-05-28T07:19:56Z</time>
      </trkpt>
      <trkpt lat="43.80918" lon="3.02494">
        <ele>504.07</ele>
        <time>2016-05-28T07:20:02Z</time>
      </trkpt>
      <trkpt lat="43.80909" lon="3.02483">
        <ele>503.06</ele>
        <time>2016-05-28T07:20:10Z</time>
      </trkpt>
      <trkpt lat="43.809" lon="3.02469">
        <ele>502.98</ele>
        <time>2016-05-28T07:20:21Z</time>
      </trkpt>
      <trkpt lat="43.80897" lon="3.02466">
        <ele>503.13</ele>
        <time>2016-05-28T07:20:24Z</time>
      </trkpt>
      <trkpt lat="43.80891" lon="3.0246">
        <ele>503.76</ele>
        <time>2016-05-28T07:20:31Z</time>
      </trkpt>
      <trkpt lat="43.80889" lon="3.02457">
        <ele>504.02</ele>
        <time>2016-05-28T07:20:35Z</time>
      </trkpt>
      <trkpt lat="43.80885" lon="3.02442">
        <ele>505.08</ele>
        <time>2016-05-28T07:20:45Z</time>
      </trkpt>
      <trkpt lat="43.80872" lon="3.02427">
        <ele>505.91</ele>
        <time>2016-05-28T07:20:59Z</time>
      </trkpt>
      <trkpt lat="43.80862" lon="3.02421">
        <ele>506.07</ele>
        <time>2016-05-28T07:21:08Z</time>
      </trkpt>
      <trkpt lat="43.80849" lon="3.02411">
        <ele>506.65</ele>
        <time>2016-05-28T07:21:20Z</time>
      </trkpt>
      <trkpt lat="43.80834" lon="3.02406">
        <ele>507.02</ele>
        <time>2016-05-28T07:21:31Z</time>
      </trkpt>
      <trkpt lat="43.80817" lon="3.02405">
        <ele>507.83</ele>
        <time>2016-05-28T07:21:47Z</time>
      </trkpt>
      <trkpt lat="43.80795" lon="3.02401">
        <ele>508.69</ele>
        <time>2016-05-28T07:22:03Z</time>
      </trkpt>
      <trkpt lat="43.80794" lon="3.02401">
        <ele>508.71</ele>
        <time>2016-05-28T07:22:04Z</time>
      </trkpt>
      <trkpt lat="43.80786" lon="3.02397">
        <ele>508.96</ele>
        <time>2016-05-28T07:22:10Z</time>
      </trkpt>
      <trkpt lat="43.8076" lon="3.02382">
        <ele>510.15</ele>
        <time>2016-05-28T07:22:28Z</time>
      </trkpt>
      <trkpt lat="43.80742" lon="3.02364">
        <ele>510.89</ele>
        <time>2016-05-28T07:22:44Z</time>
      </trkpt>
      <trkpt lat="43.80726" lon="3.02344">
        <ele>511.37</ele>
        <time>2016-05-28T07:23:02Z</time>
      </trkpt>
      <trkpt lat="43.80726" lon="3.02342">
        <ele>511.39</ele>
        <time>2016-05-28T07:23:03Z</time>
      </trkpt>
      <trkpt lat="43.80723" lon="3.02331">
        <ele>511.65</ele>
        <time>2016-05-28T07:23:20Z</time>
      </trkpt>
      <trkpt lat="43.80724" lon="3.02323">
        <ele>510.97</ele>
        <time>2016-05-28T07:23:47Z</time>
      </trkpt>
      <trkpt lat="43.80727" lon="3.02324">
        <ele>511.06</ele>
        <time>2016-05-28T07:24:05Z</time>
      </trkpt>
      <trkpt lat="43.80728" lon="3.02324">
        <ele>511.34</ele>
        <time>2016-05-28T07:24:25Z</time>
      </trkpt>
      <trkpt lat="43.80728" lon="3.02326">
        <ele>511.33</ele>
        <time>2016-05-28T07:24:54Z</time>
      </trkpt>
      <trkpt lat="43.80728" lon="3.02326">
        <ele>511.54</ele>
        <time>2016-05-28T07:25:25Z</time>
      </trkpt>
      <trkpt lat="43.80724" lon="3.02322">
        <ele>511.31</ele>
        <time>2016-05-28T07:25:53Z</time>
      </trkpt>
      <trkpt lat="43.80721" lon="3.02318">
        <ele>511.17</ele>
        <time>2016-05-28T07:25:59Z</time>
      </trkpt>
      <trkpt lat="43.80714" lon="3.02312">
        <ele>510.88</ele>
        <time>2016-05-28T07:26:06Z</time>
      </trkpt>
      <trkpt lat="43.80706" lon="3.02295">
        <ele>509.7</ele>
        <time>2016-05-28T07:26:19Z</time>
      </trkpt>
      <trkpt lat="43.80704" lon="3.02289">
        <ele>509.24</ele>
        <time>2016-05-28T07:26:23Z</time>
      </trkpt>
      <trkpt lat="43.80703" lon="3.0228">
        <ele>508.3</ele>
        <time>2016-05-28T07:26:30Z</time>
      </trkpt>
      <trkpt lat="43.80692" lon="3.02259">
        <ele>507.29</ele>
        <time>2016-05-28T07:26:44Z</time>
      </trkpt>
      <trkpt lat="43.80689" lon="3.02245">
        <ele>506.78</ele>
        <time>2016-05-28T07:26:53Z</time>
      </trkpt>
      <trkpt lat="43.80683" lon="3.02229">
        <ele>506.55</ele>
        <time>2016-05-28T07:27:04Z</time>
      </trkpt>
      <trkpt lat="43.80674" lon="3.02207">
        <ele>505.98</ele>
        <time>2016-05-28T07:27:16Z</time>
      </trkpt>
      <trkpt lat="43.80667" lon="3.02193">
        <ele>505.93</ele>
        <time>2016-05-28T07:27:25Z</time>
      </trkpt>
      <trkpt lat="43.80662" lon="3.02171">
        <ele>505.46</ele>
        <time>2016-05-28T07:27:37Z</time>
      </trkpt>
      <trkpt lat="43.80666" lon="3.02142">
        <ele>504.49</ele>
        <time>2016-05-28T07:27:52Z</time>
      </trkpt>
      <trkpt lat="43.8067" lon="3.02132">
        <ele>503.7</ele>
        <time>2016-05-28T07:27:57Z</time>
      </trkpt>
      <trkpt lat="43.80683" lon="3.02103">
        <ele>500.51</ele>
        <time>2016-05-28T07:28:14Z</time>
      </trkpt>
      <trkpt lat="43.80692" lon="3.02077">
        <ele>497.54</ele>
        <time>2016-05-28T07:28:32Z</time>
      </trkpt>
      <trkpt lat="43.80687" lon="3.0206">
        <ele>495.25</ele>
        <time>2016-05-28T07:28:44Z</time>
      </trkpt>
      <trkpt lat="43.8068" lon="3.02039">
        <ele>493.22</ele>
        <time>2016-05-28T07:28:57Z</time>
      </trkpt>
      <trkpt lat="43.80678" lon="3.0203">
        <ele>493.12</ele>
        <time>2016-05-28T07:29:04Z</time>
      </trkpt>
      <trkpt lat="43.80667" lon="3.02013">
        <ele>494.31</ele>
        <time>2016-05-28T07:29:20Z</time>
      </trkpt>
      <trkpt lat="43.80657" lon="3.01996">
        <ele>496.88</ele>
        <time>2016-05-28T07:29:37Z</time>
      </trkpt>
      <trkpt lat="43.80647" lon="3.01973">
        <ele>499.92</ele>
        <time>2016-05-28T07:29:56Z</time>
      </trkpt>
      <trkpt lat="43.80639" lon="3.01948">
        <ele>502.96</ele>
        <time>2016-05-28T07:30:16Z</time>
      </trkpt>
      <trkpt lat="43.80623" lon="3.01931">
        <ele>505.97</ele>
        <time>2016-05-28T07:30:35Z</time>
      </trkpt>
      <trkpt lat="43.8062" lon="3.01924">
        <ele>506.76</ele>
        <time>2016-05-28T07:30:40Z</time>
      </trkpt>
      <trkpt lat="43.80603" lon="3.01904">
        <ele>508.8</ele>
        <time>2016-05-28T07:30:54Z</time>
      </trkpt>
      <trkpt lat="43.80588" lon="3.0189">
        <ele>510.94</ele>
        <time>2016-05-28T07:31:09Z</time>
      </trkpt>
      <trkpt lat="43.80574" lon="3.01876">
        <ele>512.43</ele>
        <time>2016-05-28T07:31:22Z</time>
      </trkpt>
      <trkpt lat="43.80555" lon="3.01862">
        <ele>513.56</ele>
        <time>2016-05-28T07:31:39Z</time>
      </trkpt>
      <trkpt lat="43.80536" lon="3.01849">
        <ele>514.11</ele>
        <time>2016-05-28T07:31:54Z</time>
      </trkpt>
      <trkpt lat="43.80531" lon="3.01839">
        <ele>514.15</ele>
        <time>2016-05-28T07:32:01Z</time>
      </trkpt>
      <trkpt lat="43.8053" lon="3.01832">
        <ele>513.9</ele>
        <time>2016-05-28T07:32:05Z</time>
      </trkpt>
      <trkpt lat="43.80527" lon="3.01823">
        <ele>513.61</ele>
        <time>2016-05-28T07:32:11Z</time>
      </trkpt>
      <trkpt lat="43.80525" lon="3.01817">
        <ele>513.44</ele>
        <time>2016-05-28T07:32:15Z</time>
      </trkpt>
      <trkpt lat="43.80522" lon="3.01807">
        <ele>513.1</ele>
        <time>2016-05-28T07:32:23Z</time>
      </trkpt>
      <trkpt lat="43.80519" lon="3.01798">
        <ele>513.02</ele>
        <time>2016-05-28T07:32:29Z</time>
      </trkpt>
      <trkpt lat="43.80519" lon="3.01795">
        <ele>513.05</ele>
        <time>2016-05-28T07:32:31Z</time>
      </trkpt>
      <trkpt lat="43.80512" lon="3.01774">
        <ele>513.82</ele>
        <time>2016-05-28T07:32:47Z</time>
      </trkpt>
      <trkpt lat="43.80508" lon="3.01759">
        <ele>514.45</ele>
        <time>2016-05-28T07:33:00Z</time>
      </trkpt>
      <trkpt lat="43.80493" lon="3.01739">
        <ele>516.07</ele>
        <time>2016-05-28T07:33:18Z</time>
      </trkpt>
      <trkpt lat="43.80484" lon="3.01716">
        <ele>518.7</ele>
        <time>2016-05-28T07:33:39Z</time>
      </trkpt>
      <trkpt lat="43.80472" lon="3.01692">
        <ele>521.29</ele>
        <time>2016-05-28T07:33:57Z</time>
      </trkpt>
      <trkpt lat="43.80461" lon="3.01671">
        <ele>523.86</ele>
        <time>2016-05-28T07:34:17Z</time>
      </trkpt>
      <trkpt lat="43.80439" lon="3.01648">
        <ele>526.68</ele>
        <time>2016-05-28T07:34:36Z</time>
      </trkpt>
      <trkpt lat="43.80423" lon="3.01623">
        <ele>529.35</ele>
        <time>2016-05-28T07:34:56Z</time>
      </trkpt>
      <trkpt lat="43.80409" lon="3.01598">
        <ele>531.76</ele>
        <time>2016-05-28T07:35:18Z</time>
      </trkpt>
      <trkpt lat="43.80393" lon="3.01572">
        <ele>534.74</ele>
        <time>2016-05-28T07:35:39Z</time>
      </trkpt>
      <trkpt lat="43.8037" lon="3.01552">
        <ele>537.09</ele>
        <time>2016-05-28T07:35:56Z</time>
      </trkpt>
      <trkpt lat="43.80347" lon="3.01523">
        <ele>540.23</ele>
        <time>2016-05-28T07:36:15Z</time>
      </trkpt>
      <trkpt lat="43.80326" lon="3.01506">
        <ele>541.88</ele>
        <time>2016-05-28T07:36:28Z</time>
      </trkpt>
      <trkpt lat="43.80299" lon="3.01491">
        <ele>543.69</ele>
        <time>2016-05-28T07:36:42Z</time>
      </trkpt>
      <trkpt lat="43.80291" lon="3.0148">
        <ele>545.81</ele>
        <time>2016-05-28T07:37:00Z</time>
      </trkpt>
      <trkpt lat="43.80289" lon="3.01473">
        <ele>546.17</ele>
        <time>2016-05-28T07:37:06Z</time>
      </trkpt>
      <trkpt lat="43.8027" lon="3.01462">
        <ele>547.81</ele>
        <time>2016-05-28T07:37:22Z</time>
      </trkpt>
      <trkpt lat="43.80266" lon="3.01457">
        <ele>548.4</ele>
        <time>2016-05-28T07:37:26Z</time>
      </trkpt>
      <trkpt lat="43.80263" lon="3.01454">
        <ele>548.84</ele>
        <time>2016-05-28T07:37:28Z</time>
      </trkpt>
      <trkpt lat="43.80258" lon="3.01427">
        <ele>551.35</ele>
        <time>2016-05-28T07:37:44Z</time>
      </trkpt>
      <trkpt lat="43.80256" lon="3.01395">
        <ele>554.35</ele>
        <time>2016-05-28T07:38:05Z</time>
      </trkpt>
      <trkpt lat="43.80254" lon="3.01369">
        <ele>556.8</ele>
        <time>2016-05-28T07:38:24Z</time>
      </trkpt>
      <trkpt lat="43.8025" lon="3.01346">
        <ele>559.15</ele>
        <time>2016-05-28T07:38:44Z</time>
      </trkpt>
      <trkpt lat="43.80242" lon="3.01323">
        <ele>561.04</ele>
        <time>2016-05-28T07:39:04Z</time>
      </trkpt>
      <trkpt lat="43.80234" lon="3.01298">
        <ele>562.53</ele>
        <time>2016-05-28T07:39:20Z</time>
      </trkpt>
      <trkpt lat="43.80226" lon="3.01263">
        <ele>564.56</ele>
        <time>2016-05-28T07:39:38Z</time>
      </trkpt>
      <trkpt lat="43.80223" lon="3.01239">
        <ele>566.32</ele>
        <time>2016-05-28T07:39:50Z</time>
      </trkpt>
      <trkpt lat="43.80223" lon="3.01211">
        <ele>568.12</ele>
        <time>2016-05-28T07:40:06Z</time>
      </trkpt>
      <trkpt lat="43.80231" lon="3.01188">
        <ele>570.26</ele>
        <time>2016-05-28T07:40:25Z</time>
      </trkpt>
      <trkpt lat="43.80231" lon="3.01185">
        <ele>570.56</ele>
        <time>2016-05-28T07:40:28Z</time>
      </trkpt>
      <trkpt lat="43.80236" lon="3.01154">
        <ele>572.96</ele>
        <time>2016-05-28T07:40:50Z</time>
      </trkpt>
      <trkpt lat="43.80251" lon="3.01147">
        <ele>575.44</ele>
        <time>2016-05-28T07:41:11Z</time>
      </trkpt>
      <trkpt lat="43.80254" lon="3.01151">
        <ele>576.06</ele>
        <time>2016-05-28T07:41:16Z</time>
      </trkpt>
      <trkpt lat="43.80281" lon="3.01154">
        <ele>578.92</ele>
        <time>2016-05-28T07:41:40Z</time>
      </trkpt>
      <trkpt lat="43.80292" lon="3.01149">
        <ele>579.89</ele>
        <time>2016-05-28T07:41:49Z</time>
      </trkpt>
      <trkpt lat="43.80319" lon="3.01123">
        <ele>581.96</ele>
        <time>2016-05-28T07:42:09Z</time>
      </trkpt>
      <trkpt lat="43.80329" lon="3.01113">
        <ele>583.15</ele>
        <time>2016-05-28T07:42:22Z</time>
      </trkpt>
      <trkpt lat="43.8033" lon="3.01099">
        <ele>584.8</ele>
        <time>2016-05-28T07:42:36Z</time>
      </trkpt>
      <trkpt lat="43.80325" lon="3.01084">
        <ele>586.41</ele>
        <time>2016-05-28T07:42:49Z</time>
      </trkpt>
      <trkpt lat="43.80323" lon="3.01078">
        <ele>586.86</ele>
        <time>2016-05-28T07:42:53Z</time>
      </trkpt>
      <trkpt lat="43.80321" lon="3.01053">
        <ele>588.64</ele>
        <time>2016-05-28T07:43:07Z</time>
      </trkpt>
      <trkpt lat="43.80322" lon="3.01051">
        <ele>588.76</ele>
        <time>2016-05-28T07:43:08Z</time>
      </trkpt>
      <trkpt lat="43.80312" lon="3.0103">
        <ele>590.54</ele>
        <time>2016-05-28T07:43:20Z</time>
      </trkpt>
      <trkpt lat="43.80311" lon="3.01025">
        <ele>591.1</ele>
        <time>2016-05-28T07:43:24Z</time>
      </trkpt>
      <trkpt lat="43.80314" lon="3.01008">
        <ele>592.59</ele>
        <time>2016-05-28T07:43:36Z</time>
      </trkpt>
      <trkpt lat="43.80313" lon="3.01005">
        <ele>593</ele>
        <time>2016-05-28T07:43:38Z</time>
      </trkpt>
      <trkpt lat="43.80318" lon="3.00978">
        <ele>596.1</ele>
        <time>2016-05-28T07:43:57Z</time>
      </trkpt>
      <trkpt lat="43.80311" lon="3.00949">
        <ele>598.7</ele>
        <time>2016-05-28T07:44:17Z</time>
      </trkpt>
      <trkpt lat="43.803" lon="3.00917">
        <ele>600.93</ele>
        <time>2016-05-28T07:44:36Z</time>
      </trkpt>
      <trkpt lat="43.80284" lon="3.00892">
        <ele>603.93</ele>
        <time>2016-05-28T07:44:57Z</time>
      </trkpt>
      <trkpt lat="43.80262" lon="3.00866">
        <ele>606.2</ele>
        <time>2016-05-28T07:45:13Z</time>
      </trkpt>
      <trkpt lat="43.80261" lon="3.00855">
        <ele>607.06</ele>
        <time>2016-05-28T07:45:19Z</time>
      </trkpt>
      <trkpt lat="43.80258" lon="3.0085">
        <ele>607.65</ele>
        <time>2016-05-28T07:45:23Z</time>
      </trkpt>
      <trkpt lat="43.80257" lon="3.00845">
        <ele>607.99</ele>
        <time>2016-05-28T07:45:26Z</time>
      </trkpt>
      <trkpt lat="43.80256" lon="3.00841">
        <ele>608.23</ele>
        <time>2016-05-28T07:45:28Z</time>
      </trkpt>
      <trkpt lat="43.80251" lon="3.00819">
        <ele>609.47</ele>
        <time>2016-05-28T07:45:41Z</time>
      </trkpt>
      <trkpt lat="43.80247" lon="3.00814">
        <ele>609.92</ele>
        <time>2016-05-28T07:45:44Z</time>
      </trkpt>
      <trkpt lat="43.80244" lon="3.00795">
        <ele>611.38</ele>
        <time>2016-05-28T07:45:56Z</time>
      </trkpt>
      <trkpt lat="43.80241" lon="3.00786">
        <ele>612.01</ele>
        <time>2016-05-28T07:46:02Z</time>
      </trkpt>
      <trkpt lat="43.80232" lon="3.00776">
        <ele>613.19</ele>
        <time>2016-05-28T07:46:10Z</time>
      </trkpt>
      <trkpt lat="43.80228" lon="3.00767">
        <ele>614.19</ele>
        <time>2016-05-28T07:46:18Z</time>
      </trkpt>
      <trkpt lat="43.80218" lon="3.00765">
        <ele>614.63</ele>
        <time>2016-05-28T07:46:22Z</time>
      </trkpt>
      <trkpt lat="43.80212" lon="3.00744">
        <ele>616.62</ele>
        <time>2016-05-28T07:46:37Z</time>
      </trkpt>
      <trkpt lat="43.80206" lon="3.00715">
        <ele>619.43</ele>
        <time>2016-05-28T07:46:58Z</time>
      </trkpt>
      <trkpt lat="43.80194" lon="3.00691">
        <ele>622.06</ele>
        <time>2016-05-28T07:47:16Z</time>
      </trkpt>
      <trkpt lat="43.8017" lon="3.00665">
        <ele>625.27</ele>
        <time>2016-05-28T07:47:38Z</time>
      </trkpt>
      <trkpt lat="43.80158" lon="3.0064">
        <ele>627.91</ele>
        <time>2016-05-28T07:47:58Z</time>
      </trkpt>
      <trkpt lat="43.80133" lon="3.00616">
        <ele>630.91</ele>
        <time>2016-05-28T07:48:20Z</time>
      </trkpt>
      <trkpt lat="43.80115" lon="3.00604">
        <ele>632.63</ele>
        <time>2016-05-28T07:48:35Z</time>
      </trkpt>
      <trkpt lat="43.80112" lon="3.00604">
        <ele>633.04</ele>
        <time>2016-05-28T07:48:37Z</time>
      </trkpt>
      <trkpt lat="43.80102" lon="3.00609">
        <ele>634.8</ele>
        <time>2016-05-28T07:48:50Z</time>
      </trkpt>
      <trkpt lat="43.801" lon="3.00617">
        <ele>635.28</ele>
        <time>2016-05-28T07:48:55Z</time>
      </trkpt>
      <trkpt lat="43.80099" lon="3.0062">
        <ele>635.44</ele>
        <time>2016-05-28T07:48:57Z</time>
      </trkpt>
      <trkpt lat="43.80098" lon="3.00625">
        <ele>635.75</ele>
        <time>2016-05-28T07:49:00Z</time>
      </trkpt>
      <trkpt lat="43.80096" lon="3.00635">
        <ele>636.26</ele>
        <time>2016-05-28T07:49:05Z</time>
      </trkpt>
      <trkpt lat="43.80092" lon="3.00649">
        <ele>637.22</ele>
        <time>2016-05-28T07:49:13Z</time>
      </trkpt>
      <trkpt lat="43.80087" lon="3.00681">
        <ele>639.73</ele>
        <time>2016-05-28T07:49:31Z</time>
      </trkpt>
      <trkpt lat="43.80086" lon="3.00683">
        <ele>639.85</ele>
        <time>2016-05-28T07:49:32Z</time>
      </trkpt>
      <trkpt lat="43.80086" lon="3.0069">
        <ele>640.31</ele>
        <time>2016-05-28T07:49:36Z</time>
      </trkpt>
      <trkpt lat="43.80082" lon="3.00724">
        <ele>643.2</ele>
        <time>2016-05-28T07:49:57Z</time>
      </trkpt>
      <trkpt lat="43.80082" lon="3.00725">
        <ele>643.37</ele>
        <time>2016-05-28T07:49:58Z</time>
      </trkpt>
      <trkpt lat="43.80081" lon="3.00737">
        <ele>644.34</ele>
        <time>2016-05-28T07:50:05Z</time>
      </trkpt>
      <trkpt lat="43.80081" lon="3.00755">
        <ele>645.99</ele>
        <time>2016-05-28T07:50:17Z</time>
      </trkpt>
      <trkpt lat="43.80082" lon="3.00773">
        <ele>647.35</ele>
        <time>2016-05-28T07:50:29Z</time>
      </trkpt>
      <trkpt lat="43.80084" lon="3.00792">
        <ele>648.43</ele>
        <time>2016-05-28T07:50:38Z</time>
      </trkpt>
      <trkpt lat="43.80083" lon="3.00825">
        <ele>650.64</ele>
        <time>2016-05-28T07:50:56Z</time>
      </trkpt>
      <trkpt lat="43.80083" lon="3.00863">
        <ele>652.73</ele>
        <time>2016-05-28T07:51:16Z</time>
      </trkpt>
      <trkpt lat="43.8008" lon="3.00894">
        <ele>653.43</ele>
        <time>2016-05-28T07:51:33Z</time>
      </trkpt>
      <trkpt lat="43.8008" lon="3.00921">
        <ele>653.31</ele>
        <time>2016-05-28T07:51:48Z</time>
      </trkpt>
      <trkpt lat="43.8008" lon="3.00925">
        <ele>653.27</ele>
        <time>2016-05-28T07:51:50Z</time>
      </trkpt>
      <trkpt lat="43.80079" lon="3.00932">
        <ele>653.19</ele>
        <time>2016-05-28T07:51:54Z</time>
      </trkpt>
      <trkpt lat="43.80076" lon="3.00949">
        <ele>652.79</ele>
        <time>2016-05-28T07:52:06Z</time>
      </trkpt>
      <trkpt lat="43.80074" lon="3.00978">
        <ele>652.6</ele>
        <time>2016-05-28T07:52:20Z</time>
      </trkpt>
      <trkpt lat="43.80074" lon="3.00982">
        <ele>652.5</ele>
        <time>2016-05-28T07:52:22Z</time>
      </trkpt>
      <trkpt lat="43.80071" lon="3.00995">
        <ele>652.14</ele>
        <time>2016-05-28T07:52:29Z</time>
      </trkpt>
      <trkpt lat="43.80063" lon="3.01012">
        <ele>652.13</ele>
        <time>2016-05-28T07:52:40Z</time>
      </trkpt>
      <trkpt lat="43.80057" lon="3.01012">
        <ele>652.22</ele>
        <time>2016-05-28T07:52:45Z</time>
      </trkpt>
      <trkpt lat="43.8004" lon="3.01009">
        <ele>655.27</ele>
        <time>2016-05-28T07:53:01Z</time>
      </trkpt>
      <trkpt lat="43.80027" lon="3.01021">
        <ele>658.37</ele>
        <time>2016-05-28T07:53:15Z</time>
      </trkpt>
      <trkpt lat="43.8002" lon="3.01043">
        <ele>660.46</ele>
        <time>2016-05-28T07:53:31Z</time>
      </trkpt>
      <trkpt lat="43.80019" lon="3.01047">
        <ele>660.65</ele>
        <time>2016-05-28T07:53:33Z</time>
      </trkpt>
      <trkpt lat="43.80009" lon="3.01077">
        <ele>661.9</ele>
        <time>2016-05-28T07:53:50Z</time>
      </trkpt>
      <trkpt lat="43.79997" lon="3.01099">
        <ele>662.62</ele>
        <time>2016-05-28T07:54:06Z</time>
      </trkpt>
      <trkpt lat="43.79979" lon="3.01105">
        <ele>662.98</ele>
        <time>2016-05-28T07:54:21Z</time>
      </trkpt>
      <trkpt lat="43.79968" lon="3.01106">
        <ele>663.3</ele>
        <time>2016-05-28T07:54:26Z</time>
      </trkpt>
      <trkpt lat="43.79947" lon="3.011">
        <ele>664.14</ele>
        <time>2016-05-28T07:54:40Z</time>
      </trkpt>
      <trkpt lat="43.79935" lon="3.01095">
        <ele>665.53</ele>
        <time>2016-05-28T07:54:53Z</time>
      </trkpt>
      <trkpt lat="43.79922" lon="3.01079">
        <ele>668.75</ele>
        <time>2016-05-28T07:55:14Z</time>
      </trkpt>
      <trkpt lat="43.79905" lon="3.0106">
        <ele>670.97</ele>
        <time>2016-05-28T07:55:32Z</time>
      </trkpt>
      <trkpt lat="43.79885" lon="3.01036">
        <ele>673.62</ele>
        <time>2016-05-28T07:55:52Z</time>
      </trkpt>
      <trkpt lat="43.79869" lon="3.01018">
        <ele>675.72</ele>
        <time>2016-05-28T07:56:09Z</time>
      </trkpt>
      <trkpt lat="43.7984" lon="3.00998">
        <ele>678.47</ele>
        <time>2016-05-28T07:56:31Z</time>
      </trkpt>
      <trkpt lat="43.79814" lon="3.00982">
        <ele>680.5</ele>
        <time>2016-05-28T07:56:46Z</time>
      </trkpt>
      <trkpt lat="43.79813" lon="3.00981">
        <ele>680.59</ele>
        <time>2016-05-28T07:56:47Z</time>
      </trkpt>
      <trkpt lat="43.79797" lon="3.00973">
        <ele>682.01</ele>
        <time>2016-05-28T07:57:01Z</time>
      </trkpt>
      <trkpt lat="43.79781" lon="3.00973">
        <ele>684.56</ele>
        <time>2016-05-28T07:57:18Z</time>
      </trkpt>
      <trkpt lat="43.79765" lon="3.00975">
        <ele>686.5</ele>
        <time>2016-05-28T07:57:33Z</time>
      </trkpt>
      <trkpt lat="43.7976" lon="3.00976">
        <ele>687.1</ele>
        <time>2016-05-28T07:57:38Z</time>
      </trkpt>
      <trkpt lat="43.79758" lon="3.00976">
        <ele>687.41</ele>
        <time>2016-05-28T07:57:40Z</time>
      </trkpt>
      <trkpt lat="43.79746" lon="3.00981">
        <ele>689.81</ele>
        <time>2016-05-28T07:57:54Z</time>
      </trkpt>
      <trkpt lat="43.79739" lon="3.00986">
        <ele>690.85</ele>
        <time>2016-05-28T07:58:01Z</time>
      </trkpt>
      <trkpt lat="43.79724" lon="3.01005">
        <ele>694.22</ele>
        <time>2016-05-28T07:58:16Z</time>
      </trkpt>
      <trkpt lat="43.79724" lon="3.01032">
        <ele>697.33</ele>
        <time>2016-05-28T07:58:33Z</time>
      </trkpt>
      <trkpt lat="43.79726" lon="3.01063">
        <ele>700.37</ele>
        <time>2016-05-28T07:58:52Z</time>
      </trkpt>
      <trkpt lat="43.79726" lon="3.01073">
        <ele>701.49</ele>
        <time>2016-05-28T07:58:59Z</time>
      </trkpt>
      <trkpt lat="43.79726" lon="3.01078">
        <ele>701.79</ele>
        <time>2016-05-28T07:59:02Z</time>
      </trkpt>
      <trkpt lat="43.79725" lon="3.01095">
        <ele>702.89</ele>
        <time>2016-05-28T07:59:22Z</time>
      </trkpt>
      <trkpt lat="43.79724" lon="3.01095">
        <ele>703.05</ele>
        <time>2016-05-28T07:59:56Z</time>
      </trkpt>
      <trkpt lat="43.79722" lon="3.01097">
        <ele>702.89</ele>
        <time>2016-05-28T08:00:31Z</time>
      </trkpt>
      <trkpt lat="43.79723" lon="3.01095">
        <ele>702.97</ele>
        <time>2016-05-28T08:01:16Z</time>
      </trkpt>
      <trkpt lat="43.79725" lon="3.01094">
        <ele>703.21</ele>
        <time>2016-05-28T08:01:41Z</time>
      </trkpt>
      <trkpt lat="43.79726" lon="3.01094">
        <ele>703.02</ele>
        <time>2016-05-28T08:02:15Z</time>
      </trkpt>
      <trkpt lat="43.79726" lon="3.01096">
        <ele>703.17</ele>
        <time>2016-05-28T08:02:48Z</time>
      </trkpt>
      <trkpt lat="43.79726" lon="3.01099">
        <ele>703.07</ele>
        <time>2016-05-28T08:03:21Z</time>
      </trkpt>
      <trkpt lat="43.79725" lon="3.01106">
        <ele>703.09</ele>
        <time>2016-05-28T08:03:28Z</time>
      </trkpt>
      <trkpt lat="43.79719" lon="3.01141">
        <ele>702.59</ele>
        <time>2016-05-28T08:03:52Z</time>
      </trkpt>
      <trkpt lat="43.79716" lon="3.01145">
        <ele>702.24</ele>
        <time>2016-05-28T08:03:56Z</time>
      </trkpt>
      <trkpt lat="43.79708" lon="3.01142">
        <ele>701.64</ele>
        <time>2016-05-28T08:04:04Z</time>
      </trkpt>
      <trkpt lat="43.79703" lon="3.01138">
        <ele>701.49</ele>
        <time>2016-05-28T08:04:08Z</time>
      </trkpt>
      <trkpt lat="43.79675" lon="3.01118">
        <ele>701.51</ele>
        <time>2016-05-28T08:04:28Z</time>
      </trkpt>
      <trkpt lat="43.79655" lon="3.01079">
        <ele>700.9</ele>
        <time>2016-05-28T08:04:52Z</time>
      </trkpt>
      <trkpt lat="43.79643" lon="3.01037">
        <ele>701.73</ele>
        <time>2016-05-28T08:05:14Z</time>
      </trkpt>
      <trkpt lat="43.79623" lon="3.01004">
        <ele>703.44</ele>
        <time>2016-05-28T08:05:38Z</time>
      </trkpt>
      <trkpt lat="43.79603" lon="3.0098">
        <ele>705.91</ele>
        <time>2016-05-28T08:05:59Z</time>
      </trkpt>
      <trkpt lat="43.7958" lon="3.00961">
        <ele>707.8</ele>
        <time>2016-05-28T08:06:20Z</time>
      </trkpt>
      <trkpt lat="43.79565" lon="3.00927">
        <ele>708.47</ele>
        <time>2016-05-28T08:06:41Z</time>
      </trkpt>
      <trkpt lat="43.79545" lon="3.00892">
        <ele>708.34</ele>
        <time>2016-05-28T08:07:06Z</time>
      </trkpt>
      <trkpt lat="43.79532" lon="3.00858">
        <ele>708.93</ele>
        <time>2016-05-28T08:07:27Z</time>
      </trkpt>
      <trkpt lat="43.79526" lon="3.00819">
        <ele>709.74</ele>
        <time>2016-05-28T08:07:48Z</time>
      </trkpt>
      <trkpt lat="43.79522" lon="3.00776">
        <ele>711.28</ele>
        <time>2016-05-28T08:08:10Z</time>
      </trkpt>
      <trkpt lat="43.79513" lon="3.00739">
        <ele>712.97</ele>
        <time>2016-05-28T08:08:32Z</time>
      </trkpt>
      <trkpt lat="43.79498" lon="3.00708">
        <ele>714.88</ele>
        <time>2016-05-28T08:08:52Z</time>
      </trkpt>
      <trkpt lat="43.79492" lon="3.007">
        <ele>715.72</ele>
        <time>2016-05-28T08:08:59Z</time>
      </trkpt>
      <trkpt lat="43.7948" lon="3.00684">
        <ele>717.04</ele>
        <time>2016-05-28T08:09:14Z</time>
      </trkpt>
      <trkpt lat="43.79478" lon="3.00681">
        <ele>717.13</ele>
        <time>2016-05-28T08:09:16Z</time>
      </trkpt>
      <trkpt lat="43.79473" lon="3.00674">
        <ele>717.29</ele>
        <time>2016-05-28T08:09:21Z</time>
      </trkpt>
      <trkpt lat="43.7945" lon="3.0065">
        <ele>717.42</ele>
        <time>2016-05-28T08:09:40Z</time>
      </trkpt>
      <trkpt lat="43.79428" lon="3.0063">
        <ele>717.45</ele>
        <time>2016-05-28T08:09:58Z</time>
      </trkpt>
      <trkpt lat="43.79407" lon="3.00618">
        <ele>717.93</ele>
        <time>2016-05-28T08:10:14Z</time>
      </trkpt>
      <trkpt lat="43.79398" lon="3.0061">
        <ele>718.48</ele>
        <time>2016-05-28T08:10:21Z</time>
      </trkpt>
      <trkpt lat="43.79393" lon="3.00606">
        <ele>719.03</ele>
        <time>2016-05-28T08:10:25Z</time>
      </trkpt>
      <trkpt lat="43.79369" lon="3.0058">
        <ele>722.37</ele>
        <time>2016-05-28T08:10:46Z</time>
      </trkpt>
      <trkpt lat="43.79354" lon="3.00555">
        <ele>725.51</ele>
        <time>2016-05-28T08:11:04Z</time>
      </trkpt>
      <trkpt lat="43.79349" lon="3.00528">
        <ele>728.64</ele>
        <time>2016-05-28T08:11:21Z</time>
      </trkpt>
      <trkpt lat="43.79348" lon="3.00498">
        <ele>731.73</ele>
        <time>2016-05-28T08:11:40Z</time>
      </trkpt>
      <trkpt lat="43.79341" lon="3.00461">
        <ele>734.07</ele>
        <time>2016-05-28T08:12:02Z</time>
      </trkpt>
      <trkpt lat="43.79323" lon="3.00412">
        <ele>736.15</ele>
        <time>2016-05-28T08:12:31Z</time>
      </trkpt>
      <trkpt lat="43.79303" lon="3.00369">
        <ele>737.46</ele>
        <time>2016-05-28T08:12:57Z</time>
      </trkpt>
      <trkpt lat="43.79278" lon="3.00335">
        <ele>738.87</ele>
        <time>2016-05-28T08:13:22Z</time>
      </trkpt>
      <trkpt lat="43.79252" lon="3.00313">
        <ele>739.44</ele>
        <time>2016-05-28T08:13:45Z</time>
      </trkpt>
      <trkpt lat="43.7922" lon="3.00295">
        <ele>739.11</ele>
        <time>2016-05-28T08:14:10Z</time>
      </trkpt>
      <trkpt lat="43.79202" lon="3.00305">
        <ele>739.92</ele>
        <time>2016-05-28T08:14:28Z</time>
      </trkpt>
      <trkpt lat="43.79181" lon="3.00316">
        <ele>742.22</ele>
        <time>2016-05-28T08:14:46Z</time>
      </trkpt>
      <trkpt lat="43.79156" lon="3.00312">
        <ele>741.95</ele>
        <time>2016-05-28T08:15:03Z</time>
      </trkpt>
      <trkpt lat="43.79126" lon="3.003">
        <ele>741.4</ele>
        <time>2016-05-28T08:15:22Z</time>
      </trkpt>
      <trkpt lat="43.79093" lon="3.00287">
        <ele>741.39</ele>
        <time>2016-05-28T08:15:44Z</time>
      </trkpt>
      <trkpt lat="43.79073" lon="3.00262">
        <ele>743.04</ele>
        <time>2016-05-28T08:16:03Z</time>
      </trkpt>
      <trkpt lat="43.79052" lon="3.00241">
        <ele>743.6</ele>
        <time>2016-05-28T08:16:22Z</time>
      </trkpt>
      <trkpt lat="43.79047" lon="3.00211">
        <ele>744.03</ele>
        <time>2016-05-28T08:16:38Z</time>
      </trkpt>
      <trkpt lat="43.7904" lon="3.00166">
        <ele>744.27</ele>
        <time>2016-05-28T08:17:00Z</time>
      </trkpt>
      <trkpt lat="43.79029" lon="3.00117">
        <ele>744.14</ele>
        <time>2016-05-28T08:17:25Z</time>
      </trkpt>
      <trkpt lat="43.7901" lon="3.00084">
        <ele>743.36</ele>
        <time>2016-05-28T08:17:47Z</time>
      </trkpt>
      <trkpt lat="43.78986" lon="3.00051">
        <ele>742.48</ele>
        <time>2016-05-28T08:18:11Z</time>
      </trkpt>
      <trkpt lat="43.78962" lon="3.00015">
        <ele>740.08</ele>
        <time>2016-05-28T08:18:34Z</time>
      </trkpt>
      <trkpt lat="43.78946" lon="2.99976">
        <ele>738.02</ele>
        <time>2016-05-28T08:18:56Z</time>
      </trkpt>
      <trkpt lat="43.78934" lon="2.99951">
        <ele>736.85</ele>
        <time>2016-05-28T08:19:13Z</time>
      </trkpt>
      <trkpt lat="43.78919" lon="2.99939">
        <ele>734.25</ele>
        <time>2016-05-28T08:19:27Z</time>
      </trkpt>
      <trkpt lat="43.78915" lon="2.99917">
        <ele>730.63</ele>
        <time>2016-05-28T08:19:42Z</time>
      </trkpt>
      <trkpt lat="43.78905" lon="2.99902">
        <ele>727.91</ele>
        <time>2016-05-28T08:19:56Z</time>
      </trkpt>
      <trkpt lat="43.78884" lon="2.99896">
        <ele>725.47</ele>
        <time>2016-05-28T08:20:11Z</time>
      </trkpt>
      <trkpt lat="43.78865" lon="2.99895">
        <ele>724.29</ele>
        <time>2016-05-28T08:20:25Z</time>
      </trkpt>
      <trkpt lat="43.78847" lon="2.9989">
        <ele>722.34</ele>
        <time>2016-05-28T08:20:40Z</time>
      </trkpt>
      <trkpt lat="43.78843" lon="2.99889">
        <ele>721.68</ele>
        <time>2016-05-28T08:20:43Z</time>
      </trkpt>
      <trkpt lat="43.78826" lon="2.99886">
        <ele>718.39</ele>
        <time>2016-05-28T08:20:56Z</time>
      </trkpt>
      <trkpt lat="43.78812" lon="2.99881">
        <ele>716.18</ele>
        <time>2016-05-28T08:21:09Z</time>
      </trkpt>
      <trkpt lat="43.78809" lon="2.9988">
        <ele>715.74</ele>
        <time>2016-05-28T08:21:12Z</time>
      </trkpt>
      <trkpt lat="43.78803" lon="2.99878">
        <ele>714.87</ele>
        <time>2016-05-28T08:21:18Z</time>
      </trkpt>
      <trkpt lat="43.78776" lon="2.99869">
        <ele>712.42</ele>
        <time>2016-05-28T08:21:34Z</time>
      </trkpt>
      <trkpt lat="43.78761" lon="2.99849">
        <ele>710.65</ele>
        <time>2016-05-28T08:21:49Z</time>
      </trkpt>
      <trkpt lat="43.78738" lon="2.99826">
        <ele>708.76</ele>
        <time>2016-05-28T08:22:06Z</time>
      </trkpt>
      <trkpt lat="43.78735" lon="2.99824">
        <ele>708.56</ele>
        <time>2016-05-28T08:22:08Z</time>
      </trkpt>
      <trkpt lat="43.78728" lon="2.99813">
        <ele>708.02</ele>
        <time>2016-05-28T08:22:15Z</time>
      </trkpt>
      <trkpt lat="43.78709" lon="2.99771">
        <ele>707.14</ele>
        <time>2016-05-28T08:22:34Z</time>
      </trkpt>
      <trkpt lat="43.78701" lon="2.99737">
        <ele>707.26</ele>
        <time>2016-05-28T08:22:50Z</time>
      </trkpt>
      <trkpt lat="43.78686" lon="2.99694">
        <ele>707.49</ele>
        <time>2016-05-28T08:23:09Z</time>
      </trkpt>
      <trkpt lat="43.78685" lon="2.99643">
        <ele>706.71</ele>
        <time>2016-05-28T08:23:32Z</time>
      </trkpt>
      <trkpt lat="43.78686" lon="2.99612">
        <ele>706.63</ele>
        <time>2016-05-28T08:23:49Z</time>
      </trkpt>
      <trkpt lat="43.78684" lon="2.9958">
        <ele>707.36</ele>
        <time>2016-05-28T08:24:07Z</time>
      </trkpt>
      <trkpt lat="43.78683" lon="2.99549">
        <ele>708.29</ele>
        <time>2016-05-28T08:24:24Z</time>
      </trkpt>
      <trkpt lat="43.78684" lon="2.9952">
        <ele>709.43</ele>
        <time>2016-05-28T08:24:40Z</time>
      </trkpt>
      <trkpt lat="43.78683" lon="2.99497">
        <ele>710.44</ele>
        <time>2016-05-28T08:24:54Z</time>
      </trkpt>
      <trkpt lat="43.78685" lon="2.99489">
        <ele>711.26</ele>
        <time>2016-05-28T08:25:00Z</time>
      </trkpt>
      <trkpt lat="43.78685" lon="2.99465">
        <ele>713.57</ele>
        <time>2016-05-28T08:25:16Z</time>
      </trkpt>
      <trkpt lat="43.78681" lon="2.99453">
        <ele>714.6</ele>
        <time>2016-05-28T08:25:24Z</time>
      </trkpt>
      <trkpt lat="43.78666" lon="2.99435">
        <ele>716.72</ele>
        <time>2016-05-28T08:25:42Z</time>
      </trkpt>
      <trkpt lat="43.78649" lon="2.99422">
        <ele>719.75</ele>
        <time>2016-05-28T08:25:59Z</time>
      </trkpt>
      <trkpt lat="43.78629" lon="2.9941">
        <ele>722.65</ele>
        <time>2016-05-28T08:26:16Z</time>
      </trkpt>
      <trkpt lat="43.7861" lon="2.99397">
        <ele>724.99</ele>
        <time>2016-05-28T08:26:34Z</time>
      </trkpt>
      <trkpt lat="43.78591" lon="2.99387">
        <ele>727.46</ele>
        <time>2016-05-28T08:26:51Z</time>
      </trkpt>
      <trkpt lat="43.78568" lon="2.99376">
        <ele>729.81</ele>
        <time>2016-05-28T08:27:10Z</time>
      </trkpt>
      <trkpt lat="43.78547" lon="2.99372">
        <ele>732.49</ele>
        <time>2016-05-28T08:27:28Z</time>
      </trkpt>
      <trkpt lat="43.78528" lon="2.99368">
        <ele>734.43</ele>
        <time>2016-05-28T08:27:43Z</time>
      </trkpt>
      <trkpt lat="43.78508" lon="2.99361">
        <ele>736.61</ele>
        <time>2016-05-28T08:27:59Z</time>
      </trkpt>
      <trkpt lat="43.78485" lon="2.99359">
        <ele>737.32</ele>
        <time>2016-05-28T08:28:16Z</time>
      </trkpt>
      <trkpt lat="43.78474" lon="2.99365">
        <ele>735.93</ele>
        <time>2016-05-28T08:28:30Z</time>
      </trkpt>
      <trkpt lat="43.78465" lon="2.99362">
        <ele>735.09</ele>
        <time>2016-05-28T08:28:37Z</time>
      </trkpt>
      <trkpt lat="43.78456" lon="2.99353">
        <ele>733.07</ele>
        <time>2016-05-28T08:28:46Z</time>
      </trkpt>
      <trkpt lat="43.7844" lon="2.99334">
        <ele>729.77</ele>
        <time>2016-05-28T08:29:00Z</time>
      </trkpt>
      <trkpt lat="43.78427" lon="2.99315">
        <ele>726.73</ele>
        <time>2016-05-28T08:29:14Z</time>
      </trkpt>
      <trkpt lat="43.78426" lon="2.99317">
        <ele>726.12</ele>
        <time>2016-05-28T08:29:18Z</time>
      </trkpt>
      <trkpt lat="43.78424" lon="2.99321">
        <ele>725.36</ele>
        <time>2016-05-28T08:29:22Z</time>
      </trkpt>
      <trkpt lat="43.78425" lon="2.99334">
        <ele>722.92</ele>
        <time>2016-05-28T08:29:34Z</time>
      </trkpt>
      <trkpt lat="43.78424" lon="2.99335">
        <ele>722.6</ele>
        <time>2016-05-28T08:29:36Z</time>
      </trkpt>
      <trkpt lat="43.78421" lon="2.99335">
        <ele>722.07</ele>
        <time>2016-05-28T08:29:39Z</time>
      </trkpt>
      <trkpt lat="43.7841" lon="2.99338">
        <ele>719.62</ele>
        <time>2016-05-28T08:29:53Z</time>
      </trkpt>
      <trkpt lat="43.7839" lon="2.99347">
        <ele>717.12</ele>
        <time>2016-05-28T08:30:09Z</time>
      </trkpt>
      <trkpt lat="43.78376" lon="2.99363">
        <ele>715.73</ele>
        <time>2016-05-28T08:30:24Z</time>
      </trkpt>
      <trkpt lat="43.78366" lon="2.9938">
        <ele>715.41</ele>
        <time>2016-05-28T08:30:40Z</time>
      </trkpt>
      <trkpt lat="43.7836" lon="2.99404">
        <ele>715.48</ele>
        <time>2016-05-28T08:30:54Z</time>
      </trkpt>
      <trkpt lat="43.78357" lon="2.99415">
        <ele>715.83</ele>
        <time>2016-05-28T08:31:01Z</time>
      </trkpt>
      <trkpt lat="43.78352" lon="2.99443">
        <ele>716.96</ele>
        <time>2016-05-28T08:31:15Z</time>
      </trkpt>
      <trkpt lat="43.78352" lon="2.99449">
        <ele>717.15</ele>
        <time>2016-05-28T08:31:18Z</time>
      </trkpt>
      <trkpt lat="43.78351" lon="2.99475">
        <ele>718.52</ele>
        <time>2016-05-28T08:31:32Z</time>
      </trkpt>
      <trkpt lat="43.78349" lon="2.99484">
        <ele>719.07</ele>
        <time>2016-05-28T08:31:41Z</time>
      </trkpt>
      <trkpt lat="43.78342" lon="2.99505">
        <ele>719.41</ele>
        <time>2016-05-28T08:32:02Z</time>
      </trkpt>
      <trkpt lat="43.78325" lon="2.99537">
        <ele>721.52</ele>
        <time>2016-05-28T08:32:21Z</time>
      </trkpt>
      <trkpt lat="43.78325" lon="2.99538">
        <ele>721.64</ele>
        <time>2016-05-28T08:32:22Z</time>
      </trkpt>
      <trkpt lat="43.78308" lon="2.99555">
        <ele>722.41</ele>
        <time>2016-05-28T08:32:39Z</time>
      </trkpt>
      <trkpt lat="43.78291" lon="2.99568">
        <ele>722.41</ele>
        <time>2016-05-28T08:32:55Z</time>
      </trkpt>
      <trkpt lat="43.78266" lon="2.99578">
        <ele>722.96</ele>
        <time>2016-05-28T08:33:16Z</time>
      </trkpt>
      <trkpt lat="43.78259" lon="2.99581">
        <ele>722.84</ele>
        <time>2016-05-28T08:33:22Z</time>
      </trkpt>
      <trkpt lat="43.78236" lon="2.99599">
        <ele>723.09</ele>
        <time>2016-05-28T08:33:45Z</time>
      </trkpt>
      <trkpt lat="43.78223" lon="2.99614">
        <ele>723.21</ele>
        <time>2016-05-28T08:33:57Z</time>
      </trkpt>
      <trkpt lat="43.78214" lon="2.99625">
        <ele>723.21</ele>
        <time>2016-05-28T08:34:06Z</time>
      </trkpt>
      <trkpt lat="43.78205" lon="2.99637">
        <ele>723.33</ele>
        <time>2016-05-28T08:34:15Z</time>
      </trkpt>
      <trkpt lat="43.78194" lon="2.9966">
        <ele>723.33</ele>
        <time>2016-05-28T08:34:32Z</time>
      </trkpt>
      <trkpt lat="43.78193" lon="2.99668">
        <ele>722.97</ele>
        <time>2016-05-28T08:34:36Z</time>
      </trkpt>
      <trkpt lat="43.78185" lon="2.9969">
        <ele>722.06</ele>
        <time>2016-05-28T08:34:49Z</time>
      </trkpt>
      <trkpt lat="43.78176" lon="2.99706">
        <ele>720.82</ele>
        <time>2016-05-28T08:35:02Z</time>
      </trkpt>
      <trkpt lat="43.78177" lon="2.99709">
        <ele>720.71</ele>
        <time>2016-05-28T08:35:03Z</time>
      </trkpt>
      <trkpt lat="43.78167" lon="2.99733">
        <ele>719.37</ele>
        <time>2016-05-28T08:35:17Z</time>
      </trkpt>
      <trkpt lat="43.78156" lon="2.99769">
        <ele>719.19</ele>
        <time>2016-05-28T08:35:33Z</time>
      </trkpt>
      <trkpt lat="43.78154" lon="2.99797">
        <ele>719.84</ele>
        <time>2016-05-28T08:35:49Z</time>
      </trkpt>
      <trkpt lat="43.78153" lon="2.99799">
        <ele>719.86</ele>
        <time>2016-05-28T08:35:50Z</time>
      </trkpt>
      <trkpt lat="43.78145" lon="2.99825">
        <ele>718.98</ele>
        <time>2016-05-28T08:36:05Z</time>
      </trkpt>
      <trkpt lat="43.78138" lon="2.99853">
        <ele>719.35</ele>
        <time>2016-05-28T08:36:22Z</time>
      </trkpt>
      <trkpt lat="43.78132" lon="2.99877">
        <ele>719.98</ele>
        <time>2016-05-28T08:36:36Z</time>
      </trkpt>
      <trkpt lat="43.78135" lon="2.99892">
        <ele>719.95</ele>
        <time>2016-05-28T08:36:43Z</time>
      </trkpt>
      <trkpt lat="43.78139" lon="2.99933">
        <ele>719.75</ele>
        <time>2016-05-28T08:37:01Z</time>
      </trkpt>
      <trkpt lat="43.78137" lon="2.99959">
        <ele>719.02</ele>
        <time>2016-05-28T08:37:15Z</time>
      </trkpt>
      <trkpt lat="43.7813" lon="2.99986">
        <ele>718.73</ele>
        <time>2016-05-28T08:37:31Z</time>
      </trkpt>
      <trkpt lat="43.7813" lon="3.00017">
        <ele>719.43</ele>
        <time>2016-05-28T08:37:45Z</time>
      </trkpt>
      <trkpt lat="43.78128" lon="3.00034">
        <ele>719.42</ele>
        <time>2016-05-28T08:38:22Z</time>
      </trkpt>
      <trkpt lat="43.78129" lon="3.00033">
        <ele>719.54</ele>
        <time>2016-05-28T08:38:58Z</time>
      </trkpt>
      <trkpt lat="43.78132" lon="3.00036">
        <ele>719.62</ele>
        <time>2016-05-28T08:39:33Z</time>
      </trkpt>
      <trkpt lat="43.78131" lon="3.00044">
        <ele>719.37</ele>
        <time>2016-05-28T08:39:54Z</time>
      </trkpt>
      <trkpt lat="43.78135" lon="3.00061">
        <ele>718.84</ele>
        <time>2016-05-28T08:40:17Z</time>
      </trkpt>
      <trkpt lat="43.78133" lon="3.00063">
        <ele>718.79</ele>
        <time>2016-05-28T08:40:45Z</time>
      </trkpt>
      <trkpt lat="43.78133" lon="3.00065">
        <ele>719.05</ele>
        <time>2016-05-28T08:41:30Z</time>
      </trkpt>
      <trkpt lat="43.78137" lon="3.00069">
        <ele>718.93</ele>
        <time>2016-05-28T08:41:36Z</time>
      </trkpt>
      <trkpt lat="43.78141" lon="3.00077">
        <ele>719.05</ele>
        <time>2016-05-28T08:41:43Z</time>
      </trkpt>
      <trkpt lat="43.78146" lon="3.00087">
        <ele>719.6</ele>
        <time>2016-05-28T08:41:52Z</time>
      </trkpt>
      <trkpt lat="43.78149" lon="3.00094">
        <ele>719.74</ele>
        <time>2016-05-28T08:41:56Z</time>
      </trkpt>
      <trkpt lat="43.78152" lon="3.00102">
        <ele>719.91</ele>
        <time>2016-05-28T08:42:01Z</time>
      </trkpt>
      <trkpt lat="43.78163" lon="3.00135">
        <ele>720.53</ele>
        <time>2016-05-28T08:42:22Z</time>
      </trkpt>
      <trkpt lat="43.78176" lon="3.00163">
        <ele>720.66</ele>
        <time>2016-05-28T08:42:40Z</time>
      </trkpt>
      <trkpt lat="43.78199" lon="3.00202">
        <ele>722.35</ele>
        <time>2016-05-28T08:43:04Z</time>
      </trkpt>
      <trkpt lat="43.78212" lon="3.00231">
        <ele>724.67</ele>
        <time>2016-05-28T08:43:24Z</time>
      </trkpt>
      <trkpt lat="43.78213" lon="3.00234">
        <ele>724.9</ele>
        <time>2016-05-28T08:43:26Z</time>
      </trkpt>
      <trkpt lat="43.78216" lon="3.00265">
        <ele>724.8</ele>
        <time>2016-05-28T08:43:44Z</time>
      </trkpt>
      <trkpt lat="43.78218" lon="3.00293">
        <ele>723.56</ele>
        <time>2016-05-28T08:44:02Z</time>
      </trkpt>
      <trkpt lat="43.78219" lon="3.00296">
        <ele>723.29</ele>
        <time>2016-05-28T08:44:05Z</time>
      </trkpt>
      <trkpt lat="43.78216" lon="3.00327">
        <ele>721.85</ele>
        <time>2016-05-28T08:44:23Z</time>
      </trkpt>
      <trkpt lat="43.78209" lon="3.00351">
        <ele>721.34</ele>
        <time>2016-05-28T08:44:39Z</time>
      </trkpt>
      <trkpt lat="43.78198" lon="3.00384">
        <ele>720.6</ele>
        <time>2016-05-28T08:44:57Z</time>
      </trkpt>
      <trkpt lat="43.7819" lon="3.00415">
        <ele>719.36</ele>
        <time>2016-05-28T08:45:16Z</time>
      </trkpt>
      <trkpt lat="43.78182" lon="3.00445">
        <ele>719.06</ele>
        <time>2016-05-28T08:45:33Z</time>
      </trkpt>
      <trkpt lat="43.78175" lon="3.00467">
        <ele>719.36</ele>
        <time>2016-05-28T08:45:48Z</time>
      </trkpt>
      <trkpt lat="43.78165" lon="3.00491">
        <ele>720.4</ele>
        <time>2016-05-28T08:46:03Z</time>
      </trkpt>
      <trkpt lat="43.78162" lon="3.00497">
        <ele>720.58</ele>
        <time>2016-05-28T08:46:08Z</time>
      </trkpt>
      <trkpt lat="43.78165" lon="3.0052">
        <ele>718.55</ele>
        <time>2016-05-28T08:46:23Z</time>
      </trkpt>
      <trkpt lat="43.78166" lon="3.00528">
        <ele>717.74</ele>
        <time>2016-05-28T08:46:28Z</time>
      </trkpt>
      <trkpt lat="43.78173" lon="3.00563">
        <ele>714.58</ele>
        <time>2016-05-28T08:46:47Z</time>
      </trkpt>
      <trkpt lat="43.78182" lon="3.00598">
        <ele>711.75</ele>
        <time>2016-05-28T08:47:09Z</time>
      </trkpt>
      <trkpt lat="43.78195" lon="3.00635">
        <ele>710.49</ele>
        <time>2016-05-28T08:47:31Z</time>
      </trkpt>
      <trkpt lat="43.78212" lon="3.00669">
        <ele>711.61</ele>
        <time>2016-05-28T08:47:55Z</time>
      </trkpt>
      <trkpt lat="43.78229" lon="3.00683">
        <ele>713.13</ele>
        <time>2016-05-28T08:48:14Z</time>
      </trkpt>
      <trkpt lat="43.78251" lon="3.00695">
        <ele>715.83</ele>
        <time>2016-05-28T08:48:35Z</time>
      </trkpt>
      <trkpt lat="43.78266" lon="3.00711">
        <ele>718.94</ele>
        <time>2016-05-28T08:48:54Z</time>
      </trkpt>
      <trkpt lat="43.78273" lon="3.00731">
        <ele>721.99</ele>
        <time>2016-05-28T08:49:10Z</time>
      </trkpt>
      <trkpt lat="43.78282" lon="3.00748">
        <ele>725.06</ele>
        <time>2016-05-28T08:49:24Z</time>
      </trkpt>
      <trkpt lat="43.7829" lon="3.00772">
        <ele>728.19</ele>
        <time>2016-05-28T08:49:43Z</time>
      </trkpt>
      <trkpt lat="43.78298" lon="3.00788">
        <ele>731.2</ele>
        <time>2016-05-28T08:49:59Z</time>
      </trkpt>
      <trkpt lat="43.78306" lon="3.00806">
        <ele>733.87</ele>
        <time>2016-05-28T08:50:17Z</time>
      </trkpt>
      <trkpt lat="43.78307" lon="3.0081">
        <ele>734.57</ele>
        <time>2016-05-28T08:50:25Z</time>
      </trkpt>
      <trkpt lat="43.78308" lon="3.00815">
        <ele>734.49</ele>
        <time>2016-05-28T08:50:42Z</time>
      </trkpt>
      <trkpt lat="43.78308" lon="3.00816">
        <ele>734.1</ele>
        <time>2016-05-28T08:50:49Z</time>
      </trkpt>
      <trkpt lat="43.78309" lon="3.00823">
        <ele>734.43</ele>
        <time>2016-05-28T08:50:53Z</time>
      </trkpt>
      <trkpt lat="43.7831" lon="3.00848">
        <ele>734.08</ele>
        <time>2016-05-28T08:51:11Z</time>
      </trkpt>
      <trkpt lat="43.78311" lon="3.00891">
        <ele>733.7</ele>
        <time>2016-05-28T08:51:35Z</time>
      </trkpt>
      <trkpt lat="43.78309" lon="3.00924">
        <ele>732.07</ele>
        <time>2016-05-28T08:51:55Z</time>
      </trkpt>
      <trkpt lat="43.78308" lon="3.00952">
        <ele>728.92</ele>
        <time>2016-05-28T08:52:10Z</time>
      </trkpt>
      <trkpt lat="43.78309" lon="3.00979">
        <ele>725.75</ele>
        <time>2016-05-28T08:52:25Z</time>
      </trkpt>
      <trkpt lat="43.7831" lon="3.01016">
        <ele>723.27</ele>
        <time>2016-05-28T08:52:45Z</time>
      </trkpt>
      <trkpt lat="43.78309" lon="3.01058">
        <ele>721.91</ele>
        <time>2016-05-28T08:53:07Z</time>
      </trkpt>
      <trkpt lat="43.78326" lon="3.01088">
        <ele>722.48</ele>
        <time>2016-05-28T08:53:28Z</time>
      </trkpt>
      <trkpt lat="43.78335" lon="3.01104">
        <ele>723.37</ele>
        <time>2016-05-28T08:53:44Z</time>
      </trkpt>
      <trkpt lat="43.78332" lon="3.01102">
        <ele>723.47</ele>
        <time>2016-05-28T08:53:47Z</time>
      </trkpt>
      <trkpt lat="43.78328" lon="3.01103">
        <ele>723.53</ele>
        <time>2016-05-28T08:53:51Z</time>
      </trkpt>
      <trkpt lat="43.78321" lon="3.01132">
        <ele>722.12</ele>
        <time>2016-05-28T08:54:12Z</time>
      </trkpt>
      <trkpt lat="43.7832" lon="3.01139">
        <ele>720.93</ele>
        <time>2016-05-28T08:54:19Z</time>
      </trkpt>
      <trkpt lat="43.78315" lon="3.01151">
        <ele>718.73</ele>
        <time>2016-05-28T08:54:30Z</time>
      </trkpt>
      <trkpt lat="43.78296" lon="3.01163">
        <ele>716.24</ele>
        <time>2016-05-28T08:54:48Z</time>
      </trkpt>
      <trkpt lat="43.78282" lon="3.0116">
        <ele>713.89</ele>
        <time>2016-05-28T08:55:02Z</time>
      </trkpt>
      <trkpt lat="43.78273" lon="3.0117">
        <ele>711.59</ele>
        <time>2016-05-28T08:55:17Z</time>
      </trkpt>
      <trkpt lat="43.78265" lon="3.012">
        <ele>708.64</ele>
        <time>2016-05-28T08:55:37Z</time>
      </trkpt>
      <trkpt lat="43.78258" lon="3.01228">
        <ele>706.17</ele>
        <time>2016-05-28T08:55:56Z</time>
      </trkpt>
      <trkpt lat="43.78248" lon="3.01246">
        <ele>704.9</ele>
        <time>2016-05-28T08:56:11Z</time>
      </trkpt>
      <trkpt lat="43.7823" lon="3.01261">
        <ele>704.15</ele>
        <time>2016-05-28T08:56:27Z</time>
      </trkpt>
      <trkpt lat="43.78205" lon="3.01277">
        <ele>704.24</ele>
        <time>2016-05-28T08:56:47Z</time>
      </trkpt>
      <trkpt lat="43.78188" lon="3.01286">
        <ele>704.74</ele>
        <time>2016-05-28T08:57:02Z</time>
      </trkpt>
      <trkpt lat="43.78174" lon="3.0129">
        <ele>704.96</ele>
        <time>2016-05-28T08:57:12Z</time>
      </trkpt>
      <trkpt lat="43.78151" lon="3.01299">
        <ele>703.87</ele>
        <time>2016-05-28T08:57:31Z</time>
      </trkpt>
      <trkpt lat="43.78142" lon="3.01302">
        <ele>702.66</ele>
        <time>2016-05-28T08:57:40Z</time>
      </trkpt>
      <trkpt lat="43.78125" lon="3.01308">
        <ele>699.43</ele>
        <time>2016-05-28T08:57:59Z</time>
      </trkpt>
      <trkpt lat="43.78113" lon="3.01326">
        <ele>696.4</ele>
        <time>2016-05-28T08:58:18Z</time>
      </trkpt>
      <trkpt lat="43.78112" lon="3.01352">
        <ele>693.26</ele>
        <time>2016-05-28T08:58:36Z</time>
      </trkpt>
      <trkpt lat="43.78104" lon="3.01383">
        <ele>691.92</ele>
        <time>2016-05-28T08:58:54Z</time>
      </trkpt>
      <trkpt lat="43.78106" lon="3.01397">
        <ele>691.93</ele>
        <time>2016-05-28T08:59:00Z</time>
      </trkpt>
      <trkpt lat="43.78106" lon="3.01402">
        <ele>691.88</ele>
        <time>2016-05-28T08:59:02Z</time>
      </trkpt>
      <trkpt lat="43.78105" lon="3.01426">
        <ele>691.12</ele>
        <time>2016-05-28T08:59:15Z</time>
      </trkpt>
      <trkpt lat="43.78107" lon="3.01458">
        <ele>691.59</ele>
        <time>2016-05-28T08:59:33Z</time>
      </trkpt>
      <trkpt lat="43.78104" lon="3.01501">
        <ele>692.44</ele>
        <time>2016-05-28T08:59:53Z</time>
      </trkpt>
      <trkpt lat="43.78103" lon="3.01541">
        <ele>692.91</ele>
        <time>2016-05-28T09:00:10Z</time>
      </trkpt>
      <trkpt lat="43.78098" lon="3.01568">
        <ele>692.45</ele>
        <time>2016-05-28T09:00:25Z</time>
      </trkpt>
      <trkpt lat="43.78094" lon="3.01578">
        <ele>692.05</ele>
        <time>2016-05-28T09:00:33Z</time>
      </trkpt>
      <trkpt lat="43.78098" lon="3.01592">
        <ele>691.98</ele>
        <time>2016-05-28T09:00:44Z</time>
      </trkpt>
      <trkpt lat="43.78105" lon="3.01639">
        <ele>693.83</ele>
        <time>2016-05-28T09:01:08Z</time>
      </trkpt>
      <trkpt lat="43.78089" lon="3.01657">
        <ele>695.49</ele>
        <time>2016-05-28T09:01:26Z</time>
      </trkpt>
      <trkpt lat="43.78074" lon="3.01679">
        <ele>694.71</ele>
        <time>2016-05-28T09:01:45Z</time>
      </trkpt>
      <trkpt lat="43.7807" lon="3.017">
        <ele>693.9</ele>
        <time>2016-05-28T09:02:00Z</time>
      </trkpt>
      <trkpt lat="43.78069" lon="3.01703">
        <ele>693.83</ele>
        <time>2016-05-28T09:02:02Z</time>
      </trkpt>
      <trkpt lat="43.78068" lon="3.01706">
        <ele>693.74</ele>
        <time>2016-05-28T09:02:04Z</time>
      </trkpt>
      <trkpt lat="43.78065" lon="3.0172">
        <ele>693.33</ele>
        <time>2016-05-28T09:02:12Z</time>
      </trkpt>
      <trkpt lat="43.78065" lon="3.01728">
        <ele>692.97</ele>
        <time>2016-05-28T09:02:16Z</time>
      </trkpt>
      <trkpt lat="43.78055" lon="3.01758">
        <ele>690.89</ele>
        <time>2016-05-28T09:02:33Z</time>
      </trkpt>
      <trkpt lat="43.78054" lon="3.0176">
        <ele>690.79</ele>
        <time>2016-05-28T09:02:34Z</time>
      </trkpt>
      <trkpt lat="43.78052" lon="3.0177">
        <ele>690.38</ele>
        <time>2016-05-28T09:02:39Z</time>
      </trkpt>
      <trkpt lat="43.78054" lon="3.01813">
        <ele>689.77</ele>
        <time>2016-05-28T09:03:02Z</time>
      </trkpt>
      <trkpt lat="43.78056" lon="3.01833">
        <ele>690.92</ele>
        <time>2016-05-28T09:03:18Z</time>
      </trkpt>
      <trkpt lat="43.78064" lon="3.01852">
        <ele>689.09</ele>
        <time>2016-05-28T09:03:32Z</time>
      </trkpt>
      <trkpt lat="43.78076" lon="3.01876">
        <ele>686.25</ele>
        <time>2016-05-28T09:03:49Z</time>
      </trkpt>
      <trkpt lat="43.78078" lon="3.01888">
        <ele>684.77</ele>
        <time>2016-05-28T09:03:57Z</time>
      </trkpt>
      <trkpt lat="43.7807" lon="3.01914">
        <ele>681.53</ele>
        <time>2016-05-28T09:04:13Z</time>
      </trkpt>
      <trkpt lat="43.78061" lon="3.01929">
        <ele>678.28</ele>
        <time>2016-05-28T09:04:27Z</time>
      </trkpt>
      <trkpt lat="43.78052" lon="3.01942">
        <ele>675.69</ele>
        <time>2016-05-28T09:04:42Z</time>
      </trkpt>
      <trkpt lat="43.78042" lon="3.0196">
        <ele>672.5</ele>
        <time>2016-05-28T09:04:59Z</time>
      </trkpt>
      <trkpt lat="43.78032" lon="3.01973">
        <ele>669.3</ele>
        <time>2016-05-28T09:05:12Z</time>
      </trkpt>
      <trkpt lat="43.78032" lon="3.01982">
        <ele>666.21</ele>
        <time>2016-05-28T09:05:28Z</time>
      </trkpt>
      <trkpt lat="43.7803" lon="3.02002">
        <ele>663.02</ele>
        <time>2016-05-28T09:05:44Z</time>
      </trkpt>
      <trkpt lat="43.78026" lon="3.0201">
        <ele>659.95</ele>
        <time>2016-05-28T09:05:54Z</time>
      </trkpt>
      <trkpt lat="43.78038" lon="3.02012">
        <ele>656.85</ele>
        <time>2016-05-28T09:06:07Z</time>
      </trkpt>
      <trkpt lat="43.78047" lon="3.02011">
        <ele>653.82</ele>
        <time>2016-05-28T09:06:19Z</time>
      </trkpt>
      <trkpt lat="43.78063" lon="3.02011">
        <ele>650.76</ele>
        <time>2016-05-28T09:06:35Z</time>
      </trkpt>
      <trkpt lat="43.78078" lon="3.02011">
        <ele>647.65</ele>
        <time>2016-05-28T09:06:49Z</time>
      </trkpt>
      <trkpt lat="43.78093" lon="3.02016">
        <ele>644.48</ele>
        <time>2016-05-28T09:07:01Z</time>
      </trkpt>
      <trkpt lat="43.78099" lon="3.02022">
        <ele>641.42</ele>
        <time>2016-05-28T09:07:11Z</time>
      </trkpt>
      <trkpt lat="43.78102" lon="3.02025">
        <ele>640.21</ele>
        <time>2016-05-28T09:07:17Z</time>
      </trkpt>
      <trkpt lat="43.78115" lon="3.0204">
        <ele>638.05</ele>
        <time>2016-05-28T09:07:37Z</time>
      </trkpt>
      <trkpt lat="43.78125" lon="3.02061">
        <ele>634.91</ele>
        <time>2016-05-28T09:07:56Z</time>
      </trkpt>
      <trkpt lat="43.78124" lon="3.02075">
        <ele>631.72</ele>
        <time>2016-05-28T09:08:09Z</time>
      </trkpt>
      <trkpt lat="43.78121" lon="3.02092">
        <ele>628.59</ele>
        <time>2016-05-28T09:08:20Z</time>
      </trkpt>
      <trkpt lat="43.78121" lon="3.02117">
        <ele>625.5</ele>
        <time>2016-05-28T09:08:35Z</time>
      </trkpt>
      <trkpt lat="43.78124" lon="3.02142">
        <ele>622.45</ele>
        <time>2016-05-28T09:08:57Z</time>
      </trkpt>
      <trkpt lat="43.78125" lon="3.0218">
        <ele>620.03</ele>
        <time>2016-05-28T09:09:18Z</time>
      </trkpt>
      <trkpt lat="43.78132" lon="3.02217">
        <ele>617.17</ele>
        <time>2016-05-28T09:09:38Z</time>
      </trkpt>
      <trkpt lat="43.78133" lon="3.02217">
        <ele>617.01</ele>
        <time>2016-05-28T09:09:39Z</time>
      </trkpt>
      <trkpt lat="43.78141" lon="3.02239">
        <ele>614.72</ele>
        <time>2016-05-28T09:09:57Z</time>
      </trkpt>
      <trkpt lat="43.78129" lon="3.02225">
        <ele>611.89</ele>
        <time>2016-05-28T09:10:18Z</time>
      </trkpt>
      <trkpt lat="43.78117" lon="3.02216">
        <ele>609.12</ele>
        <time>2016-05-28T09:10:36Z</time>
      </trkpt>
      <trkpt lat="43.78116" lon="3.02215">
        <ele>608.86</ele>
        <time>2016-05-28T09:10:38Z</time>
      </trkpt>
      <trkpt lat="43.78114" lon="3.02215">
        <ele>608.65</ele>
        <time>2016-05-28T09:10:40Z</time>
      </trkpt>
      <trkpt lat="43.7811" lon="3.02221">
        <ele>606.64</ele>
        <time>2016-05-28T09:10:58Z</time>
      </trkpt>
      <trkpt lat="43.78114" lon="3.02243">
        <ele>603.59</ele>
        <time>2016-05-28T09:11:16Z</time>
      </trkpt>
      <trkpt lat="43.78117" lon="3.02271">
        <ele>600.4</ele>
        <time>2016-05-28T09:11:34Z</time>
      </trkpt>
      <trkpt lat="43.78121" lon="3.02299">
        <ele>597.31</ele>
        <time>2016-05-28T09:11:54Z</time>
      </trkpt>
      <trkpt lat="43.78133" lon="3.02331">
        <ele>594.27</ele>
        <time>2016-05-28T09:12:11Z</time>
      </trkpt>
      <trkpt lat="43.78134" lon="3.02343">
        <ele>592.78</ele>
        <time>2016-05-28T09:12:18Z</time>
      </trkpt>
      <trkpt lat="43.78141" lon="3.02366">
        <ele>589.44</ele>
        <time>2016-05-28T09:12:35Z</time>
      </trkpt>
      <trkpt lat="43.78147" lon="3.02399">
        <ele>586.31</ele>
        <time>2016-05-28T09:12:53Z</time>
      </trkpt>
      <trkpt lat="43.78142" lon="3.02421">
        <ele>583.51</ele>
        <time>2016-05-28T09:13:12Z</time>
      </trkpt>
      <trkpt lat="43.78136" lon="3.02444">
        <ele>581.19</ele>
        <time>2016-05-28T09:13:30Z</time>
      </trkpt>
      <trkpt lat="43.78125" lon="3.02472">
        <ele>578.88</ele>
        <time>2016-05-28T09:13:52Z</time>
      </trkpt>
      <trkpt lat="43.78108" lon="3.02514">
        <ele>577.85</ele>
        <time>2016-05-28T09:14:14Z</time>
      </trkpt>
      <trkpt lat="43.78101" lon="3.02538">
        <ele>576.77</ele>
        <time>2016-05-28T09:14:30Z</time>
      </trkpt>
      <trkpt lat="43.78097" lon="3.0259">
        <ele>575.28</ele>
        <time>2016-05-28T09:14:51Z</time>
      </trkpt>
      <trkpt lat="43.78091" lon="3.02617">
        <ele>572.16</ele>
        <time>2016-05-28T09:15:11Z</time>
      </trkpt>
      <trkpt lat="43.78085" lon="3.02653">
        <ele>569.08</ele>
        <time>2016-05-28T09:15:30Z</time>
      </trkpt>
      <trkpt lat="43.78074" lon="3.02679">
        <ele>565.95</ele>
        <time>2016-05-28T09:15:49Z</time>
      </trkpt>
      <trkpt lat="43.78069" lon="3.02701">
        <ele>563.91</ele>
        <time>2016-05-28T09:16:11Z</time>
      </trkpt>
      <trkpt lat="43.78063" lon="3.02726">
        <ele>561.14</ele>
        <time>2016-05-28T09:16:31Z</time>
      </trkpt>
      <trkpt lat="43.78056" lon="3.02759">
        <ele>560.24</ele>
        <time>2016-05-28T09:16:53Z</time>
      </trkpt>
      <trkpt lat="43.78044" lon="3.02799">
        <ele>561.48</ele>
        <time>2016-05-28T09:17:15Z</time>
      </trkpt>
      <trkpt lat="43.78031" lon="3.02821">
        <ele>560.71</ele>
        <time>2016-05-28T09:17:34Z</time>
      </trkpt>
      <trkpt lat="43.78018" lon="3.02861">
        <ele>559.57</ele>
        <time>2016-05-28T09:17:58Z</time>
      </trkpt>
      <trkpt lat="43.78005" lon="3.02906">
        <ele>557.67</ele>
        <time>2016-05-28T09:18:20Z</time>
      </trkpt>
      <trkpt lat="43.78005" lon="3.0291">
        <ele>557.43</ele>
        <time>2016-05-28T09:18:25Z</time>
      </trkpt>
      <trkpt lat="43.78008" lon="3.02922">
        <ele>557.3</ele>
        <time>2016-05-28T09:18:36Z</time>
      </trkpt>
      <trkpt lat="43.78007" lon="3.0292">
        <ele>557.45</ele>
        <time>2016-05-28T09:19:04Z</time>
      </trkpt>
      <trkpt lat="43.78007" lon="3.02921">
        <ele>556.8</ele>
        <time>2016-05-28T09:19:29Z</time>
      </trkpt>
      <trkpt lat="43.78006" lon="3.02921">
        <ele>556.93</ele>
        <time>2016-05-28T09:20:19Z</time>
      </trkpt>
      <trkpt lat="43.78005" lon="3.02922">
        <ele>556.28</ele>
        <time>2016-05-28T09:21:11Z</time>
      </trkpt>
      <trkpt lat="43.78005" lon="3.02922">
        <ele>556.92</ele>
        <time>2016-05-28T09:21:48Z</time>
      </trkpt>
      <trkpt lat="43.78004" lon="3.02928">
        <ele>557.18</ele>
        <time>2016-05-28T09:22:18Z</time>
      </trkpt>
      <trkpt lat="43.78003" lon="3.02927">
        <ele>557.47</ele>
        <time>2016-05-28T09:22:51Z</time>
      </trkpt>
      <trkpt lat="43.78003" lon="3.0293">
        <ele>557.33</ele>
        <time>2016-05-28T09:22:55Z</time>
      </trkpt>
      <trkpt lat="43.78003" lon="3.02933">
        <ele>557.21</ele>
        <time>2016-05-28T09:22:57Z</time>
      </trkpt>
      <trkpt lat="43.78003" lon="3.02941">
        <ele>557.23</ele>
        <time>2016-05-28T09:23:14Z</time>
      </trkpt>
      <trkpt lat="43.78004" lon="3.02944">
        <ele>556.63</ele>
        <time>2016-05-28T09:23:38Z</time>
      </trkpt>
      <trkpt lat="43.78005" lon="3.02958">
        <ele>555.58</ele>
        <time>2016-05-28T09:23:59Z</time>
      </trkpt>
      <trkpt lat="43.78007" lon="3.0298">
        <ele>552.47</ele>
        <time>2016-05-28T09:24:16Z</time>
      </trkpt>
      <trkpt lat="43.78005" lon="3.02986">
        <ele>551.83</ele>
        <time>2016-05-28T09:24:21Z</time>
      </trkpt>
      <trkpt lat="43.77999" lon="3.02985">
        <ele>550.73</ele>
        <time>2016-05-28T09:24:32Z</time>
      </trkpt>
      <trkpt lat="43.77988" lon="3.02984">
        <ele>549.45</ele>
        <time>2016-05-28T09:24:44Z</time>
      </trkpt>
      <trkpt lat="43.7798" lon="3.02997">
        <ele>547.78</ele>
        <time>2016-05-28T09:25:02Z</time>
      </trkpt>
      <trkpt lat="43.77972" lon="3.03005">
        <ele>545.98</ele>
        <time>2016-05-28T09:25:15Z</time>
      </trkpt>
      <trkpt lat="43.77973" lon="3.03011">
        <ele>545.5</ele>
        <time>2016-05-28T09:25:23Z</time>
      </trkpt>
      <trkpt lat="43.77979" lon="3.03031">
        <ele>544.59</ele>
        <time>2016-05-28T09:25:43Z</time>
      </trkpt>
      <trkpt lat="43.77983" lon="3.03033">
        <ele>544.34</ele>
        <time>2016-05-28T09:26:00Z</time>
      </trkpt>
      <trkpt lat="43.77983" lon="3.03043">
        <ele>544</ele>
        <time>2016-05-28T09:26:22Z</time>
      </trkpt>
      <trkpt lat="43.77981" lon="3.0304">
        <ele>543.65</ele>
        <time>2016-05-28T09:26:47Z</time>
      </trkpt>
      <trkpt lat="43.77981" lon="3.0304">
        <ele>543.41</ele>
        <time>2016-05-28T09:27:15Z</time>
      </trkpt>
      <trkpt lat="43.7798" lon="3.03043">
        <ele>543.49</ele>
        <time>2016-05-28T09:27:38Z</time>
      </trkpt>
      <trkpt lat="43.77977" lon="3.03046">
        <ele>542.93</ele>
        <time>2016-05-28T09:28:00Z</time>
      </trkpt>
      <trkpt lat="43.77974" lon="3.03046">
        <ele>543.32</ele>
        <time>2016-05-28T09:28:19Z</time>
      </trkpt>
      <trkpt lat="43.77966" lon="3.03041">
        <ele>543.26</ele>
        <time>2016-05-28T09:28:55Z</time>
      </trkpt>
      <trkpt lat="43.77966" lon="3.03043">
        <ele>542.93</ele>
        <time>2016-05-28T09:29:28Z</time>
      </trkpt>
      <trkpt lat="43.77969" lon="3.03044">
        <ele>543.35</ele>
        <time>2016-05-28T09:29:58Z</time>
      </trkpt>
      <trkpt lat="43.77969" lon="3.03044">
        <ele>543.44</ele>
        <time>2016-05-28T09:29:59Z</time>
      </trkpt>
      <trkpt lat="43.77969" lon="3.03052">
        <ele>543.96</ele>
        <time>2016-05-28T09:30:24Z</time>
      </trkpt>
      <trkpt lat="43.77973" lon="3.03044">
        <ele>544.6</ele>
        <time>2016-05-28T09:30:45Z</time>
      </trkpt>
      <trkpt lat="43.77976" lon="3.03047">
        <ele>544.43</ele>
        <time>2016-05-28T09:30:49Z</time>
      </trkpt>
      <trkpt lat="43.77978" lon="3.0305">
        <ele>544.35</ele>
        <time>2016-05-28T09:30:51Z</time>
      </trkpt>
      <trkpt lat="43.7798" lon="3.0306">
        <ele>543.94</ele>
        <time>2016-05-28T09:31:07Z</time>
      </trkpt>
      <trkpt lat="43.77983" lon="3.0306">
        <ele>543.02</ele>
        <time>2016-05-28T09:31:31Z</time>
      </trkpt>
      <trkpt lat="43.77983" lon="3.03059">
        <ele>542.67</ele>
        <time>2016-05-28T09:32:05Z</time>
      </trkpt>
      <trkpt lat="43.77983" lon="3.03061">
        <ele>542.75</ele>
        <time>2016-05-28T09:32:32Z</time>
      </trkpt>
      <trkpt lat="43.77983" lon="3.03066">
        <ele>543.83</ele>
        <time>2016-05-28T09:32:59Z</time>
      </trkpt>
      <trkpt lat="43.77983" lon="3.03067">
        <ele>543.53</ele>
        <time>2016-05-28T09:33:21Z</time>
      </trkpt>
      <trkpt lat="43.77985" lon="3.03064">
        <ele>543.73</ele>
        <time>2016-05-28T09:33:40Z</time>
      </trkpt>
      <trkpt lat="43.77987" lon="3.03063">
        <ele>543.81</ele>
        <time>2016-05-28T09:34:11Z</time>
      </trkpt>
      <trkpt lat="43.77989" lon="3.03062">
        <ele>543.69</ele>
        <time>2016-05-28T09:34:26Z</time>
      </trkpt>
      <trkpt lat="43.77989" lon="3.03062">
        <ele>543.73</ele>
        <time>2016-05-28T09:34:45Z</time>
      </trkpt>
      <trkpt lat="43.7799" lon="3.03061">
        <ele>543.72</ele>
        <time>2016-05-28T09:34:49Z</time>
      </trkpt>
      <trkpt lat="43.77993" lon="3.03072">
        <ele>543.5</ele>
        <time>2016-05-28T09:35:05Z</time>
      </trkpt>
      <trkpt lat="43.77993" lon="3.03073">
        <ele>543.13</ele>
        <time>2016-05-28T09:35:24Z</time>
      </trkpt>
      <trkpt lat="43.77993" lon="3.03075">
        <ele>543.56</ele>
        <time>2016-05-28T09:35:48Z</time>
      </trkpt>
      <trkpt lat="43.77995" lon="3.03073">
        <ele>543.85</ele>
        <time>2016-05-28T09:36:07Z</time>
      </trkpt>
      <trkpt lat="43.77995" lon="3.0307">
        <ele>544.03</ele>
        <time>2016-05-28T09:36:44Z</time>
      </trkpt>
      <trkpt lat="43.77995" lon="3.03072">
        <ele>543.61</ele>
        <time>2016-05-28T09:37:05Z</time>
      </trkpt>
      <trkpt lat="43.77996" lon="3.03074">
        <ele>543.82</ele>
        <time>2016-05-28T09:37:14Z</time>
      </trkpt>
      <trkpt lat="43.77997" lon="3.03078">
        <ele>543.81</ele>
        <time>2016-05-28T09:37:17Z</time>
      </trkpt>
      <trkpt lat="43.78004" lon="3.03109">
        <ele>544.09</ele>
        <time>2016-05-28T09:37:37Z</time>
      </trkpt>
      <trkpt lat="43.78006" lon="3.03115">
        <ele>544.24</ele>
        <time>2016-05-28T09:37:41Z</time>
      </trkpt>
      <trkpt lat="43.78028" lon="3.03147">
        <ele>544.58</ele>
        <time>2016-05-28T09:38:06Z</time>
      </trkpt>
      <trkpt lat="43.78052" lon="3.0315">
        <ele>544.96</ele>
        <time>2016-05-28T09:38:24Z</time>
      </trkpt>
      <trkpt lat="43.78083" lon="3.03144">
        <ele>544.94</ele>
        <time>2016-05-28T09:38:44Z</time>
      </trkpt>
      <trkpt lat="43.78103" lon="3.03136">
        <ele>544.62</ele>
        <time>2016-05-28T09:39:00Z</time>
      </trkpt>
      <trkpt lat="43.78109" lon="3.03137">
        <ele>544.66</ele>
        <time>2016-05-28T09:39:05Z</time>
      </trkpt>
      <trkpt lat="43.78121" lon="3.03142">
        <ele>544.59</ele>
        <time>2016-05-28T09:39:15Z</time>
      </trkpt>
      <trkpt lat="43.78132" lon="3.03148">
        <ele>544.52</ele>
        <time>2016-05-28T09:39:23Z</time>
      </trkpt>
      <trkpt lat="43.78139" lon="3.03151">
        <ele>544.45</ele>
        <time>2016-05-28T09:39:29Z</time>
      </trkpt>
      <trkpt lat="43.78145" lon="3.03156">
        <ele>544.33</ele>
        <time>2016-05-28T09:39:33Z</time>
      </trkpt>
      <trkpt lat="43.78152" lon="3.03165">
        <ele>544.26</ele>
        <time>2016-05-28T09:39:38Z</time>
      </trkpt>
      <trkpt lat="43.7817" lon="3.03184">
        <ele>544.2</ele>
        <time>2016-05-28T09:39:52Z</time>
      </trkpt>
      <trkpt lat="43.78183" lon="3.03195">
        <ele>544.11</ele>
        <time>2016-05-28T09:40:01Z</time>
      </trkpt>
      <trkpt lat="43.78189" lon="3.032">
        <ele>543.83</ele>
        <time>2016-05-28T09:40:06Z</time>
      </trkpt>
      <trkpt lat="43.78212" lon="3.0322">
        <ele>543.63</ele>
        <time>2016-05-28T09:40:23Z</time>
      </trkpt>
      <trkpt lat="43.78232" lon="3.03256">
        <ele>543.55</ele>
        <time>2016-05-28T09:40:40Z</time>
      </trkpt>
      <trkpt lat="43.78258" lon="3.03271">
        <ele>543.34</ele>
        <time>2016-05-28T09:40:58Z</time>
      </trkpt>
      <trkpt lat="43.78283" lon="3.03285">
        <ele>542.95</ele>
        <time>2016-05-28T09:41:15Z</time>
      </trkpt>
      <trkpt lat="43.78307" lon="3.03295">
        <ele>542.7</ele>
        <time>2016-05-28T09:41:31Z</time>
      </trkpt>
      <trkpt lat="43.78327" lon="3.03307">
        <ele>542.28</ele>
        <time>2016-05-28T09:41:47Z</time>
      </trkpt>
      <trkpt lat="43.78354" lon="3.03319">
        <ele>542.07</ele>
        <time>2016-05-28T09:42:05Z</time>
      </trkpt>
      <trkpt lat="43.78383" lon="3.03342">
        <ele>541.71</ele>
        <time>2016-05-28T09:42:26Z</time>
      </trkpt>
      <trkpt lat="43.78389" lon="3.03345">
        <ele>541.64</ele>
        <time>2016-05-28T09:42:33Z</time>
      </trkpt>
      <trkpt lat="43.78397" lon="3.03349">
        <ele>541.62</ele>
        <time>2016-05-28T09:42:39Z</time>
      </trkpt>
      <trkpt lat="43.78424" lon="3.03348">
        <ele>541.31</ele>
        <time>2016-05-28T09:42:58Z</time>
      </trkpt>
      <trkpt lat="43.78444" lon="3.03336">
        <ele>541.02</ele>
        <time>2016-05-28T09:43:14Z</time>
      </trkpt>
      <trkpt lat="43.78461" lon="3.03306">
        <ele>540.53</ele>
        <time>2016-05-28T09:43:33Z</time>
      </trkpt>
      <trkpt lat="43.78488" lon="3.03281">
        <ele>539.69</ele>
        <time>2016-05-28T09:43:56Z</time>
      </trkpt>
      <trkpt lat="43.7849" lon="3.03281">
        <ele>540.03</ele>
        <time>2016-05-28T09:44:04Z</time>
      </trkpt>
      <trkpt lat="43.78479" lon="3.03285">
        <ele>540.34</ele>
        <time>2016-05-28T09:44:12Z</time>
      </trkpt>
      <trkpt lat="43.78458" lon="3.03311">
        <ele>540.28</ele>
        <time>2016-05-28T09:44:34Z</time>
      </trkpt>
      <trkpt lat="43.78454" lon="3.03315">
        <ele>540.46</ele>
        <time>2016-05-28T09:44:55Z</time>
      </trkpt>
      <trkpt lat="43.78452" lon="3.03314">
        <ele>539.72</ele>
        <time>2016-05-28T09:45:28Z</time>
      </trkpt>
      <trkpt lat="43.78455" lon="3.03313">
        <ele>539.78</ele>
        <time>2016-05-28T09:46:04Z</time>
      </trkpt>
      <trkpt lat="43.78455" lon="3.03314">
        <ele>539.74</ele>
        <time>2016-05-28T09:46:34Z</time>
      </trkpt>
      <trkpt lat="43.78457" lon="3.03313">
        <ele>539.98</ele>
        <time>2016-05-28T09:46:47Z</time>
      </trkpt>
      <trkpt lat="43.78462" lon="3.03308">
        <ele>540.38</ele>
        <time>2016-05-28T09:46:52Z</time>
      </trkpt>
      <trkpt lat="43.7848" lon="3.0329">
        <ele>540.38</ele>
        <time>2016-05-28T09:47:07Z</time>
      </trkpt>
      <trkpt lat="43.78486" lon="3.03288">
        <ele>540.28</ele>
        <time>2016-05-28T09:47:12Z</time>
      </trkpt>
      <trkpt lat="43.78497" lon="3.03282">
        <ele>540.2</ele>
        <time>2016-05-28T09:47:21Z</time>
      </trkpt>
      <trkpt lat="43.78511" lon="3.03273">
        <ele>540.7</ele>
        <time>2016-05-28T09:47:34Z</time>
      </trkpt>
      <trkpt lat="43.7853" lon="3.03269">
        <ele>540.56</ele>
        <time>2016-05-28T09:47:48Z</time>
      </trkpt>
      <trkpt lat="43.78557" lon="3.03261">
        <ele>540.44</ele>
        <time>2016-05-28T09:48:09Z</time>
      </trkpt>
      <trkpt lat="43.78578" lon="3.03245">
        <ele>540.81</ele>
        <time>2016-05-28T09:48:28Z</time>
      </trkpt>
      <trkpt lat="43.78596" lon="3.03221">
        <ele>540.79</ele>
        <time>2016-05-28T09:48:48Z</time>
      </trkpt>
      <trkpt lat="43.78614" lon="3.03199">
        <ele>540.9</ele>
        <time>2016-05-28T09:49:07Z</time>
      </trkpt>
      <trkpt lat="43.78628" lon="3.03183">
        <ele>540.76</ele>
        <time>2016-05-28T09:49:24Z</time>
      </trkpt>
      <trkpt lat="43.78638" lon="3.03169">
        <ele>541.05</ele>
        <time>2016-05-28T09:49:41Z</time>
      </trkpt>
      <trkpt lat="43.78649" lon="3.03158">
        <ele>541.25</ele>
        <time>2016-05-28T09:50:00Z</time>
      </trkpt>
      <trkpt lat="43.7865" lon="3.03158">
        <ele>541.27</ele>
        <time>2016-05-28T09:50:01Z</time>
      </trkpt>
      <trkpt lat="43.78671" lon="3.03146">
        <ele>540.81</ele>
        <time>2016-05-28T09:50:19Z</time>
      </trkpt>
      <trkpt lat="43.78699" lon="3.03131">
        <ele>540.48</ele>
        <time>2016-05-28T09:50:39Z</time>
      </trkpt>
      <trkpt lat="43.78711" lon="3.03124">
        <ele>540.46</ele>
        <time>2016-05-28T09:50:56Z</time>
      </trkpt>
      <trkpt lat="43.78723" lon="3.03117">
        <ele>540.32</ele>
        <time>2016-05-28T09:51:17Z</time>
      </trkpt>
      <trkpt lat="43.7874" lon="3.03107">
        <ele>540.2</ele>
        <time>2016-05-28T09:51:35Z</time>
      </trkpt>
      <trkpt lat="43.7876" lon="3.03093">
        <ele>539.94</ele>
        <time>2016-05-28T09:51:53Z</time>
      </trkpt>
      <trkpt lat="43.78776" lon="3.03077">
        <ele>539.66</ele>
        <time>2016-05-28T09:52:11Z</time>
      </trkpt>
      <trkpt lat="43.78798" lon="3.03055">
        <ele>539.42</ele>
        <time>2016-05-28T09:52:35Z</time>
      </trkpt>
      <trkpt lat="43.78814" lon="3.0304">
        <ele>539</ele>
        <time>2016-05-28T09:52:51Z</time>
      </trkpt>
      <trkpt lat="43.78829" lon="3.03027">
        <ele>538.67</ele>
        <time>2016-05-28T09:53:06Z</time>
      </trkpt>
      <trkpt lat="43.78845" lon="3.03013">
        <ele>538.63</ele>
        <time>2016-05-28T09:53:20Z</time>
      </trkpt>
      <trkpt lat="43.78866" lon="3.02993">
        <ele>538.53</ele>
        <time>2016-05-28T09:53:38Z</time>
      </trkpt>
      <trkpt lat="43.78884" lon="3.02975">
        <ele>538.24</ele>
        <time>2016-05-28T09:53:54Z</time>
      </trkpt>
      <trkpt lat="43.78899" lon="3.02962">
        <ele>537.67</ele>
        <time>2016-05-28T09:54:09Z</time>
      </trkpt>
      <trkpt lat="43.78921" lon="3.02951">
        <ele>537.47</ele>
        <time>2016-05-28T09:54:26Z</time>
      </trkpt>
      <trkpt lat="43.78939" lon="3.02931">
        <ele>537.05</ele>
        <time>2016-05-28T09:54:44Z</time>
      </trkpt>
      <trkpt lat="43.78965" lon="3.02903">
        <ele>536.4</ele>
        <time>2016-05-28T09:55:08Z</time>
      </trkpt>
      <trkpt lat="43.78986" lon="3.02881">
        <ele>536.14</ele>
        <time>2016-05-28T09:55:28Z</time>
      </trkpt>
      <trkpt lat="43.78992" lon="3.02881">
        <ele>536.74</ele>
        <time>2016-05-28T09:55:44Z</time>
      </trkpt>
      <trkpt lat="43.78994" lon="3.02886">
        <ele>536.95</ele>
        <time>2016-05-28T09:55:48Z</time>
      </trkpt>
      <trkpt lat="43.79004" lon="3.02906">
        <ele>538.8</ele>
        <time>2016-05-28T09:56:08Z</time>
      </trkpt>
      <trkpt lat="43.7901" lon="3.02922">
        <ele>540.38</ele>
        <time>2016-05-28T09:56:26Z</time>
      </trkpt>
      <trkpt lat="43.79014" lon="3.02927">
        <ele>540.5</ele>
        <time>2016-05-28T09:56:42Z</time>
      </trkpt>
      <trkpt lat="43.79016" lon="3.02932">
        <ele>540.6</ele>
        <time>2016-05-28T09:56:46Z</time>
      </trkpt>
      <trkpt lat="43.79023" lon="3.0295">
        <ele>542.3</ele>
        <time>2016-05-28T09:57:02Z</time>
      </trkpt>
      <trkpt lat="43.79028" lon="3.02965">
        <ele>543.51</ele>
        <time>2016-05-28T09:57:14Z</time>
      </trkpt>
      <trkpt lat="43.7904" lon="3.02989">
        <ele>545.08</ele>
        <time>2016-05-28T09:57:32Z</time>
      </trkpt>
      <trkpt lat="43.79052" lon="3.03012">
        <ele>546.64</ele>
        <time>2016-05-28T09:57:48Z</time>
      </trkpt>
      <trkpt lat="43.79059" lon="3.03024">
        <ele>547.22</ele>
        <time>2016-05-28T09:57:56Z</time>
      </trkpt>
      <trkpt lat="43.7907" lon="3.03048">
        <ele>548.81</ele>
        <time>2016-05-28T09:58:09Z</time>
      </trkpt>
      <trkpt lat="43.79086" lon="3.03076">
        <ele>550.78</ele>
        <time>2016-05-28T09:58:27Z</time>
      </trkpt>
      <trkpt lat="43.79099" lon="3.03101">
        <ele>552.61</ele>
        <time>2016-05-28T09:58:44Z</time>
      </trkpt>
      <trkpt lat="43.79112" lon="3.03129">
        <ele>554.72</ele>
        <time>2016-05-28T09:59:03Z</time>
      </trkpt>
      <trkpt lat="43.79129" lon="3.03162">
        <ele>556.73</ele>
        <time>2016-05-28T09:59:25Z</time>
      </trkpt>
      <trkpt lat="43.79149" lon="3.03193">
        <ele>558.88</ele>
        <time>2016-05-28T09:59:47Z</time>
      </trkpt>
      <trkpt lat="43.79172" lon="3.03225">
        <ele>561.31</ele>
        <time>2016-05-28T10:00:11Z</time>
      </trkpt>
      <trkpt lat="43.79189" lon="3.03246">
        <ele>562.99</ele>
        <time>2016-05-28T10:00:29Z</time>
      </trkpt>
      <trkpt lat="43.79201" lon="3.03269">
        <ele>563.9</ele>
        <time>2016-05-28T10:00:45Z</time>
      </trkpt>
      <trkpt lat="43.79212" lon="3.03294">
        <ele>565.17</ele>
        <time>2016-05-28T10:01:01Z</time>
      </trkpt>
      <trkpt lat="43.79225" lon="3.03327">
        <ele>567.62</ele>
        <time>2016-05-28T10:01:21Z</time>
      </trkpt>
      <trkpt lat="43.79238" lon="3.03363">
        <ele>569.62</ele>
        <time>2016-05-28T10:01:43Z</time>
      </trkpt>
      <trkpt lat="43.79249" lon="3.03389">
        <ele>571.25</ele>
        <time>2016-05-28T10:01:59Z</time>
      </trkpt>
      <trkpt lat="43.79262" lon="3.03417">
        <ele>572.24</ele>
        <time>2016-05-28T10:02:17Z</time>
      </trkpt>
      <trkpt lat="43.79276" lon="3.03445">
        <ele>572.76</ele>
        <time>2016-05-28T10:02:34Z</time>
      </trkpt>
      <trkpt lat="43.79292" lon="3.03477">
        <ele>573.8</ele>
        <time>2016-05-28T10:02:53Z</time>
      </trkpt>
      <trkpt lat="43.79308" lon="3.03514">
        <ele>574.54</ele>
        <time>2016-05-28T10:03:16Z</time>
      </trkpt>
      <trkpt lat="43.79314" lon="3.03531">
        <ele>574.99</ele>
        <time>2016-05-28T10:03:26Z</time>
      </trkpt>
      <trkpt lat="43.79317" lon="3.03558">
        <ele>576.25</ele>
        <time>2016-05-28T10:03:46Z</time>
      </trkpt>
      <trkpt lat="43.79318" lon="3.03563">
        <ele>576.35</ele>
        <time>2016-05-28T10:03:49Z</time>
      </trkpt>
      <trkpt lat="43.79328" lon="3.03587">
        <ele>575.96</ele>
        <time>2016-05-28T10:04:03Z</time>
      </trkpt>
      <trkpt lat="43.79349" lon="3.03598">
        <ele>575.03</ele>
        <time>2016-05-28T10:04:17Z</time>
      </trkpt>
      <trkpt lat="43.79353" lon="3.03599">
        <ele>574.7</ele>
        <time>2016-05-28T10:04:21Z</time>
      </trkpt>
      <trkpt lat="43.7936" lon="3.03608">
        <ele>573.63</ele>
        <time>2016-05-28T10:04:28Z</time>
      </trkpt>
      <trkpt lat="43.79369" lon="3.0362">
        <ele>571.74</ele>
        <time>2016-05-28T10:04:43Z</time>
      </trkpt>
      <trkpt lat="43.79375" lon="3.03618">
        <ele>571.23</ele>
        <time>2016-05-28T10:05:03Z</time>
      </trkpt>
      <trkpt lat="43.79386" lon="3.03624">
        <ele>571.57</ele>
        <time>2016-05-28T10:05:24Z</time>
      </trkpt>
      <trkpt lat="43.79387" lon="3.03624">
        <ele>571.64</ele>
        <time>2016-05-28T10:05:25Z</time>
      </trkpt>
      <trkpt lat="43.79389" lon="3.03628">
        <ele>571.86</ele>
        <time>2016-05-28T10:05:28Z</time>
      </trkpt>
      <trkpt lat="43.79393" lon="3.03641">
        <ele>574.29</ele>
        <time>2016-05-28T10:05:49Z</time>
      </trkpt>
      <trkpt lat="43.7939" lon="3.03662">
        <ele>576.62</ele>
        <time>2016-05-28T10:06:11Z</time>
      </trkpt>
      <trkpt lat="43.79394" lon="3.03677">
        <ele>576.59</ele>
        <time>2016-05-28T10:06:29Z</time>
      </trkpt>
      <trkpt lat="43.79395" lon="3.03682">
        <ele>576.11</ele>
        <time>2016-05-28T10:06:33Z</time>
      </trkpt>
      <trkpt lat="43.79397" lon="3.03698">
        <ele>574.45</ele>
        <time>2016-05-28T10:06:44Z</time>
      </trkpt>
      <trkpt lat="43.79399" lon="3.03719">
        <ele>573.94</ele>
        <time>2016-05-28T10:06:58Z</time>
      </trkpt>
      <trkpt lat="43.79395" lon="3.03747">
        <ele>572.67</ele>
        <time>2016-05-28T10:07:16Z</time>
      </trkpt>
      <trkpt lat="43.79397" lon="3.03768">
        <ele>571.41</ele>
        <time>2016-05-28T10:07:28Z</time>
      </trkpt>
      <trkpt lat="43.79391" lon="3.03784">
        <ele>570.8</ele>
        <time>2016-05-28T10:07:45Z</time>
      </trkpt>
      <trkpt lat="43.79376" lon="3.03811">
        <ele>571.33</ele>
        <time>2016-05-28T10:08:07Z</time>
      </trkpt>
      <trkpt lat="43.79371" lon="3.03826">
        <ele>572.47</ele>
        <time>2016-05-28T10:08:27Z</time>
      </trkpt>
      <trkpt lat="43.79371" lon="3.03827">
        <ele>572.5</ele>
        <time>2016-05-28T10:08:29Z</time>
      </trkpt>
      <trkpt lat="43.79375" lon="3.03835">
        <ele>572.54</ele>
        <time>2016-05-28T10:08:53Z</time>
      </trkpt>
      <trkpt lat="43.79378" lon="3.03833">
        <ele>571.91</ele>
        <time>2016-05-28T10:09:04Z</time>
      </trkpt>
      <trkpt lat="43.79381" lon="3.03831">
        <ele>571.48</ele>
        <time>2016-05-28T10:09:20Z</time>
      </trkpt>
      <trkpt lat="43.79384" lon="3.03832">
        <ele>571.48</ele>
        <time>2016-05-28T10:09:55Z</time>
      </trkpt>
      <trkpt lat="43.79385" lon="3.03829">
        <ele>570.62</ele>
        <time>2016-05-28T10:10:31Z</time>
      </trkpt>
      <trkpt lat="43.79385" lon="3.03831">
        <ele>570.52</ele>
        <time>2016-05-28T10:10:59Z</time>
      </trkpt>
      <trkpt lat="43.79384" lon="3.03831">
        <ele>570.5</ele>
        <time>2016-05-28T10:11:38Z</time>
      </trkpt>
      <trkpt lat="43.7938" lon="3.03836">
        <ele>571.73</ele>
        <time>2016-05-28T10:12:07Z</time>
      </trkpt>
      <trkpt lat="43.79376" lon="3.03838">
        <ele>572.23</ele>
        <time>2016-05-28T10:12:16Z</time>
      </trkpt>
      <trkpt lat="43.79371" lon="3.03852">
        <ele>572.77</ele>
        <time>2016-05-28T10:12:26Z</time>
      </trkpt>
      <trkpt lat="43.79356" lon="3.03884">
        <ele>574.82</ele>
        <time>2016-05-28T10:12:49Z</time>
      </trkpt>
      <trkpt lat="43.79348" lon="3.03911">
        <ele>574.34</ele>
        <time>2016-05-28T10:13:02Z</time>
      </trkpt>
      <trkpt lat="43.79343" lon="3.03932">
        <ele>574.67</ele>
        <time>2016-05-28T10:13:11Z</time>
      </trkpt>
      <trkpt lat="43.79338" lon="3.0396">
        <ele>576.01</ele>
        <time>2016-05-28T10:13:26Z</time>
      </trkpt>
      <trkpt lat="43.79337" lon="3.0397">
        <ele>576.97</ele>
        <time>2016-05-28T10:13:32Z</time>
      </trkpt>
      <trkpt lat="43.79335" lon="3.03976">
        <ele>577.5</ele>
        <time>2016-05-28T10:13:36Z</time>
      </trkpt>
      <trkpt lat="43.79323" lon="3.03995">
        <ele>578.57</ele>
        <time>2016-05-28T10:13:53Z</time>
      </trkpt>
      <trkpt lat="43.79318" lon="3.03999">
        <ele>578.57</ele>
        <time>2016-05-28T10:13:57Z</time>
      </trkpt>
      <trkpt lat="43.79315" lon="3.04003">
        <ele>578.67</ele>
        <time>2016-05-28T10:13:59Z</time>
      </trkpt>
      <trkpt lat="43.793" lon="3.04023">
        <ele>579.3</ele>
        <time>2016-05-28T10:14:14Z</time>
      </trkpt>
      <trkpt lat="43.79295" lon="3.04026">
        <ele>579.37</ele>
        <time>2016-05-28T10:14:17Z</time>
      </trkpt>
      <trkpt lat="43.79275" lon="3.04028">
        <ele>580.59</ele>
        <time>2016-05-28T10:14:32Z</time>
      </trkpt>
      <trkpt lat="43.79262" lon="3.04033">
        <ele>580.36</ele>
        <time>2016-05-28T10:14:44Z</time>
      </trkpt>
      <trkpt lat="43.7925" lon="3.04042">
        <ele>578.54</ele>
        <time>2016-05-28T10:14:58Z</time>
      </trkpt>
      <trkpt lat="43.79243" lon="3.04045">
        <ele>577.88</ele>
        <time>2016-05-28T10:15:05Z</time>
      </trkpt>
      <trkpt lat="43.79221" lon="3.04063">
        <ele>577.03</ele>
        <time>2016-05-28T10:15:23Z</time>
      </trkpt>
      <trkpt lat="43.79209" lon="3.04072">
        <ele>577.34</ele>
        <time>2016-05-28T10:15:39Z</time>
      </trkpt>
      <trkpt lat="43.79207" lon="3.04073">
        <ele>577.42</ele>
        <time>2016-05-28T10:15:41Z</time>
      </trkpt>
      <trkpt lat="43.79197" lon="3.04094">
        <ele>576.99</ele>
        <time>2016-05-28T10:16:09Z</time>
      </trkpt>
      <trkpt lat="43.79192" lon="3.04094">
        <ele>577.18</ele>
        <time>2016-05-28T10:16:34Z</time>
      </trkpt>
      <trkpt lat="43.79188" lon="3.04099">
        <ele>578.09</ele>
        <time>2016-05-28T10:17:00Z</time>
      </trkpt>
      <trkpt lat="43.79184" lon="3.041">
        <ele>577.98</ele>
        <time>2016-05-28T10:17:10Z</time>
      </trkpt>
      <trkpt lat="43.79165" lon="3.04113">
        <ele>580</ele>
        <time>2016-05-28T10:17:34Z</time>
      </trkpt>
      <trkpt lat="43.79151" lon="3.04123">
        <ele>581.27</ele>
        <time>2016-05-28T10:17:49Z</time>
      </trkpt>
      <trkpt lat="43.79128" lon="3.04128">
        <ele>582.56</ele>
        <time>2016-05-28T10:18:08Z</time>
      </trkpt>
      <trkpt lat="43.79115" lon="3.04139">
        <ele>584.57</ele>
        <time>2016-05-28T10:18:25Z</time>
      </trkpt>
      <trkpt lat="43.79105" lon="3.04148">
        <ele>586.76</ele>
        <time>2016-05-28T10:18:44Z</time>
      </trkpt>
      <trkpt lat="43.79087" lon="3.04169">
        <ele>587.47</ele>
        <time>2016-05-28T10:19:02Z</time>
      </trkpt>
      <trkpt lat="43.79078" lon="3.0418">
        <ele>587.11</ele>
        <time>2016-05-28T10:19:14Z</time>
      </trkpt>
      <trkpt lat="43.7907" lon="3.04196">
        <ele>587.29</ele>
        <time>2016-05-28T10:19:28Z</time>
      </trkpt>
      <trkpt lat="43.79059" lon="3.04221">
        <ele>587.17</ele>
        <time>2016-05-28T10:19:44Z</time>
      </trkpt>
      <trkpt lat="43.79053" lon="3.04256">
        <ele>587.82</ele>
        <time>2016-05-28T10:20:00Z</time>
      </trkpt>
      <trkpt lat="43.79049" lon="3.04286">
        <ele>590.28</ele>
        <time>2016-05-28T10:20:25Z</time>
      </trkpt>
      <trkpt lat="43.79057" lon="3.04301">
        <ele>590.61</ele>
        <time>2016-05-28T10:20:47Z</time>
      </trkpt>
      <trkpt lat="43.79062" lon="3.04326">
        <ele>593.34</ele>
        <time>2016-05-28T10:21:08Z</time>
      </trkpt>
      <trkpt lat="43.79077" lon="3.04358">
        <ele>593.92</ele>
        <time>2016-05-28T10:21:28Z</time>
      </trkpt>
      <trkpt lat="43.79083" lon="3.04368">
        <ele>593.63</ele>
        <time>2016-05-28T10:21:36Z</time>
      </trkpt>
      <trkpt lat="43.79085" lon="3.04389">
        <ele>595.95</ele>
        <time>2016-05-28T10:21:59Z</time>
      </trkpt>
      <trkpt lat="43.79089" lon="3.04399">
        <ele>596.2</ele>
        <time>2016-05-28T10:22:10Z</time>
      </trkpt>
      <trkpt lat="43.79093" lon="3.04414">
        <ele>596.3</ele>
        <time>2016-05-28T10:22:22Z</time>
      </trkpt>
      <trkpt lat="43.791" lon="3.04453">
        <ele>595.54</ele>
        <time>2016-05-28T10:22:46Z</time>
      </trkpt>
      <trkpt lat="43.79108" lon="3.04489">
        <ele>596.45</ele>
        <time>2016-05-28T10:23:05Z</time>
      </trkpt>
      <trkpt lat="43.79111" lon="3.045">
        <ele>597.02</ele>
        <time>2016-05-28T10:23:12Z</time>
      </trkpt>
      <trkpt lat="43.79111" lon="3.04505">
        <ele>597.33</ele>
        <time>2016-05-28T10:23:17Z</time>
      </trkpt>
      <trkpt lat="43.79118" lon="3.04526">
        <ele>598.17</ele>
        <time>2016-05-28T10:23:28Z</time>
      </trkpt>
      <trkpt lat="43.79109" lon="3.04557">
        <ele>601.3</ele>
        <time>2016-05-28T10:23:48Z</time>
      </trkpt>
      <trkpt lat="43.79099" lon="3.04583">
        <ele>603.94</ele>
        <time>2016-05-28T10:24:06Z</time>
      </trkpt>
      <trkpt lat="43.79091" lon="3.04598">
        <ele>604.67</ele>
        <time>2016-05-28T10:24:14Z</time>
      </trkpt>
      <trkpt lat="43.79083" lon="3.04627">
        <ele>605.76</ele>
        <time>2016-05-28T10:24:33Z</time>
      </trkpt>
      <trkpt lat="43.79079" lon="3.04638">
        <ele>606.47</ele>
        <time>2016-05-28T10:24:45Z</time>
      </trkpt>
      <trkpt lat="43.79076" lon="3.04646">
        <ele>606.32</ele>
        <time>2016-05-28T10:24:56Z</time>
      </trkpt>
      <trkpt lat="43.79073" lon="3.0465">
        <ele>606.18</ele>
        <time>2016-05-28T10:25:00Z</time>
      </trkpt>
      <trkpt lat="43.79062" lon="3.04671">
        <ele>606.14</ele>
        <time>2016-05-28T10:25:14Z</time>
      </trkpt>
      <trkpt lat="43.79047" lon="3.04696">
        <ele>607.29</ele>
        <time>2016-05-28T10:25:34Z</time>
      </trkpt>
      <trkpt lat="43.79031" lon="3.04718">
        <ele>610.07</ele>
        <time>2016-05-28T10:25:56Z</time>
      </trkpt>
      <trkpt lat="43.79018" lon="3.04718">
        <ele>611.54</ele>
        <time>2016-05-28T10:26:17Z</time>
      </trkpt>
      <trkpt lat="43.79013" lon="3.04722">
        <ele>611.64</ele>
        <time>2016-05-28T10:26:33Z</time>
      </trkpt>
      <trkpt lat="43.79005" lon="3.04741">
        <ele>614.73</ele>
        <time>2016-05-28T10:26:53Z</time>
      </trkpt>
      <trkpt lat="43.78999" lon="3.0475">
        <ele>617.76</ele>
        <time>2016-05-28T10:27:07Z</time>
      </trkpt>
      <trkpt lat="43.7899" lon="3.04773">
        <ele>620.85</ele>
        <time>2016-05-28T10:27:21Z</time>
      </trkpt>
      <trkpt lat="43.78981" lon="3.0478">
        <ele>623.99</ele>
        <time>2016-05-28T10:27:40Z</time>
      </trkpt>
      <trkpt lat="43.78969" lon="3.04789">
        <ele>626.08</ele>
        <time>2016-05-28T10:27:59Z</time>
      </trkpt>
      <trkpt lat="43.78958" lon="3.04801">
        <ele>628.91</ele>
        <time>2016-05-28T10:28:21Z</time>
      </trkpt>
      <trkpt lat="43.78941" lon="3.04818">
        <ele>631.93</ele>
        <time>2016-05-28T10:28:45Z</time>
      </trkpt>
      <trkpt lat="43.78938" lon="3.04821">
        <ele>632.86</ele>
        <time>2016-05-28T10:28:52Z</time>
      </trkpt>
      <trkpt lat="43.7893" lon="3.04827">
        <ele>634.2</ele>
        <time>2016-05-28T10:29:16Z</time>
      </trkpt>
      <trkpt lat="43.78917" lon="3.04834">
        <ele>635.47</ele>
        <time>2016-05-28T10:29:39Z</time>
      </trkpt>
      <trkpt lat="43.7891" lon="3.04838">
        <ele>636.18</ele>
        <time>2016-05-28T10:29:58Z</time>
      </trkpt>
      <trkpt lat="43.78904" lon="3.04841">
        <ele>636.75</ele>
        <time>2016-05-28T10:30:20Z</time>
      </trkpt>
      <trkpt lat="43.78904" lon="3.04841">
        <ele>636.68</ele>
        <time>2016-05-28T10:30:25Z</time>
      </trkpt>
      <trkpt lat="43.7891" lon="3.04836">
        <ele>637</ele>
        <time>2016-05-28T10:30:54Z</time>
      </trkpt>
      <trkpt lat="43.78909" lon="3.04837">
        <ele>637.37</ele>
        <time>2016-05-28T10:31:09Z</time>
      </trkpt>
      <trkpt lat="43.789" lon="3.04845">
        <ele>638.94</ele>
        <time>2016-05-28T10:31:24Z</time>
      </trkpt>
      <trkpt lat="43.78887" lon="3.0485">
        <ele>641.99</ele>
        <time>2016-05-28T10:31:47Z</time>
      </trkpt>
      <trkpt lat="43.7888" lon="3.04851">
        <ele>645.02</ele>
        <time>2016-05-28T10:32:03Z</time>
      </trkpt>
      <trkpt lat="43.78871" lon="3.04855">
        <ele>645.64</ele>
        <time>2016-05-28T10:32:23Z</time>
      </trkpt>
      <trkpt lat="43.78871" lon="3.04855">
        <ele>645.48</ele>
        <time>2016-05-28T10:32:26Z</time>
      </trkpt>
      <trkpt lat="43.78852" lon="3.04871">
        <ele>644.74</ele>
        <time>2016-05-28T10:32:44Z</time>
      </trkpt>
      <trkpt lat="43.7884" lon="3.04891">
        <ele>644.4</ele>
        <time>2016-05-28T10:33:08Z</time>
      </trkpt>
      <trkpt lat="43.78835" lon="3.04897">
        <ele>644.52</ele>
        <time>2016-05-28T10:33:12Z</time>
      </trkpt>
      <trkpt lat="43.78824" lon="3.0491">
        <ele>644.56</ele>
        <time>2016-05-28T10:33:21Z</time>
      </trkpt>
      <trkpt lat="43.78814" lon="3.04917">
        <ele>644.38</ele>
        <time>2016-05-28T10:33:26Z</time>
      </trkpt>
      <trkpt lat="43.78805" lon="3.04921">
        <ele>644.35</ele>
        <time>2016-05-28T10:33:30Z</time>
      </trkpt>
      <trkpt lat="43.78793" lon="3.04918">
        <ele>644.29</ele>
        <time>2016-05-28T10:33:44Z</time>
      </trkpt>
      <trkpt lat="43.7879" lon="3.04914">
        <ele>644.48</ele>
        <time>2016-05-28T10:33:48Z</time>
      </trkpt>
      <trkpt lat="43.78783" lon="3.04901">
        <ele>644.67</ele>
        <time>2016-05-28T10:33:56Z</time>
      </trkpt>
      <trkpt lat="43.78781" lon="3.04889">
        <ele>644.6</ele>
        <time>2016-05-28T10:34:02Z</time>
      </trkpt>
      <trkpt lat="43.7877" lon="3.04875">
        <ele>644.37</ele>
        <time>2016-05-28T10:34:14Z</time>
      </trkpt>
      <trkpt lat="43.78772" lon="3.04872">
        <ele>644.23</ele>
        <time>2016-05-28T10:34:20Z</time>
      </trkpt>
      <trkpt lat="43.78769" lon="3.04877">
        <ele>644.12</ele>
        <time>2016-05-28T10:34:23Z</time>
      </trkpt>
      <trkpt lat="43.7876" lon="3.049">
        <ele>643.11</ele>
        <time>2016-05-28T10:34:34Z</time>
      </trkpt>
      <trkpt lat="43.78761" lon="3.04907">
        <ele>642.76</ele>
        <time>2016-05-28T10:34:39Z</time>
      </trkpt>
      <trkpt lat="43.78762" lon="3.04911">
        <ele>642.67</ele>
        <time>2016-05-28T10:34:41Z</time>
      </trkpt>
      <trkpt lat="43.7876" lon="3.04922">
        <ele>642.58</ele>
        <time>2016-05-28T10:34:46Z</time>
      </trkpt>
      <trkpt lat="43.78761" lon="3.04933">
        <ele>642.36</ele>
        <time>2016-05-28T10:34:52Z</time>
      </trkpt>
      <trkpt lat="43.78758" lon="3.04948">
        <ele>642.26</ele>
        <time>2016-05-28T10:34:59Z</time>
      </trkpt>
      <trkpt lat="43.78747" lon="3.04968">
        <ele>643.58</ele>
        <time>2016-05-28T10:35:11Z</time>
      </trkpt>
      <trkpt lat="43.78737" lon="3.04987">
        <ele>645.16</ele>
        <time>2016-05-28T10:35:30Z</time>
      </trkpt>
      <trkpt lat="43.78709" lon="3.05015">
        <ele>645.73</ele>
        <time>2016-05-28T10:35:49Z</time>
      </trkpt>
      <trkpt lat="43.78695" lon="3.05031">
        <ele>646.2</ele>
        <time>2016-05-28T10:36:05Z</time>
      </trkpt>
      <trkpt lat="43.78666" lon="3.0505">
        <ele>646.85</ele>
        <time>2016-05-28T10:36:27Z</time>
      </trkpt>
      <trkpt lat="43.78627" lon="3.05065">
        <ele>647.56</ele>
        <time>2016-05-28T10:36:48Z</time>
      </trkpt>
      <trkpt lat="43.78602" lon="3.05071">
        <ele>648.21</ele>
        <time>2016-05-28T10:37:04Z</time>
      </trkpt>
      <trkpt lat="43.78585" lon="3.05075">
        <ele>649.35</ele>
        <time>2016-05-28T10:37:17Z</time>
      </trkpt>
      <trkpt lat="43.78572" lon="3.05081">
        <ele>650.19</ele>
        <time>2016-05-28T10:37:29Z</time>
      </trkpt>
      <trkpt lat="43.78561" lon="3.05086">
        <ele>651.73</ele>
        <time>2016-05-28T10:37:44Z</time>
      </trkpt>
      <trkpt lat="43.78545" lon="3.05101">
        <ele>653.05</ele>
        <time>2016-05-28T10:38:05Z</time>
      </trkpt>
      <trkpt lat="43.78526" lon="3.05123">
        <ele>652.46</ele>
        <time>2016-05-28T10:38:26Z</time>
      </trkpt>
      <trkpt lat="43.78518" lon="3.05132">
        <ele>652.4</ele>
        <time>2016-05-28T10:38:33Z</time>
      </trkpt>
      <trkpt lat="43.78514" lon="3.05135">
        <ele>652.32</ele>
        <time>2016-05-28T10:38:36Z</time>
      </trkpt>
      <trkpt lat="43.78484" lon="3.05146">
        <ele>651.51</ele>
        <time>2016-05-28T10:38:55Z</time>
      </trkpt>
      <trkpt lat="43.7848" lon="3.05147">
        <ele>651.42</ele>
        <time>2016-05-28T10:38:58Z</time>
      </trkpt>
      <trkpt lat="43.78472" lon="3.05144">
        <ele>651.19</ele>
        <time>2016-05-28T10:39:04Z</time>
      </trkpt>
      <trkpt lat="43.78455" lon="3.05135">
        <ele>650.21</ele>
        <time>2016-05-28T10:39:16Z</time>
      </trkpt>
      <trkpt lat="43.78447" lon="3.05127">
        <ele>649.76</ele>
        <time>2016-05-28T10:39:22Z</time>
      </trkpt>
      <trkpt lat="43.78438" lon="3.05117">
        <ele>649.74</ele>
        <time>2016-05-28T10:39:31Z</time>
      </trkpt>
      <trkpt lat="43.78438" lon="3.05107">
        <ele>648.6</ele>
        <time>2016-05-28T10:39:43Z</time>
      </trkpt>
      <trkpt lat="43.78436" lon="3.05118">
        <ele>648.16</ele>
        <time>2016-05-28T10:39:58Z</time>
      </trkpt>
      <trkpt lat="43.78432" lon="3.05137">
        <ele>647.97</ele>
        <time>2016-05-28T10:40:10Z</time>
      </trkpt>
      <trkpt lat="43.78434" lon="3.0515">
        <ele>647.93</ele>
        <time>2016-05-28T10:40:21Z</time>
      </trkpt>
      <trkpt lat="43.78442" lon="3.05163">
        <ele>647.59</ele>
        <time>2016-05-28T10:40:34Z</time>
      </trkpt>
      <trkpt lat="43.78441" lon="3.05176">
        <ele>647.58</ele>
        <time>2016-05-28T10:40:40Z</time>
      </trkpt>
      <trkpt lat="43.78467" lon="3.05197">
        <ele>647.13</ele>
        <time>2016-05-28T10:41:01Z</time>
      </trkpt>
      <trkpt lat="43.78473" lon="3.05205">
        <ele>647.37</ele>
        <time>2016-05-28T10:41:08Z</time>
      </trkpt>
      <trkpt lat="43.78479" lon="3.05219">
        <ele>648.43</ele>
        <time>2016-05-28T10:41:25Z</time>
      </trkpt>
      <trkpt lat="43.78484" lon="3.05222">
        <ele>648.63</ele>
        <time>2016-05-28T10:41:46Z</time>
      </trkpt>
      <trkpt lat="43.78489" lon="3.05221">
        <ele>648.44</ele>
        <time>2016-05-28T10:41:58Z</time>
      </trkpt>
      <trkpt lat="43.78499" lon="3.05216">
        <ele>648.24</ele>
        <time>2016-05-28T10:42:21Z</time>
      </trkpt>
      <trkpt lat="43.78508" lon="3.0521">
        <ele>648.54</ele>
        <time>2016-05-28T10:42:56Z</time>
      </trkpt>
      <trkpt lat="43.7851" lon="3.05217">
        <ele>648.88</ele>
        <time>2016-05-28T10:43:30Z</time>
      </trkpt>
      <trkpt lat="43.78509" lon="3.05229">
        <ele>648.08</ele>
        <time>2016-05-28T10:43:58Z</time>
      </trkpt>
      <trkpt lat="43.7851" lon="3.05229">
        <ele>647.93</ele>
        <time>2016-05-28T10:44:05Z</time>
      </trkpt>
      <trkpt lat="43.7851" lon="3.05233">
        <ele>647.81</ele>
        <time>2016-05-28T10:44:38Z</time>
      </trkpt>
      <trkpt lat="43.78504" lon="3.05238">
        <ele>647.74</ele>
        <time>2016-05-28T10:45:06Z</time>
      </trkpt>
      <trkpt lat="43.78509" lon="3.05236">
        <ele>648.1</ele>
        <time>2016-05-28T10:45:40Z</time>
      </trkpt>
      <trkpt lat="43.78506" lon="3.05234">
        <ele>648.05</ele>
        <time>2016-05-28T10:46:09Z</time>
      </trkpt>
      <trkpt lat="43.78506" lon="3.05227">
        <ele>648.11</ele>
        <time>2016-05-28T10:46:40Z</time>
      </trkpt>
      <trkpt lat="43.78504" lon="3.05223">
        <ele>648.24</ele>
        <time>2016-05-28T10:47:11Z</time>
      </trkpt>
      <trkpt lat="43.78499" lon="3.05229">
        <ele>648.07</ele>
        <time>2016-05-28T10:47:41Z</time>
      </trkpt>
      <trkpt lat="43.78506" lon="3.05233">
        <ele>648.94</ele>
        <time>2016-05-28T10:48:11Z</time>
      </trkpt>
      <trkpt lat="43.78507" lon="3.05232">
        <ele>648.48</ele>
        <time>2016-05-28T10:48:39Z</time>
      </trkpt>
      <trkpt lat="43.78506" lon="3.05235">
        <ele>648.97</ele>
        <time>2016-05-28T10:49:11Z</time>
      </trkpt>
      <trkpt lat="43.78514" lon="3.05227">
        <ele>648.57</ele>
        <time>2016-05-28T10:49:45Z</time>
      </trkpt>
      <trkpt lat="43.78505" lon="3.05228">
        <ele>648.57</ele>
        <time>2016-05-28T10:50:15Z</time>
      </trkpt>
      <trkpt lat="43.78513" lon="3.05213">
        <ele>648.26</ele>
        <time>2016-05-28T10:50:47Z</time>
      </trkpt>
      <trkpt lat="43.78503" lon="3.05227">
        <ele>648.7</ele>
        <time>2016-05-28T10:51:18Z</time>
      </trkpt>
      <trkpt lat="43.78497" lon="3.05229">
        <ele>648.51</ele>
        <time>2016-05-28T10:51:52Z</time>
      </trkpt>
      <trkpt lat="43.78503" lon="3.05223">
        <ele>648.37</ele>
        <time>2016-05-28T10:52:25Z</time>
      </trkpt>
      <trkpt lat="43.78511" lon="3.05218">
        <ele>648.25</ele>
        <time>2016-05-28T10:52:43Z</time>
      </trkpt>
      <trkpt lat="43.78517" lon="3.05216">
        <ele>648.38</ele>
        <time>2016-05-28T10:53:15Z</time>
      </trkpt>
      <trkpt lat="43.78516" lon="3.05216">
        <ele>648.36</ele>
        <time>2016-05-28T10:53:45Z</time>
      </trkpt>
      <trkpt lat="43.78516" lon="3.0522">
        <ele>648.33</ele>
        <time>2016-05-28T10:53:53Z</time>
      </trkpt>
      <trkpt lat="43.7851" lon="3.05223">
        <ele>648.64</ele>
        <time>2016-05-28T10:54:24Z</time>
      </trkpt>
      <trkpt lat="43.78514" lon="3.0523">
        <ele>648.35</ele>
        <time>2016-05-28T10:54:57Z</time>
      </trkpt>
      <trkpt lat="43.785" lon="3.05223">
        <ele>648.68</ele>
        <time>2016-05-28T10:55:32Z</time>
      </trkpt>
      <trkpt lat="43.78499" lon="3.05221">
        <ele>649.14</ele>
        <time>2016-05-28T10:56:03Z</time>
      </trkpt>
      <trkpt lat="43.7851" lon="3.05226">
        <ele>648.83</ele>
        <time>2016-05-28T10:56:23Z</time>
      </trkpt>
      <trkpt lat="43.78516" lon="3.05228">
        <ele>648.5</ele>
        <time>2016-05-28T10:56:43Z</time>
      </trkpt>
      <trkpt lat="43.78511" lon="3.05223">
        <ele>648.3</ele>
        <time>2016-05-28T10:57:14Z</time>
      </trkpt>
      <trkpt lat="43.78509" lon="3.05221">
        <ele>648.29</ele>
        <time>2016-05-28T10:57:45Z</time>
      </trkpt>
      <trkpt lat="43.78507" lon="3.05229">
        <ele>648.09</ele>
        <time>2016-05-28T10:58:11Z</time>
      </trkpt>
      <trkpt lat="43.78507" lon="3.05232">
        <ele>649.02</ele>
        <time>2016-05-28T10:58:38Z</time>
      </trkpt>
      <trkpt lat="43.7851" lon="3.05231">
        <ele>649.2</ele>
        <time>2016-05-28T10:59:04Z</time>
      </trkpt>
      <trkpt lat="43.7851" lon="3.05231">
        <ele>649.1</ele>
        <time>2016-05-28T10:59:06Z</time>
      </trkpt>
      <trkpt lat="43.78507" lon="3.05227">
        <ele>648.8</ele>
        <time>2016-05-28T10:59:39Z</time>
      </trkpt>
      <trkpt lat="43.78513" lon="3.05225">
        <ele>648.67</ele>
        <time>2016-05-28T11:00:14Z</time>
      </trkpt>
      <trkpt lat="43.78508" lon="3.05223">
        <ele>648.38</ele>
        <time>2016-05-28T11:00:47Z</time>
      </trkpt>
      <trkpt lat="43.78509" lon="3.05215">
        <ele>648.26</ele>
        <time>2016-05-28T11:01:15Z</time>
      </trkpt>
      <trkpt lat="43.78511" lon="3.05214">
        <ele>648.46</ele>
        <time>2016-05-28T11:01:53Z</time>
      </trkpt>
      <trkpt lat="43.78508" lon="3.05209">
        <ele>648.75</ele>
        <time>2016-05-28T11:02:27Z</time>
      </trkpt>
      <trkpt lat="43.7851" lon="3.05217">
        <ele>648.89</ele>
        <time>2016-05-28T11:02:58Z</time>
      </trkpt>
      <trkpt lat="43.78514" lon="3.05217">
        <ele>648.8</ele>
        <time>2016-05-28T11:03:28Z</time>
      </trkpt>
      <trkpt lat="43.78514" lon="3.05216">
        <ele>648.87</ele>
        <time>2016-05-28T11:03:58Z</time>
      </trkpt>
      <trkpt lat="43.78508" lon="3.05218">
        <ele>649.01</ele>
        <time>2016-05-28T11:04:32Z</time>
      </trkpt>
      <trkpt lat="43.78509" lon="3.0522">
        <ele>648.71</ele>
        <time>2016-05-28T11:05:01Z</time>
      </trkpt>
      <trkpt lat="43.78509" lon="3.05223">
        <ele>649.03</ele>
        <time>2016-05-28T11:05:32Z</time>
      </trkpt>
      <trkpt lat="43.7851" lon="3.05219">
        <ele>649.02</ele>
        <time>2016-05-28T11:06:01Z</time>
      </trkpt>
      <trkpt lat="43.7851" lon="3.05223">
        <ele>649.15</ele>
        <time>2016-05-28T11:06:30Z</time>
      </trkpt>
      <trkpt lat="43.7851" lon="3.05222">
        <ele>649.39</ele>
        <time>2016-05-28T11:07:11Z</time>
      </trkpt>
      <trkpt lat="43.78507" lon="3.05224">
        <ele>649.12</ele>
        <time>2016-05-28T11:07:42Z</time>
      </trkpt>
      <trkpt lat="43.78511" lon="3.0522">
        <ele>649.05</ele>
        <time>2016-05-28T11:08:11Z</time>
      </trkpt>
      <trkpt lat="43.78512" lon="3.05216">
        <ele>648.81</ele>
        <time>2016-05-28T11:08:43Z</time>
      </trkpt>
      <trkpt lat="43.78514" lon="3.05212">
        <ele>649.11</ele>
        <time>2016-05-28T11:09:18Z</time>
      </trkpt>
      <trkpt lat="43.78516" lon="3.05216">
        <ele>648.93</ele>
        <time>2016-05-28T11:09:49Z</time>
      </trkpt>
      <trkpt lat="43.78511" lon="3.05221">
        <ele>649.38</ele>
        <time>2016-05-28T11:10:20Z</time>
      </trkpt>
      <trkpt lat="43.78509" lon="3.05218">
        <ele>649.77</ele>
        <time>2016-05-28T11:10:52Z</time>
      </trkpt>
      <trkpt lat="43.78512" lon="3.05214">
        <ele>649.54</ele>
        <time>2016-05-28T11:11:23Z</time>
      </trkpt>
      <trkpt lat="43.78512" lon="3.05215">
        <ele>649.44</ele>
        <time>2016-05-28T11:11:50Z</time>
      </trkpt>
      <trkpt lat="43.78514" lon="3.05209">
        <ele>649.23</ele>
        <time>2016-05-28T11:12:22Z</time>
      </trkpt>
      <trkpt lat="43.78514" lon="3.05208">
        <ele>649.77</ele>
        <time>2016-05-28T11:12:50Z</time>
      </trkpt>
      <trkpt lat="43.78512" lon="3.05212">
        <ele>649.8</ele>
        <time>2016-05-28T11:13:21Z</time>
      </trkpt>
      <trkpt lat="43.78515" lon="3.05218">
        <ele>649.72</ele>
        <time>2016-05-28T11:13:55Z</time>
      </trkpt>
      <trkpt lat="43.78516" lon="3.05214">
        <ele>649.48</ele>
        <time>2016-05-28T11:14:23Z</time>
      </trkpt>
      <trkpt lat="43.78515" lon="3.0522">
        <ele>649.61</ele>
        <time>2016-05-28T11:14:52Z</time>
      </trkpt>
      <trkpt lat="43.78513" lon="3.05225">
        <ele>650.14</ele>
        <time>2016-05-28T11:15:20Z</time>
      </trkpt>
      <trkpt lat="43.78515" lon="3.0523">
        <ele>650.49</ele>
        <time>2016-05-28T11:15:47Z</time>
      </trkpt>
      <trkpt lat="43.78506" lon="3.05227">
        <ele>650.83</ele>
        <time>2016-05-28T11:16:16Z</time>
      </trkpt>
      <trkpt lat="43.78504" lon="3.0523">
        <ele>650.7</ele>
        <time>2016-05-28T11:16:49Z</time>
      </trkpt>
      <trkpt lat="43.78501" lon="3.05227">
        <ele>650.78</ele>
        <time>2016-05-28T11:16:59Z</time>
      </trkpt>
      <trkpt lat="43.78502" lon="3.05231">
        <ele>650.61</ele>
        <time>2016-05-28T11:17:18Z</time>
      </trkpt>
      <trkpt lat="43.78501" lon="3.0524">
        <ele>651.2</ele>
        <time>2016-05-28T11:17:38Z</time>
      </trkpt>
      <trkpt lat="43.78509" lon="3.05241">
        <ele>652.55</ele>
        <time>2016-05-28T11:17:58Z</time>
      </trkpt>
      <trkpt lat="43.78515" lon="3.05241">
        <ele>654.55</ele>
        <time>2016-05-28T11:18:18Z</time>
      </trkpt>
      <trkpt lat="43.78526" lon="3.05234">
        <ele>655.74</ele>
        <time>2016-05-28T11:18:37Z</time>
      </trkpt>
      <trkpt lat="43.78547" lon="3.05229">
        <ele>656.46</ele>
        <time>2016-05-28T11:18:56Z</time>
      </trkpt>
      <trkpt lat="43.78562" lon="3.05229">
        <ele>656.77</ele>
        <time>2016-05-28T11:19:09Z</time>
      </trkpt>
      <trkpt lat="43.78583" lon="3.05233">
        <ele>657.44</ele>
        <time>2016-05-28T11:19:27Z</time>
      </trkpt>
      <trkpt lat="43.78595" lon="3.0525">
        <ele>660.46</ele>
        <time>2016-05-28T11:19:47Z</time>
      </trkpt>
      <trkpt lat="43.78584" lon="3.05248">
        <ele>663.12</ele>
        <time>2016-05-28T11:20:06Z</time>
      </trkpt>
      <trkpt lat="43.78567" lon="3.05256">
        <ele>666.09</ele>
        <time>2016-05-28T11:20:29Z</time>
      </trkpt>
      <trkpt lat="43.78557" lon="3.05266">
        <ele>667.71</ele>
        <time>2016-05-28T11:20:41Z</time>
      </trkpt>
      <trkpt lat="43.78542" lon="3.05282">
        <ele>669.42</ele>
        <time>2016-05-28T11:20:58Z</time>
      </trkpt>
      <trkpt lat="43.78539" lon="3.0529">
        <ele>670.15</ele>
        <time>2016-05-28T11:21:05Z</time>
      </trkpt>
      <trkpt lat="43.78535" lon="3.05298">
        <ele>671.24</ele>
        <time>2016-05-28T11:21:12Z</time>
      </trkpt>
      <trkpt lat="43.78532" lon="3.05321">
        <ele>672.75</ele>
        <time>2016-05-28T11:21:29Z</time>
      </trkpt>
      <trkpt lat="43.78521" lon="3.05343">
        <ele>675.72</ele>
        <time>2016-05-28T11:21:50Z</time>
      </trkpt>
      <trkpt lat="43.78512" lon="3.05371">
        <ele>678.67</ele>
        <time>2016-05-28T11:22:11Z</time>
      </trkpt>
      <trkpt lat="43.78507" lon="3.05401">
        <ele>681.53</ele>
        <time>2016-05-28T11:22:33Z</time>
      </trkpt>
      <trkpt lat="43.78506" lon="3.05421">
        <ele>683.89</ele>
        <time>2016-05-28T11:22:53Z</time>
      </trkpt>
      <trkpt lat="43.78503" lon="3.05444">
        <ele>686.93</ele>
        <time>2016-05-28T11:23:16Z</time>
      </trkpt>
      <trkpt lat="43.78507" lon="3.05485">
        <ele>689.7</ele>
        <time>2016-05-28T11:23:36Z</time>
      </trkpt>
      <trkpt lat="43.78505" lon="3.05521">
        <ele>692.71</ele>
        <time>2016-05-28T11:23:57Z</time>
      </trkpt>
      <trkpt lat="43.78502" lon="3.05544">
        <ele>694.55</ele>
        <time>2016-05-28T11:24:13Z</time>
      </trkpt>
      <trkpt lat="43.78485" lon="3.05558">
        <ele>697.07</ele>
        <time>2016-05-28T11:24:31Z</time>
      </trkpt>
      <trkpt lat="43.78461" lon="3.05558">
        <ele>698.97</ele>
        <time>2016-05-28T11:24:49Z</time>
      </trkpt>
      <trkpt lat="43.78458" lon="3.05559">
        <ele>699.42</ele>
        <time>2016-05-28T11:24:56Z</time>
      </trkpt>
      <trkpt lat="43.78444" lon="3.05558">
        <ele>699.45</ele>
        <time>2016-05-28T11:25:24Z</time>
      </trkpt>
      <trkpt lat="43.78447" lon="3.05559">
        <ele>699.64</ele>
        <time>2016-05-28T11:25:53Z</time>
      </trkpt>
      <trkpt lat="43.78452" lon="3.0556">
        <ele>699.17</ele>
        <time>2016-05-28T11:26:23Z</time>
      </trkpt>
      <trkpt lat="43.78435" lon="3.05557">
        <ele>700.21</ele>
        <time>2016-05-28T11:26:48Z</time>
      </trkpt>
      <trkpt lat="43.78414" lon="3.05549">
        <ele>701.54</ele>
        <time>2016-05-28T11:27:07Z</time>
      </trkpt>
      <trkpt lat="43.78411" lon="3.05541">
        <ele>702.33</ele>
        <time>2016-05-28T11:27:16Z</time>
      </trkpt>
      <trkpt lat="43.78405" lon="3.05526">
        <ele>703.79</ele>
        <time>2016-05-28T11:27:30Z</time>
      </trkpt>
      <trkpt lat="43.78398" lon="3.05501">
        <ele>706.54</ele>
        <time>2016-05-28T11:27:50Z</time>
      </trkpt>
      <trkpt lat="43.78393" lon="3.05493">
        <ele>708.05</ele>
        <time>2016-05-28T11:27:57Z</time>
      </trkpt>
      <trkpt lat="43.78391" lon="3.0549">
        <ele>708.38</ele>
        <time>2016-05-28T11:27:59Z</time>
      </trkpt>
      <trkpt lat="43.78375" lon="3.05461">
        <ele>711.3</ele>
        <time>2016-05-28T11:28:19Z</time>
      </trkpt>
      <trkpt lat="43.78366" lon="3.05445">
        <ele>712.93</ele>
        <time>2016-05-28T11:28:31Z</time>
      </trkpt>
      <trkpt lat="43.78354" lon="3.05426">
        <ele>715.36</ele>
        <time>2016-05-28T11:28:47Z</time>
      </trkpt>
      <trkpt lat="43.78344" lon="3.0541">
        <ele>716.85</ele>
        <time>2016-05-28T11:29:01Z</time>
      </trkpt>
      <trkpt lat="43.78332" lon="3.05393">
        <ele>718.92</ele>
        <time>2016-05-28T11:29:16Z</time>
      </trkpt>
      <trkpt lat="43.78319" lon="3.05376">
        <ele>720.85</ele>
        <time>2016-05-28T11:29:30Z</time>
      </trkpt>
      <trkpt lat="43.783" lon="3.05369">
        <ele>723.31</ele>
        <time>2016-05-28T11:29:47Z</time>
      </trkpt>
      <trkpt lat="43.78279" lon="3.05376">
        <ele>726.33</ele>
        <time>2016-05-28T11:30:04Z</time>
      </trkpt>
      <trkpt lat="43.78263" lon="3.05388">
        <ele>728.1</ele>
        <time>2016-05-28T11:30:20Z</time>
      </trkpt>
      <trkpt lat="43.78251" lon="3.05406">
        <ele>730.45</ele>
        <time>2016-05-28T11:30:36Z</time>
      </trkpt>
      <trkpt lat="43.78247" lon="3.05412">
        <ele>731.05</ele>
        <time>2016-05-28T11:30:41Z</time>
      </trkpt>
      <trkpt lat="43.78247" lon="3.05415">
        <ele>731.26</ele>
        <time>2016-05-28T11:30:43Z</time>
      </trkpt>
      <trkpt lat="43.78246" lon="3.05422">
        <ele>731.66</ele>
        <time>2016-05-28T11:30:47Z</time>
      </trkpt>
      <trkpt lat="43.78239" lon="3.05433">
        <ele>732.96</ele>
        <time>2016-05-28T11:30:56Z</time>
      </trkpt>
      <trkpt lat="43.78223" lon="3.05449">
        <ele>736.12</ele>
        <time>2016-05-28T11:31:14Z</time>
      </trkpt>
      <trkpt lat="43.78209" lon="3.05449">
        <ele>738.74</ele>
        <time>2016-05-28T11:31:31Z</time>
      </trkpt>
      <trkpt lat="43.78197" lon="3.05441">
        <ele>740.96</ele>
        <time>2016-05-28T11:31:44Z</time>
      </trkpt>
      <trkpt lat="43.78179" lon="3.0543">
        <ele>743.68</ele>
        <time>2016-05-28T11:32:01Z</time>
      </trkpt>
      <trkpt lat="43.78152" lon="3.05412">
        <ele>746.72</ele>
        <time>2016-05-28T11:32:25Z</time>
      </trkpt>
      <trkpt lat="43.78117" lon="3.0539">
        <ele>749.59</ele>
        <time>2016-05-28T11:32:50Z</time>
      </trkpt>
      <trkpt lat="43.78106" lon="3.05384">
        <ele>751.43</ele>
        <time>2016-05-28T11:33:09Z</time>
      </trkpt>
      <trkpt lat="43.78106" lon="3.05382">
        <ele>751.73</ele>
        <time>2016-05-28T11:33:42Z</time>
      </trkpt>
      <trkpt lat="43.78103" lon="3.05382">
        <ele>751.77</ele>
        <time>2016-05-28T11:34:29Z</time>
      </trkpt>
      <trkpt lat="43.78103" lon="3.05384">
        <ele>751.84</ele>
        <time>2016-05-28T11:35:03Z</time>
      </trkpt>
      <trkpt lat="43.78104" lon="3.05391">
        <ele>751.87</ele>
        <time>2016-05-28T11:35:22Z</time>
      </trkpt>
      <trkpt lat="43.78124" lon="3.05416">
        <ele>751.39</ele>
        <time>2016-05-28T11:35:43Z</time>
      </trkpt>
      <trkpt lat="43.78142" lon="3.05449">
        <ele>750.97</ele>
        <time>2016-05-28T11:36:06Z</time>
      </trkpt>
      <trkpt lat="43.78162" lon="3.05486">
        <ele>750.64</ele>
        <time>2016-05-28T11:36:31Z</time>
      </trkpt>
      <trkpt lat="43.78182" lon="3.05519">
        <ele>750.77</ele>
        <time>2016-05-28T11:36:55Z</time>
      </trkpt>
      <trkpt lat="43.78197" lon="3.05545">
        <ele>750.46</ele>
        <time>2016-05-28T11:37:13Z</time>
      </trkpt>
      <trkpt lat="43.78216" lon="3.05574">
        <ele>750.01</ele>
        <time>2016-05-28T11:37:34Z</time>
      </trkpt>
      <trkpt lat="43.78228" lon="3.05601">
        <ele>747.59</ele>
        <time>2016-05-28T11:37:52Z</time>
      </trkpt>
      <trkpt lat="43.78238" lon="3.05625">
        <ele>744.85</ele>
        <time>2016-05-28T11:38:08Z</time>
      </trkpt>
      <trkpt lat="43.78252" lon="3.05651">
        <ele>741.63</ele>
        <time>2016-05-28T11:38:26Z</time>
      </trkpt>
      <trkpt lat="43.78267" lon="3.05677">
        <ele>740.95</ele>
        <time>2016-05-28T11:38:45Z</time>
      </trkpt>
      <trkpt lat="43.78278" lon="3.05698">
        <ele>741.7</ele>
        <time>2016-05-28T11:39:01Z</time>
      </trkpt>
      <trkpt lat="43.78293" lon="3.05717">
        <ele>742.08</ele>
        <time>2016-05-28T11:39:19Z</time>
      </trkpt>
      <trkpt lat="43.78309" lon="3.05735">
        <ele>743.09</ele>
        <time>2016-05-28T11:39:35Z</time>
      </trkpt>
      <trkpt lat="43.78326" lon="3.05749">
        <ele>745.27</ele>
        <time>2016-05-28T11:39:53Z</time>
      </trkpt>
      <trkpt lat="43.78346" lon="3.05767">
        <ele>748.36</ele>
        <time>2016-05-28T11:40:10Z</time>
      </trkpt>
      <trkpt lat="43.78361" lon="3.05778">
        <ele>751.58</ele>
        <time>2016-05-28T11:40:27Z</time>
      </trkpt>
      <trkpt lat="43.78373" lon="3.05785">
        <ele>754.65</ele>
        <time>2016-05-28T11:40:42Z</time>
      </trkpt>
      <trkpt lat="43.78388" lon="3.05791">
        <ele>757.88</ele>
        <time>2016-05-28T11:41:00Z</time>
      </trkpt>
      <trkpt lat="43.78403" lon="3.05798">
        <ele>760.89</ele>
        <time>2016-05-28T11:41:17Z</time>
      </trkpt>
      <trkpt lat="43.78412" lon="3.05801">
        <ele>763.02</ele>
        <time>2016-05-28T11:41:26Z</time>
      </trkpt>
      <trkpt lat="43.78431" lon="3.05807">
        <ele>765.84</ele>
        <time>2016-05-28T11:41:44Z</time>
      </trkpt>
      <trkpt lat="43.7845" lon="3.05807">
        <ele>768.46</ele>
        <time>2016-05-28T11:42:02Z</time>
      </trkpt>
      <trkpt lat="43.78471" lon="3.05811">
        <ele>770.47</ele>
        <time>2016-05-28T11:42:20Z</time>
      </trkpt>
      <trkpt lat="43.78477" lon="3.05811">
        <ele>771.17</ele>
        <time>2016-05-28T11:42:26Z</time>
      </trkpt>
      <trkpt lat="43.78497" lon="3.05814">
        <ele>773.36</ele>
        <time>2016-05-28T11:42:43Z</time>
      </trkpt>
      <trkpt lat="43.78518" lon="3.05824">
        <ele>776.41</ele>
        <time>2016-05-28T11:43:02Z</time>
      </trkpt>
      <trkpt lat="43.78538" lon="3.05833">
        <ele>777.85</ele>
        <time>2016-05-28T11:43:19Z</time>
      </trkpt>
      <trkpt lat="43.78557" lon="3.05841">
        <ele>779.11</ele>
        <time>2016-05-28T11:43:34Z</time>
      </trkpt>
      <trkpt lat="43.78563" lon="3.05844">
        <ele>779.29</ele>
        <time>2016-05-28T11:43:39Z</time>
      </trkpt>
      <trkpt lat="43.78567" lon="3.05845">
        <ele>779.67</ele>
        <time>2016-05-28T11:43:43Z</time>
      </trkpt>
      <trkpt lat="43.78583" lon="3.05847">
        <ele>782.64</ele>
        <time>2016-05-28T11:44:00Z</time>
      </trkpt>
      <trkpt lat="43.78603" lon="3.05847">
        <ele>785.94</ele>
        <time>2016-05-28T11:44:19Z</time>
      </trkpt>
      <trkpt lat="43.78608" lon="3.05848">
        <ele>786.96</ele>
        <time>2016-05-28T11:44:24Z</time>
      </trkpt>
      <trkpt lat="43.78612" lon="3.05849">
        <ele>787.76</ele>
        <time>2016-05-28T11:44:28Z</time>
      </trkpt>
      <trkpt lat="43.78625" lon="3.05839">
        <ele>789.46</ele>
        <time>2016-05-28T11:44:45Z</time>
      </trkpt>
      <trkpt lat="43.78635" lon="3.0583">
        <ele>790</ele>
        <time>2016-05-28T11:45:02Z</time>
      </trkpt>
      <trkpt lat="43.78641" lon="3.05821">
        <ele>790.55</ele>
        <time>2016-05-28T11:45:19Z</time>
      </trkpt>
      <trkpt lat="43.78644" lon="3.05817">
        <ele>790.55</ele>
        <time>2016-05-28T11:45:23Z</time>
      </trkpt>
      <trkpt lat="43.78655" lon="3.058">
        <ele>791.76</ele>
        <time>2016-05-28T11:45:41Z</time>
      </trkpt>
      <trkpt lat="43.78667" lon="3.0578">
        <ele>793.48</ele>
        <time>2016-05-28T11:45:58Z</time>
      </trkpt>
      <trkpt lat="43.78669" lon="3.05774">
        <ele>794</ele>
        <time>2016-05-28T11:46:05Z</time>
      </trkpt>
      <trkpt lat="43.7869" lon="3.0576">
        <ele>795.44</ele>
        <time>2016-05-28T11:46:25Z</time>
      </trkpt>
      <trkpt lat="43.78707" lon="3.05757">
        <ele>796.67</ele>
        <time>2016-05-28T11:46:40Z</time>
      </trkpt>
      <trkpt lat="43.78725" lon="3.05756">
        <ele>798.39</ele>
        <time>2016-05-28T11:46:55Z</time>
      </trkpt>
      <trkpt lat="43.78749" lon="3.05754">
        <ele>800.52</ele>
        <time>2016-05-28T11:47:11Z</time>
      </trkpt>
      <trkpt lat="43.78754" lon="3.0575">
        <ele>800.9</ele>
        <time>2016-05-28T11:47:17Z</time>
      </trkpt>
      <trkpt lat="43.78758" lon="3.05748">
        <ele>801.05</ele>
        <time>2016-05-28T11:47:20Z</time>
      </trkpt>
      <trkpt lat="43.7878" lon="3.05735">
        <ele>802.25</ele>
        <time>2016-05-28T11:47:36Z</time>
      </trkpt>
      <trkpt lat="43.78799" lon="3.0572">
        <ele>803.13</ele>
        <time>2016-05-28T11:47:52Z</time>
      </trkpt>
      <trkpt lat="43.78805" lon="3.05718">
        <ele>803.57</ele>
        <time>2016-05-28T11:47:58Z</time>
      </trkpt>
      <trkpt lat="43.78812" lon="3.05717">
        <ele>803.98</ele>
        <time>2016-05-28T11:48:03Z</time>
      </trkpt>
      <trkpt lat="43.78831" lon="3.05712">
        <ele>805.35</ele>
        <time>2016-05-28T11:48:18Z</time>
      </trkpt>
      <trkpt lat="43.78834" lon="3.0571">
        <ele>805.55</ele>
        <time>2016-05-28T11:48:22Z</time>
      </trkpt>
      <trkpt lat="43.7885" lon="3.05705">
        <ele>806.42</ele>
        <time>2016-05-28T11:48:36Z</time>
      </trkpt>
      <trkpt lat="43.78854" lon="3.05705">
        <ele>806.4</ele>
        <time>2016-05-28T11:48:40Z</time>
      </trkpt>
      <trkpt lat="43.78865" lon="3.05707">
        <ele>807.24</ele>
        <time>2016-05-28T11:48:59Z</time>
      </trkpt>
      <trkpt lat="43.78866" lon="3.05708">
        <ele>807.22</ele>
        <time>2016-05-28T11:49:07Z</time>
      </trkpt>
      <trkpt lat="43.78872" lon="3.05708">
        <ele>807.29</ele>
        <time>2016-05-28T11:49:11Z</time>
      </trkpt>
      <trkpt lat="43.78881" lon="3.05708">
        <ele>807.54</ele>
        <time>2016-05-28T11:49:17Z</time>
      </trkpt>
      <trkpt lat="43.78887" lon="3.05708">
        <ele>807.56</ele>
        <time>2016-05-28T11:49:22Z</time>
      </trkpt>
      <trkpt lat="43.78902" lon="3.05708">
        <ele>808.46</ele>
        <time>2016-05-28T11:49:35Z</time>
      </trkpt>
      <trkpt lat="43.78905" lon="3.05708">
        <ele>808.69</ele>
        <time>2016-05-28T11:49:37Z</time>
      </trkpt>
      <trkpt lat="43.78915" lon="3.05711">
        <ele>809.48</ele>
        <time>2016-05-28T11:49:44Z</time>
      </trkpt>
      <trkpt lat="43.78924" lon="3.05711">
        <ele>810.17</ele>
        <time>2016-05-28T11:49:51Z</time>
      </trkpt>
      <trkpt lat="43.78929" lon="3.05712">
        <ele>810.42</ele>
        <time>2016-05-28T11:49:54Z</time>
      </trkpt>
      <trkpt lat="43.78956" lon="3.05716">
        <ele>811.99</ele>
        <time>2016-05-28T11:50:12Z</time>
      </trkpt>
      <trkpt lat="43.7896" lon="3.05716">
        <ele>812.21</ele>
        <time>2016-05-28T11:50:15Z</time>
      </trkpt>
      <trkpt lat="43.78977" lon="3.0571">
        <ele>813.01</ele>
        <time>2016-05-28T11:50:32Z</time>
      </trkpt>
      <trkpt lat="43.78986" lon="3.05705">
        <ele>811.93</ele>
        <time>2016-05-28T11:50:52Z</time>
      </trkpt>
      <trkpt lat="43.7899" lon="3.05707">
        <ele>811.4</ele>
        <time>2016-05-28T11:51:20Z</time>
      </trkpt>
      <trkpt lat="43.78989" lon="3.05709">
        <ele>811.52</ele>
        <time>2016-05-28T11:51:50Z</time>
      </trkpt>
      <trkpt lat="43.7899" lon="3.05709">
        <ele>811.76</ele>
        <time>2016-05-28T11:52:17Z</time>
      </trkpt>
      <trkpt lat="43.78989" lon="3.0571">
        <ele>811.53</ele>
        <time>2016-05-28T11:52:42Z</time>
      </trkpt>
      <trkpt lat="43.78988" lon="3.05708">
        <ele>811.58</ele>
        <time>2016-05-28T11:53:14Z</time>
      </trkpt>
      <trkpt lat="43.78989" lon="3.05709">
        <ele>811.55</ele>
        <time>2016-05-28T11:53:47Z</time>
      </trkpt>
      <trkpt lat="43.78994" lon="3.05707">
        <ele>811.63</ele>
        <time>2016-05-28T11:54:07Z</time>
      </trkpt>
      <trkpt lat="43.78995" lon="3.05704">
        <ele>811.62</ele>
        <time>2016-05-28T11:54:41Z</time>
      </trkpt>
      <trkpt lat="43.78998" lon="3.05694">
        <ele>810.13</ele>
        <time>2016-05-28T11:55:02Z</time>
      </trkpt>
      <trkpt lat="43.79005" lon="3.05686">
        <ele>807.99</ele>
        <time>2016-05-28T11:55:11Z</time>
      </trkpt>
      <trkpt lat="43.79016" lon="3.05677">
        <ele>805.65</ele>
        <time>2016-05-28T11:55:25Z</time>
      </trkpt>
      <trkpt lat="43.79021" lon="3.05673">
        <ele>804.15</ele>
        <time>2016-05-28T11:55:44Z</time>
      </trkpt>
      <trkpt lat="43.79034" lon="3.05666">
        <ele>803.1</ele>
        <time>2016-05-28T11:56:05Z</time>
      </trkpt>
      <trkpt lat="43.79037" lon="3.05664">
        <ele>802.56</ele>
        <time>2016-05-28T11:56:08Z</time>
      </trkpt>
      <trkpt lat="43.79051" lon="3.05655">
        <ele>799.36</ele>
        <time>2016-05-28T11:56:23Z</time>
      </trkpt>
      <trkpt lat="43.79058" lon="3.05653">
        <ele>797.21</ele>
        <time>2016-05-28T11:56:48Z</time>
      </trkpt>
      <trkpt lat="43.79073" lon="3.05645">
        <ele>794.34</ele>
        <time>2016-05-28T11:57:08Z</time>
      </trkpt>
      <trkpt lat="43.79083" lon="3.0564">
        <ele>791.31</ele>
        <time>2016-05-28T11:57:26Z</time>
      </trkpt>
      <trkpt lat="43.79096" lon="3.05637">
        <ele>789.53</ele>
        <time>2016-05-28T11:57:44Z</time>
      </trkpt>
      <trkpt lat="43.79101" lon="3.05635">
        <ele>788.42</ele>
        <time>2016-05-28T11:57:49Z</time>
      </trkpt>
      <trkpt lat="43.79118" lon="3.05632">
        <ele>785.06</ele>
        <time>2016-05-28T11:58:05Z</time>
      </trkpt>
      <trkpt lat="43.79122" lon="3.05632">
        <ele>784.27</ele>
        <time>2016-05-28T11:58:09Z</time>
      </trkpt>
      <trkpt lat="43.79134" lon="3.05625">
        <ele>781.07</ele>
        <time>2016-05-28T11:58:23Z</time>
      </trkpt>
      <trkpt lat="43.79149" lon="3.05621">
        <ele>778.74</ele>
        <time>2016-05-28T11:58:40Z</time>
      </trkpt>
      <trkpt lat="43.79165" lon="3.05617">
        <ele>775.66</ele>
        <time>2016-05-28T11:58:55Z</time>
      </trkpt>
      <trkpt lat="43.79173" lon="3.05616">
        <ele>774.72</ele>
        <time>2016-05-28T11:59:01Z</time>
      </trkpt>
      <trkpt lat="43.79188" lon="3.05611">
        <ele>771.45</ele>
        <time>2016-05-28T11:59:18Z</time>
      </trkpt>
      <trkpt lat="43.79199" lon="3.05606">
        <ele>768.26</ele>
        <time>2016-05-28T11:59:34Z</time>
      </trkpt>
      <trkpt lat="43.79212" lon="3.05597">
        <ele>765.21</ele>
        <time>2016-05-28T11:59:49Z</time>
      </trkpt>
      <trkpt lat="43.79226" lon="3.0559">
        <ele>762.18</ele>
        <time>2016-05-28T12:00:05Z</time>
      </trkpt>
      <trkpt lat="43.79227" lon="3.05589">
        <ele>762.04</ele>
        <time>2016-05-28T12:00:06Z</time>
      </trkpt>
      <trkpt lat="43.79231" lon="3.05587">
        <ele>761.5</ele>
        <time>2016-05-28T12:00:09Z</time>
      </trkpt>
      <trkpt lat="43.79244" lon="3.05581">
        <ele>758.84</ele>
        <time>2016-05-28T12:00:22Z</time>
      </trkpt>
      <trkpt lat="43.79259" lon="3.05573">
        <ele>755.58</ele>
        <time>2016-05-28T12:00:38Z</time>
      </trkpt>
      <trkpt lat="43.79275" lon="3.05563">
        <ele>752.49</ele>
        <time>2016-05-28T12:00:54Z</time>
      </trkpt>
      <trkpt lat="43.79291" lon="3.05552">
        <ele>749.33</ele>
        <time>2016-05-28T12:01:13Z</time>
      </trkpt>
      <trkpt lat="43.79295" lon="3.05548">
        <ele>748.45</ele>
        <time>2016-05-28T12:01:17Z</time>
      </trkpt>
      <trkpt lat="43.79314" lon="3.05536">
        <ele>745.76</ele>
        <time>2016-05-28T12:01:34Z</time>
      </trkpt>
      <trkpt lat="43.79331" lon="3.05524">
        <ele>743.21</ele>
        <time>2016-05-28T12:01:51Z</time>
      </trkpt>
      <trkpt lat="43.79343" lon="3.05513">
        <ele>741.61</ele>
        <time>2016-05-28T12:02:08Z</time>
      </trkpt>
      <trkpt lat="43.79345" lon="3.05512">
        <ele>741.45</ele>
        <time>2016-05-28T12:02:10Z</time>
      </trkpt>
      <trkpt lat="43.79356" lon="3.05501">
        <ele>740.04</ele>
        <time>2016-05-28T12:02:23Z</time>
      </trkpt>
      <trkpt lat="43.79357" lon="3.055">
        <ele>739.83</ele>
        <time>2016-05-28T12:02:25Z</time>
      </trkpt>
      <trkpt lat="43.79368" lon="3.05492">
        <ele>738.53</ele>
        <time>2016-05-28T12:02:36Z</time>
      </trkpt>
      <trkpt lat="43.79385" lon="3.05474">
        <ele>737.45</ele>
        <time>2016-05-28T12:02:50Z</time>
      </trkpt>
      <trkpt lat="43.79401" lon="3.0546">
        <ele>736.55</ele>
        <time>2016-05-28T12:03:04Z</time>
      </trkpt>
      <trkpt lat="43.79413" lon="3.05449">
        <ele>736.11</ele>
        <time>2016-05-28T12:03:14Z</time>
      </trkpt>
      <trkpt lat="43.79418" lon="3.05443">
        <ele>736</ele>
        <time>2016-05-28T12:03:19Z</time>
      </trkpt>
      <trkpt lat="43.79439" lon="3.05421">
        <ele>735.23</ele>
        <time>2016-05-28T12:03:38Z</time>
      </trkpt>
      <trkpt lat="43.79452" lon="3.05408">
        <ele>734.63</ele>
        <time>2016-05-28T12:03:51Z</time>
      </trkpt>
      <trkpt lat="43.79468" lon="3.05396">
        <ele>734.95</ele>
        <time>2016-05-28T12:04:07Z</time>
      </trkpt>
      <trkpt lat="43.79471" lon="3.05392">
        <ele>735.2</ele>
        <time>2016-05-28T12:04:11Z</time>
      </trkpt>
      <trkpt lat="43.79477" lon="3.05386">
        <ele>735.35</ele>
        <time>2016-05-28T12:04:17Z</time>
      </trkpt>
      <trkpt lat="43.79483" lon="3.05383">
        <ele>735.53</ele>
        <time>2016-05-28T12:04:21Z</time>
      </trkpt>
      <trkpt lat="43.79498" lon="3.0537">
        <ele>735.84</ele>
        <time>2016-05-28T12:04:34Z</time>
      </trkpt>
      <trkpt lat="43.79509" lon="3.05364">
        <ele>734.97</ele>
        <time>2016-05-28T12:04:50Z</time>
      </trkpt>
      <trkpt lat="43.79514" lon="3.05363">
        <ele>734.9</ele>
        <time>2016-05-28T12:05:18Z</time>
      </trkpt>
      <trkpt lat="43.79516" lon="3.0536">
        <ele>734.88</ele>
        <time>2016-05-28T12:05:22Z</time>
      </trkpt>
      <trkpt lat="43.79532" lon="3.05347">
        <ele>733.22</ele>
        <time>2016-05-28T12:05:38Z</time>
      </trkpt>
      <trkpt lat="43.79546" lon="3.05334">
        <ele>731.57</ele>
        <time>2016-05-28T12:05:51Z</time>
      </trkpt>
      <trkpt lat="43.79565" lon="3.05321">
        <ele>729.09</ele>
        <time>2016-05-28T12:06:06Z</time>
      </trkpt>
      <trkpt lat="43.79577" lon="3.05316">
        <ele>727.31</ele>
        <time>2016-05-28T12:06:15Z</time>
      </trkpt>
      <trkpt lat="43.79597" lon="3.05307">
        <ele>724.77</ele>
        <time>2016-05-28T12:06:30Z</time>
      </trkpt>
      <trkpt lat="43.79621" lon="3.05293">
        <ele>723.56</ele>
        <time>2016-05-28T12:06:46Z</time>
      </trkpt>
      <trkpt lat="43.79648" lon="3.05277">
        <ele>722.21</ele>
        <time>2016-05-28T12:07:04Z</time>
      </trkpt>
      <trkpt lat="43.79678" lon="3.0525">
        <ele>720.74</ele>
        <time>2016-05-28T12:07:26Z</time>
      </trkpt>
      <trkpt lat="43.79699" lon="3.05216">
        <ele>719.9</ele>
        <time>2016-05-28T12:07:47Z</time>
      </trkpt>
      <trkpt lat="43.79717" lon="3.05178">
        <ele>719.63</ele>
        <time>2016-05-28T12:08:10Z</time>
      </trkpt>
      <trkpt lat="43.79735" lon="3.05133">
        <ele>718.7</ele>
        <time>2016-05-28T12:08:37Z</time>
      </trkpt>
      <trkpt lat="43.79751" lon="3.05108">
        <ele>716.53</ele>
        <time>2016-05-28T12:08:57Z</time>
      </trkpt>
      <trkpt lat="43.79754" lon="3.05107">
        <ele>716.06</ele>
        <time>2016-05-28T12:09:03Z</time>
      </trkpt>
      <trkpt lat="43.79756" lon="3.05105">
        <ele>715.95</ele>
        <time>2016-05-28T12:09:05Z</time>
      </trkpt>
      <trkpt lat="43.7977" lon="3.05083">
        <ele>714.46</ele>
        <time>2016-05-28T12:09:23Z</time>
      </trkpt>
      <trkpt lat="43.79796" lon="3.05062">
        <ele>715.04</ele>
        <time>2016-05-28T12:09:47Z</time>
      </trkpt>
      <trkpt lat="43.79801" lon="3.05059">
        <ele>716.23</ele>
        <time>2016-05-28T12:10:01Z</time>
      </trkpt>
      <trkpt lat="43.79803" lon="3.05058">
        <ele>716.41</ele>
        <time>2016-05-28T12:10:05Z</time>
      </trkpt>
      <trkpt lat="43.7981" lon="3.05047">
        <ele>718.81</ele>
        <time>2016-05-28T12:10:21Z</time>
      </trkpt>
      <trkpt lat="43.79817" lon="3.05037">
        <ele>721.91</ele>
        <time>2016-05-28T12:10:40Z</time>
      </trkpt>
      <trkpt lat="43.79823" lon="3.05031">
        <ele>724.96</ele>
        <time>2016-05-28T12:10:54Z</time>
      </trkpt>
      <trkpt lat="43.79829" lon="3.05024">
        <ele>727.99</ele>
        <time>2016-05-28T12:11:07Z</time>
      </trkpt>
      <trkpt lat="43.79834" lon="3.05019">
        <ele>731.18</ele>
        <time>2016-05-28T12:11:18Z</time>
      </trkpt>
      <trkpt lat="43.79839" lon="3.05013">
        <ele>734.4</ele>
        <time>2016-05-28T12:11:30Z</time>
      </trkpt>
      <trkpt lat="43.79844" lon="3.05007">
        <ele>737.66</ele>
        <time>2016-05-28T12:11:41Z</time>
      </trkpt>
      <trkpt lat="43.7985" lon="3.04998">
        <ele>740.74</ele>
        <time>2016-05-28T12:11:53Z</time>
      </trkpt>
      <trkpt lat="43.79856" lon="3.04992">
        <ele>742.86</ele>
        <time>2016-05-28T12:12:02Z</time>
      </trkpt>
      <trkpt lat="43.7987" lon="3.04983">
        <ele>746.16</ele>
        <time>2016-05-28T12:12:17Z</time>
      </trkpt>
      <trkpt lat="43.79873" lon="3.04979">
        <ele>746.48</ele>
        <time>2016-05-28T12:12:33Z</time>
      </trkpt>
      <trkpt lat="43.79875" lon="3.04979">
        <ele>746.89</ele>
        <time>2016-05-28T12:12:59Z</time>
      </trkpt>
      <trkpt lat="43.79874" lon="3.04978">
        <ele>746.51</ele>
        <time>2016-05-28T12:13:26Z</time>
      </trkpt>
      <trkpt lat="43.79875" lon="3.04973">
        <ele>746.94</ele>
        <time>2016-05-28T12:14:04Z</time>
      </trkpt>
      <trkpt lat="43.79878" lon="3.04971">
        <ele>747.11</ele>
        <time>2016-05-28T12:14:07Z</time>
      </trkpt>
      <trkpt lat="43.79895" lon="3.04957">
        <ele>748.84</ele>
        <time>2016-05-28T12:14:27Z</time>
      </trkpt>
      <trkpt lat="43.7991" lon="3.04948">
        <ele>750.53</ele>
        <time>2016-05-28T12:14:45Z</time>
      </trkpt>
      <trkpt lat="43.79913" lon="3.04944">
        <ele>751.18</ele>
        <time>2016-05-28T12:14:50Z</time>
      </trkpt>
      <trkpt lat="43.79928" lon="3.0493">
        <ele>754.01</ele>
        <time>2016-05-28T12:15:07Z</time>
      </trkpt>
      <trkpt lat="43.79938" lon="3.04921">
        <ele>755.5</ele>
        <time>2016-05-28T12:15:20Z</time>
      </trkpt>
      <trkpt lat="43.79954" lon="3.04914">
        <ele>758.24</ele>
        <time>2016-05-28T12:15:38Z</time>
      </trkpt>
      <trkpt lat="43.79969" lon="3.04906">
        <ele>761.3</ele>
        <time>2016-05-28T12:15:58Z</time>
      </trkpt>
      <trkpt lat="43.79982" lon="3.04901">
        <ele>764.5</ele>
        <time>2016-05-28T12:16:15Z</time>
      </trkpt>
      <trkpt lat="43.79994" lon="3.04897">
        <ele>767.86</ele>
        <time>2016-05-28T12:16:30Z</time>
      </trkpt>
      <trkpt lat="43.80003" lon="3.04892">
        <ele>770.89</ele>
        <time>2016-05-28T12:16:43Z</time>
      </trkpt>
      <trkpt lat="43.80014" lon="3.04884">
        <ele>773.99</ele>
        <time>2016-05-28T12:16:59Z</time>
      </trkpt>
      <trkpt lat="43.80032" lon="3.04879">
        <ele>777.02</ele>
        <time>2016-05-28T12:17:21Z</time>
      </trkpt>
      <trkpt lat="43.80047" lon="3.04876">
        <ele>779.44</ele>
        <time>2016-05-28T12:17:39Z</time>
      </trkpt>
      <trkpt lat="43.80062" lon="3.04872">
        <ele>781.94</ele>
        <time>2016-05-28T12:17:57Z</time>
      </trkpt>
      <trkpt lat="43.80075" lon="3.04869">
        <ele>785.15</ele>
        <time>2016-05-28T12:18:15Z</time>
      </trkpt>
      <trkpt lat="43.80085" lon="3.04869">
        <ele>788.23</ele>
        <time>2016-05-28T12:18:29Z</time>
      </trkpt>
      <trkpt lat="43.80095" lon="3.04867">
        <ele>791.42</ele>
        <time>2016-05-28T12:18:44Z</time>
      </trkpt>
      <trkpt lat="43.80106" lon="3.04864">
        <ele>794.53</ele>
        <time>2016-05-28T12:18:59Z</time>
      </trkpt>
      <trkpt lat="43.80108" lon="3.04864">
        <ele>794.99</ele>
        <time>2016-05-28T12:19:01Z</time>
      </trkpt>
      <trkpt lat="43.80125" lon="3.04865">
        <ele>798.31</ele>
        <time>2016-05-28T12:19:19Z</time>
      </trkpt>
      <trkpt lat="43.80136" lon="3.04863">
        <ele>801.18</ele>
        <time>2016-05-28T12:19:38Z</time>
      </trkpt>
      <trkpt lat="43.80137" lon="3.04858">
        <ele>801.48</ele>
        <time>2016-05-28T12:19:49Z</time>
      </trkpt>
      <trkpt lat="43.80138" lon="3.04814">
        <ele>800.49</ele>
        <time>2016-05-28T12:20:13Z</time>
      </trkpt>
      <trkpt lat="43.80141" lon="3.04757">
        <ele>797.71</ele>
        <time>2016-05-28T12:20:41Z</time>
      </trkpt>
      <trkpt lat="43.80146" lon="3.04712">
        <ele>795.36</ele>
        <time>2016-05-28T12:21:06Z</time>
      </trkpt>
      <trkpt lat="43.80152" lon="3.04676">
        <ele>793.81</ele>
        <time>2016-05-28T12:21:27Z</time>
      </trkpt>
      <trkpt lat="43.80153" lon="3.04672">
        <ele>793.53</ele>
        <time>2016-05-28T12:21:30Z</time>
      </trkpt>
      <trkpt lat="43.8016" lon="3.04633">
        <ele>791.66</ele>
        <time>2016-05-28T12:21:51Z</time>
      </trkpt>
      <trkpt lat="43.80171" lon="3.04583">
        <ele>788.67</ele>
        <time>2016-05-28T12:22:17Z</time>
      </trkpt>
      <trkpt lat="43.80171" lon="3.04584">
        <ele>787.27</ele>
        <time>2016-05-28T12:22:31Z</time>
      </trkpt>
      <trkpt lat="43.80171" lon="3.04586">
        <ele>787.3</ele>
        <time>2016-05-28T12:22:32Z</time>
      </trkpt>
      <trkpt lat="43.80165" lon="3.04588">
        <ele>788.44</ele>
        <time>2016-05-28T12:22:47Z</time>
      </trkpt>
      <trkpt lat="43.80162" lon="3.04586">
        <ele>788.65</ele>
        <time>2016-05-28T12:23:01Z</time>
      </trkpt>
      <trkpt lat="43.80159" lon="3.04583">
        <ele>788.49</ele>
        <time>2016-05-28T12:23:05Z</time>
      </trkpt>
      <trkpt lat="43.80153" lon="3.04576">
        <ele>786.67</ele>
        <time>2016-05-28T12:23:23Z</time>
      </trkpt>
      <trkpt lat="43.80146" lon="3.04574">
        <ele>785.62</ele>
        <time>2016-05-28T12:23:40Z</time>
      </trkpt>
      <trkpt lat="43.80146" lon="3.04573">
        <ele>784.44</ele>
        <time>2016-05-28T12:24:05Z</time>
      </trkpt>
      <trkpt lat="43.8014" lon="3.04569">
        <ele>783.84</ele>
        <time>2016-05-28T12:24:39Z</time>
      </trkpt>
      <trkpt lat="43.80134" lon="3.0456">
        <ele>782.29</ele>
        <time>2016-05-28T12:24:53Z</time>
      </trkpt>
      <trkpt lat="43.80131" lon="3.04556">
        <ele>781.27</ele>
        <time>2016-05-28T12:24:57Z</time>
      </trkpt>
      <trkpt lat="43.80121" lon="3.04542">
        <ele>777.82</ele>
        <time>2016-05-28T12:25:11Z</time>
      </trkpt>
      <trkpt lat="43.80118" lon="3.04532">
        <ele>775.34</ele>
        <time>2016-05-28T12:25:21Z</time>
      </trkpt>
      <trkpt lat="43.80116" lon="3.04526">
        <ele>774.57</ele>
        <time>2016-05-28T12:25:26Z</time>
      </trkpt>
      <trkpt lat="43.80119" lon="3.04509">
        <ele>772.35</ele>
        <time>2016-05-28T12:25:44Z</time>
      </trkpt>
      <trkpt lat="43.80119" lon="3.04505">
        <ele>771.63</ele>
        <time>2016-05-28T12:26:11Z</time>
      </trkpt>
      <trkpt lat="43.80118" lon="3.04502">
        <ele>771.46</ele>
        <time>2016-05-28T12:26:44Z</time>
      </trkpt>
      <trkpt lat="43.80118" lon="3.04504">
        <ele>771.59</ele>
        <time>2016-05-28T12:27:08Z</time>
      </trkpt>
      <trkpt lat="43.80118" lon="3.04506">
        <ele>772.26</ele>
        <time>2016-05-28T12:27:25Z</time>
      </trkpt>
      <trkpt lat="43.80118" lon="3.04505">
        <ele>772.08</ele>
        <time>2016-05-28T12:28:18Z</time>
      </trkpt>
      <trkpt lat="43.80119" lon="3.04504">
        <ele>771.66</ele>
        <time>2016-05-28T12:28:48Z</time>
      </trkpt>
      <trkpt lat="43.80118" lon="3.04504">
        <ele>771.5</ele>
        <time>2016-05-28T12:29:20Z</time>
      </trkpt>
      <trkpt lat="43.80111" lon="3.04504">
        <ele>771.64</ele>
        <time>2016-05-28T12:29:30Z</time>
      </trkpt>
      <trkpt lat="43.80101" lon="3.04504">
        <ele>771.05</ele>
        <time>2016-05-28T12:29:40Z</time>
      </trkpt>
      <trkpt lat="43.80086" lon="3.04486">
        <ele>768.35</ele>
        <time>2016-05-28T12:30:00Z</time>
      </trkpt>
      <trkpt lat="43.80076" lon="3.04466">
        <ele>765.59</ele>
        <time>2016-05-28T12:30:16Z</time>
      </trkpt>
      <trkpt lat="43.80069" lon="3.04454">
        <ele>764.92</ele>
        <time>2016-05-28T12:30:26Z</time>
      </trkpt>
      <trkpt lat="43.8006" lon="3.04452">
        <ele>764.4</ele>
        <time>2016-05-28T12:30:37Z</time>
      </trkpt>
      <trkpt lat="43.80047" lon="3.04436">
        <ele>762.58</ele>
        <time>2016-05-28T12:30:55Z</time>
      </trkpt>
      <trkpt lat="43.80036" lon="3.04421">
        <ele>759.48</ele>
        <time>2016-05-28T12:31:12Z</time>
      </trkpt>
      <trkpt lat="43.80023" lon="3.04405">
        <ele>756.38</ele>
        <time>2016-05-28T12:31:29Z</time>
      </trkpt>
      <trkpt lat="43.80017" lon="3.04396">
        <ele>754.4</ele>
        <time>2016-05-28T12:31:49Z</time>
      </trkpt>
      <trkpt lat="43.80011" lon="3.04376">
        <ele>752.41</ele>
        <time>2016-05-28T12:32:06Z</time>
      </trkpt>
      <trkpt lat="43.80017" lon="3.04365">
        <ele>749.66</ele>
        <time>2016-05-28T12:32:17Z</time>
      </trkpt>
      <trkpt lat="43.8003" lon="3.04358">
        <ele>746.4</ele>
        <time>2016-05-28T12:32:32Z</time>
      </trkpt>
      <trkpt lat="43.80048" lon="3.04349">
        <ele>743.28</ele>
        <time>2016-05-28T12:32:51Z</time>
      </trkpt>
      <trkpt lat="43.80063" lon="3.0434">
        <ele>740.16</ele>
        <time>2016-05-28T12:33:05Z</time>
      </trkpt>
      <trkpt lat="43.8008" lon="3.04322">
        <ele>737.04</ele>
        <time>2016-05-28T12:33:22Z</time>
      </trkpt>
      <trkpt lat="43.80086" lon="3.04304">
        <ele>734.01</ele>
        <time>2016-05-28T12:33:39Z</time>
      </trkpt>
      <trkpt lat="43.80086" lon="3.0429">
        <ele>730.88</ele>
        <time>2016-05-28T12:33:51Z</time>
      </trkpt>
      <trkpt lat="43.80093" lon="3.04282">
        <ele>728.27</ele>
        <time>2016-05-28T12:34:02Z</time>
      </trkpt>
      <trkpt lat="43.8011" lon="3.04271">
        <ele>725.13</ele>
        <time>2016-05-28T12:34:17Z</time>
      </trkpt>
      <trkpt lat="43.80118" lon="3.04258">
        <ele>723.5</ele>
        <time>2016-05-28T12:34:32Z</time>
      </trkpt>
      <trkpt lat="43.80117" lon="3.04251">
        <ele>723.29</ele>
        <time>2016-05-28T12:34:42Z</time>
      </trkpt>
      <trkpt lat="43.80115" lon="3.04233">
        <ele>719.96</ele>
        <time>2016-05-28T12:34:54Z</time>
      </trkpt>
      <trkpt lat="43.80115" lon="3.04226">
        <ele>718.54</ele>
        <time>2016-05-28T12:34:59Z</time>
      </trkpt>
      <trkpt lat="43.80116" lon="3.04221">
        <ele>717.98</ele>
        <time>2016-05-28T12:35:02Z</time>
      </trkpt>
      <trkpt lat="43.8012" lon="3.04199">
        <ele>714.76</ele>
        <time>2016-05-28T12:35:17Z</time>
      </trkpt>
      <trkpt lat="43.80122" lon="3.04185">
        <ele>712.78</ele>
        <time>2016-05-28T12:35:31Z</time>
      </trkpt>
      <trkpt lat="43.80128" lon="3.04161">
        <ele>709.51</ele>
        <time>2016-05-28T12:35:49Z</time>
      </trkpt>
      <trkpt lat="43.80128" lon="3.0416">
        <ele>709.37</ele>
        <time>2016-05-28T12:35:50Z</time>
      </trkpt>
      <trkpt lat="43.8013" lon="3.04141">
        <ele>706.07</ele>
        <time>2016-05-28T12:36:05Z</time>
      </trkpt>
      <trkpt lat="43.8013" lon="3.04138">
        <ele>705.63</ele>
        <time>2016-05-28T12:36:10Z</time>
      </trkpt>
      <trkpt lat="43.80133" lon="3.04113">
        <ele>702.58</ele>
        <time>2016-05-28T12:36:26Z</time>
      </trkpt>
      <trkpt lat="43.80135" lon="3.04091">
        <ele>699.61</ele>
        <time>2016-05-28T12:36:40Z</time>
      </trkpt>
      <trkpt lat="43.80139" lon="3.04064">
        <ele>696.75</ele>
        <time>2016-05-28T12:36:58Z</time>
      </trkpt>
      <trkpt lat="43.80145" lon="3.04038">
        <ele>693.64</ele>
        <time>2016-05-28T12:37:12Z</time>
      </trkpt>
      <trkpt lat="43.80152" lon="3.04013">
        <ele>690.49</ele>
        <time>2016-05-28T12:37:26Z</time>
      </trkpt>
      <trkpt lat="43.80155" lon="3.03996">
        <ele>687.31</ele>
        <time>2016-05-28T12:37:38Z</time>
      </trkpt>
      <trkpt lat="43.80158" lon="3.0398">
        <ele>684.11</ele>
        <time>2016-05-28T12:37:49Z</time>
      </trkpt>
      <trkpt lat="43.80159" lon="3.03975">
        <ele>682.81</ele>
        <time>2016-05-28T12:37:55Z</time>
      </trkpt>
      <trkpt lat="43.80164" lon="3.03955">
        <ele>679.62</ele>
        <time>2016-05-28T12:38:08Z</time>
      </trkpt>
      <trkpt lat="43.80165" lon="3.03953">
        <ele>679.16</ele>
        <time>2016-05-28T12:38:10Z</time>
      </trkpt>
      <trkpt lat="43.80168" lon="3.03938">
        <ele>675.96</ele>
        <time>2016-05-28T12:38:26Z</time>
      </trkpt>
      <trkpt lat="43.80169" lon="3.0393">
        <ele>674.36</ele>
        <time>2016-05-28T12:38:41Z</time>
      </trkpt>
      <trkpt lat="43.8017" lon="3.03926">
        <ele>674.19</ele>
        <time>2016-05-28T12:38:45Z</time>
      </trkpt>
      <trkpt lat="43.80172" lon="3.03921">
        <ele>672.58</ele>
        <time>2016-05-28T12:38:54Z</time>
      </trkpt>
      <trkpt lat="43.80175" lon="3.03899">
        <ele>669.34</ele>
        <time>2016-05-28T12:39:10Z</time>
      </trkpt>
      <trkpt lat="43.80175" lon="3.03895">
        <ele>668.55</ele>
        <time>2016-05-28T12:39:13Z</time>
      </trkpt>
      <trkpt lat="43.80177" lon="3.0388">
        <ele>665.18</ele>
        <time>2016-05-28T12:39:22Z</time>
      </trkpt>
      <trkpt lat="43.80173" lon="3.03871">
        <ele>661.49</ele>
        <time>2016-05-28T12:39:31Z</time>
      </trkpt>
      <trkpt lat="43.8017" lon="3.03865">
        <ele>658.47</ele>
        <time>2016-05-28T12:39:38Z</time>
      </trkpt>
      <trkpt lat="43.8017" lon="3.03859">
        <ele>655.34</ele>
        <time>2016-05-28T12:39:49Z</time>
      </trkpt>
      <trkpt lat="43.8017" lon="3.03845">
        <ele>652.7</ele>
        <time>2016-05-28T12:40:15Z</time>
      </trkpt>
      <trkpt lat="43.80176" lon="3.03822">
        <ele>649.68</ele>
        <time>2016-05-28T12:40:35Z</time>
      </trkpt>
      <trkpt lat="43.80183" lon="3.038">
        <ele>647.34</ele>
        <time>2016-05-28T12:40:58Z</time>
      </trkpt>
      <trkpt lat="43.80189" lon="3.03777">
        <ele>645.69</ele>
        <time>2016-05-28T12:41:16Z</time>
      </trkpt>
      <trkpt lat="43.80195" lon="3.03754">
        <ele>643.6</ele>
        <time>2016-05-28T12:41:36Z</time>
      </trkpt>
      <trkpt lat="43.80197" lon="3.03739">
        <ele>642.08</ele>
        <time>2016-05-28T12:41:59Z</time>
      </trkpt>
      <trkpt lat="43.80194" lon="3.03717">
        <ele>641.39</ele>
        <time>2016-05-28T12:42:16Z</time>
      </trkpt>
      <trkpt lat="43.80191" lon="3.03692">
        <ele>640.39</ele>
        <time>2016-05-28T12:42:34Z</time>
      </trkpt>
      <trkpt lat="43.80193" lon="3.03672">
        <ele>639.09</ele>
        <time>2016-05-28T12:42:52Z</time>
      </trkpt>
      <trkpt lat="43.80192" lon="3.03649">
        <ele>636.64</ele>
        <time>2016-05-28T12:43:12Z</time>
      </trkpt>
      <trkpt lat="43.80196" lon="3.03625">
        <ele>635.71</ele>
        <time>2016-05-28T12:43:30Z</time>
      </trkpt>
      <trkpt lat="43.80206" lon="3.036">
        <ele>634.74</ele>
        <time>2016-05-28T12:43:51Z</time>
      </trkpt>
      <trkpt lat="43.80215" lon="3.0359">
        <ele>634.16</ele>
        <time>2016-05-28T12:43:59Z</time>
      </trkpt>
      <trkpt lat="43.80218" lon="3.03585">
        <ele>634.02</ele>
        <time>2016-05-28T12:44:02Z</time>
      </trkpt>
      <trkpt lat="43.80227" lon="3.03564">
        <ele>633.35</ele>
        <time>2016-05-28T12:44:17Z</time>
      </trkpt>
      <trkpt lat="43.80234" lon="3.0355">
        <ele>632.71</ele>
        <time>2016-05-28T12:44:29Z</time>
      </trkpt>
      <trkpt lat="43.80249" lon="3.03535">
        <ele>633.8</ele>
        <time>2016-05-28T12:44:43Z</time>
      </trkpt>
      <trkpt lat="43.80263" lon="3.03516">
        <ele>634.87</ele>
        <time>2016-05-28T12:44:59Z</time>
      </trkpt>
      <trkpt lat="43.80264" lon="3.03514">
        <ele>634.88</ele>
        <time>2016-05-28T12:45:00Z</time>
      </trkpt>
      <trkpt lat="43.80273" lon="3.035">
        <ele>634.97</ele>
        <time>2016-05-28T12:45:11Z</time>
      </trkpt>
      <trkpt lat="43.80278" lon="3.03486">
        <ele>634.82</ele>
        <time>2016-05-28T12:45:21Z</time>
      </trkpt>
      <trkpt lat="43.80279" lon="3.03477">
        <ele>634.58</ele>
        <time>2016-05-28T12:45:26Z</time>
      </trkpt>
      <trkpt lat="43.80288" lon="3.03452">
        <ele>633.3</ele>
        <time>2016-05-28T12:45:42Z</time>
      </trkpt>
      <trkpt lat="43.80294" lon="3.03436">
        <ele>631.89</ele>
        <time>2016-05-28T12:45:52Z</time>
      </trkpt>
      <trkpt lat="43.80297" lon="3.03429">
        <ele>631.56</ele>
        <time>2016-05-28T12:45:55Z</time>
      </trkpt>
      <trkpt lat="43.80306" lon="3.03402">
        <ele>628.31</ele>
        <time>2016-05-28T12:46:14Z</time>
      </trkpt>
      <trkpt lat="43.80314" lon="3.03382">
        <ele>626.73</ele>
        <time>2016-05-28T12:46:25Z</time>
      </trkpt>
      <trkpt lat="43.80326" lon="3.03354">
        <ele>625.01</ele>
        <time>2016-05-28T12:46:41Z</time>
      </trkpt>
      <trkpt lat="43.80335" lon="3.03341">
        <ele>624.26</ele>
        <time>2016-05-28T12:46:50Z</time>
      </trkpt>
      <trkpt lat="43.80348" lon="3.03323">
        <ele>622.41</ele>
        <time>2016-05-28T12:47:04Z</time>
      </trkpt>
      <trkpt lat="43.80355" lon="3.03302">
        <ele>619.25</ele>
        <time>2016-05-28T12:47:20Z</time>
      </trkpt>
      <trkpt lat="43.80363" lon="3.03285">
        <ele>616.93</ele>
        <time>2016-05-28T12:47:37Z</time>
      </trkpt>
      <trkpt lat="43.80366" lon="3.03282">
        <ele>616.65</ele>
        <time>2016-05-28T12:47:40Z</time>
      </trkpt>
      <trkpt lat="43.80387" lon="3.03265">
        <ele>613.8</ele>
        <time>2016-05-28T12:47:57Z</time>
      </trkpt>
      <trkpt lat="43.80389" lon="3.03264">
        <ele>613.5</ele>
        <time>2016-05-28T12:47:59Z</time>
      </trkpt>
      <trkpt lat="43.80407" lon="3.03257">
        <ele>611.66</ele>
        <time>2016-05-28T12:48:14Z</time>
      </trkpt>
      <trkpt lat="43.80412" lon="3.03253">
        <ele>611.24</ele>
        <time>2016-05-28T12:48:19Z</time>
      </trkpt>
      <trkpt lat="43.80415" lon="3.03251">
        <ele>610.92</ele>
        <time>2016-05-28T12:48:21Z</time>
      </trkpt>
      <trkpt lat="43.80431" lon="3.03249">
        <ele>609.65</ele>
        <time>2016-05-28T12:48:35Z</time>
      </trkpt>
      <trkpt lat="43.80438" lon="3.03246">
        <ele>609.22</ele>
        <time>2016-05-28T12:48:59Z</time>
      </trkpt>
      <trkpt lat="43.80442" lon="3.03251">
        <ele>608.23</ele>
        <time>2016-05-28T12:49:17Z</time>
      </trkpt>
      <trkpt lat="43.80446" lon="3.03253">
        <ele>608.06</ele>
        <time>2016-05-28T12:49:52Z</time>
      </trkpt>
      <trkpt lat="43.80457" lon="3.03244">
        <ele>606.13</ele>
        <time>2016-05-28T12:50:13Z</time>
      </trkpt>
      <trkpt lat="43.80465" lon="3.03225">
        <ele>602.97</ele>
        <time>2016-05-28T12:50:34Z</time>
      </trkpt>
      <trkpt lat="43.80481" lon="3.03208">
        <ele>599.85</ele>
        <time>2016-05-28T12:50:51Z</time>
      </trkpt>
      <trkpt lat="43.805" lon="3.0319">
        <ele>597.11</ele>
        <time>2016-05-28T12:51:06Z</time>
      </trkpt>
      <trkpt lat="43.80518" lon="3.0318">
        <ele>595.25</ele>
        <time>2016-05-28T12:51:20Z</time>
      </trkpt>
      <trkpt lat="43.80529" lon="3.03175">
        <ele>593.81</ele>
        <time>2016-05-28T12:51:32Z</time>
      </trkpt>
      <trkpt lat="43.80544" lon="3.03166">
        <ele>591.12</ele>
        <time>2016-05-28T12:51:50Z</time>
      </trkpt>
      <trkpt lat="43.80557" lon="3.03163">
        <ele>588.03</ele>
        <time>2016-05-28T12:52:06Z</time>
      </trkpt>
      <trkpt lat="43.80577" lon="3.03161">
        <ele>585.02</ele>
        <time>2016-05-28T12:52:26Z</time>
      </trkpt>
      <trkpt lat="43.80587" lon="3.03159">
        <ele>582.51</ele>
        <time>2016-05-28T12:52:43Z</time>
      </trkpt>
      <trkpt lat="43.80599" lon="3.03154">
        <ele>581.24</ele>
        <time>2016-05-28T12:52:56Z</time>
      </trkpt>
      <trkpt lat="43.80604" lon="3.03151">
        <ele>580.76</ele>
        <time>2016-05-28T12:53:00Z</time>
      </trkpt>
      <trkpt lat="43.80623" lon="3.03137">
        <ele>577.47</ele>
        <time>2016-05-28T12:53:18Z</time>
      </trkpt>
      <trkpt lat="43.80641" lon="3.03122">
        <ele>574.68</ele>
        <time>2016-05-28T12:53:37Z</time>
      </trkpt>
      <trkpt lat="43.80665" lon="3.03099">
        <ele>571.57</ele>
        <time>2016-05-28T12:53:58Z</time>
      </trkpt>
      <trkpt lat="43.80681" lon="3.03085">
        <ele>568.37</ele>
        <time>2016-05-28T12:54:12Z</time>
      </trkpt>
      <trkpt lat="43.80692" lon="3.03058">
        <ele>565.69</ele>
        <time>2016-05-28T12:54:30Z</time>
      </trkpt>
      <trkpt lat="43.80701" lon="3.03035">
        <ele>562.9</ele>
        <time>2016-05-28T12:54:52Z</time>
      </trkpt>
      <trkpt lat="43.80716" lon="3.03011">
        <ele>560.71</ele>
        <time>2016-05-28T12:55:14Z</time>
      </trkpt>
      <trkpt lat="43.8073" lon="3.0299">
        <ele>558.81</ele>
        <time>2016-05-28T12:55:33Z</time>
      </trkpt>
      <trkpt lat="43.8075" lon="3.02967">
        <ele>555.7</ele>
        <time>2016-05-28T12:55:50Z</time>
      </trkpt>
      <trkpt lat="43.80762" lon="3.02956">
        <ele>553.24</ele>
        <time>2016-05-28T12:56:03Z</time>
      </trkpt>
      <trkpt lat="43.80772" lon="3.02933">
        <ele>551.31</ele>
        <time>2016-05-28T12:56:17Z</time>
      </trkpt>
      <trkpt lat="43.80786" lon="3.029">
        <ele>548.63</ele>
        <time>2016-05-28T12:56:36Z</time>
      </trkpt>
      <trkpt lat="43.80799" lon="3.02873">
        <ele>546.27</ele>
        <time>2016-05-28T12:56:53Z</time>
      </trkpt>
      <trkpt lat="43.80809" lon="3.02844">
        <ele>545.2</ele>
        <time>2016-05-28T12:57:08Z</time>
      </trkpt>
      <trkpt lat="43.80816" lon="3.02819">
        <ele>545.11</ele>
        <time>2016-05-28T12:57:22Z</time>
      </trkpt>
      <trkpt lat="43.80829" lon="3.02789">
        <ele>544.65</ele>
        <time>2016-05-28T12:57:40Z</time>
      </trkpt>
      <trkpt lat="43.80843" lon="3.0276">
        <ele>544.48</ele>
        <time>2016-05-28T12:57:54Z</time>
      </trkpt>
      <trkpt lat="43.80852" lon="3.02737">
        <ele>544.74</ele>
        <time>2016-05-28T12:58:07Z</time>
      </trkpt>
      <trkpt lat="43.80865" lon="3.02729">
        <ele>544.1</ele>
        <time>2016-05-28T12:58:21Z</time>
      </trkpt>
      <trkpt lat="43.80881" lon="3.02716">
        <ele>541.72</ele>
        <time>2016-05-28T12:58:39Z</time>
      </trkpt>
      <trkpt lat="43.80886" lon="3.02711">
        <ele>541.3</ele>
        <time>2016-05-28T12:58:43Z</time>
      </trkpt>
      <trkpt lat="43.80891" lon="3.02704">
        <ele>540.97</ele>
        <time>2016-05-28T12:58:49Z</time>
      </trkpt>
      <trkpt lat="43.80899" lon="3.02681">
        <ele>540.05</ele>
        <time>2016-05-28T12:59:06Z</time>
      </trkpt>
      <trkpt lat="43.80901" lon="3.02665">
        <ele>539.37</ele>
        <time>2016-05-28T12:59:26Z</time>
      </trkpt>
      <trkpt lat="43.809" lon="3.02656">
        <ele>539.79</ele>
        <time>2016-05-28T12:59:47Z</time>
      </trkpt>
      <trkpt lat="43.80901" lon="3.0265">
        <ele>539.35</ele>
        <time>2016-05-28T13:00:12Z</time>
      </trkpt>
      <trkpt lat="43.80904" lon="3.0265">
        <ele>539.03</ele>
        <time>2016-05-28T13:00:30Z</time>
      </trkpt>
    </trkseg>
  </trk>
</gpx>